Darstellungsparameter: Aktuell verwendete Einstellungen:
Skalierung der Graphiken ... ?
xyx+y,   Skalierungsfaktor:      Skalierung: Modus: x, Faktor: 1
Darstellungszeitraum ... ?
Vom - - bis: - -   Zeitraum: 11.09.2008 - 10.12.2008
Min/Max/Avg-Anzeige ... ?
Zeige MMA aktuell
Zeige MMA Monat
Zeige MMA alles
Zeige --A aktuell
Zeige --A Monat
Zeige --A alles
Keine MMA-Anzeige
MMA:
Average (ber die Originaldaten)
MMA-Basis: 17.04.2019 - 19.05.2019
Quicknavigation für Darstellung... ?
Tage:      1T, 2T, 3T, 5T -1T -2T -3T -5T +1T +2T +3T +5T
Wochen: 1W, 2W, 3W -1W -2W -3W +1W +2W +3W
Monate: 1M, 3M, 6M -1M -3M -6M +1M +3M +6M
Jahre:    1J, 3J, 5J, 10J -1J -3J -5J -10J +1J +3J +5J +10J
Nutze für die Darstellung ... ?
Originaldaten oder Mittelwerte auf ...
Stundenbasis Tagesbasis Wochenbasis
Monatsbasis Jahresbasis      Datenbasis: Original-Daten
Darstellen als:
Statistik (Auto) Statistik J:M      Darstellung:
Zur Graphik,    zurück zur Übersicht aller Sensoren.
 
Tabellarische Datenbersicht: ?
 
Sensor: Nr:Datum:Temp:Abs-Feuchte:Windchill:Wind:
Aussen-T/F 1 11-09-2008 00:03:04 19.2 C 12.04 g/m*3 19.2 C 0 km/h
2 11-09-2008 00:08:04 19.1 C 11.97 g/m*3 19.1 C 0 km/h
3 11-09-2008 00:13:04 19.1 C 12.13 g/m*3 19.1 C 0 km/h
4 11-09-2008 00:18:04 18.9 C 12.15 g/m*3 18.9 C 0 km/h
5 11-09-2008 00:23:04 18.7 C 12.17 g/m*3 18.7 C 0 km/h
6 11-09-2008 00:28:04 18.7 C 12.17 g/m*3 18.7 C 0 km/h
7 11-09-2008 00:33:04 18.7 C 12.17 g/m*3 18.7 C 0 km/h
8 11-09-2008 00:38:04 18.5 C 12.02 g/m*3 18.5 C 0 km/h
9 11-09-2008 00:43:04 18.4 C 11.95 g/m*3 18.4 C 0 km/h
10 11-09-2008 00:48:04 18.3 C 11.88 g/m*3 18.3 C 0 km/h
11 11-09-2008 00:53:05 18.2 C 11.81 g/m*3 18.2 C 0 km/h
12 11-09-2008 00:58:05 18 C 11.67 g/m*3 18 C 0 km/h
13 11-09-2008 01:03:05 18 C 11.67 g/m*3 18 C 0 km/h
14 11-09-2008 01:08:05 17.8 C 11.69 g/m*3 17.8 C 0 km/h
15 11-09-2008 01:13:05 17.6 C 11.7 g/m*3 17.6 C 0 km/h
16 11-09-2008 01:18:05 17.5 C 11.63 g/m*3 17.5 C 0 km/h
17 11-09-2008 01:23:05 17.5 C 11.63 g/m*3 17.5 C 0 km/h
18 11-09-2008 01:28:05 17.5 C 11.63 g/m*3 17.5 C 0 km/h
19 11-09-2008 01:33:05 17.4 C 11.56 g/m*3 17.4 C 0 km/h
20 11-09-2008 01:38:05 17.3 C 11.49 g/m*3 17.3 C 0 km/h
21 11-09-2008 01:43:05 17.2 C 11.42 g/m*3 17.2 C 0 km/h
22 11-09-2008 01:48:05 17.2 C 11.57 g/m*3 17.2 C 0 km/h
23 11-09-2008 01:53:05 17.2 C 11.57 g/m*3 17.2 C 0 km/h
24 11-09-2008 01:58:05 17.3 C 11.64 g/m*3 17.3 C 0 km/h
25 11-09-2008 02:03:05 17.1 C 11.5 g/m*3 17.1 C 0 km/h
Sensor: Nr:Datum:Temp:Abs-Feuchte:Windchill:Wind:
Aussen-T/F 26 11-09-2008 02:08:05 17 C 11.43 g/m*3 17 C 0 km/h
27 11-09-2008 02:13:05 16.9 C 11.65 g/m*3 16.9 C 0 km/h
28 11-09-2008 02:18:05 16.7 C 11.51 g/m*3 16.7 C 0 km/h
29 11-09-2008 02:23:05 16.6 C 11.44 g/m*3 16.6 C 0 km/h
30 11-09-2008 02:28:06 16.6 C 11.44 g/m*3 16.6 C 0 km/h
31 11-09-2008 02:33:06 16.5 C 11.51 g/m*3 16.5 C 0 km/h
32 11-09-2008 02:38:06 16.4 C 11.45 g/m*3 16.4 C 0 km/h
33 11-09-2008 02:43:06 16.4 C 11.31 g/m*3 16.4 C 0 km/h
34 11-09-2008 02:48:06 16.3 C 11.24 g/m*3 16.3 C 0 km/h
35 11-09-2008 02:53:06 16.3 C 11.24 g/m*3 16.3 C 0 km/h
36 11-09-2008 02:58:06 16.2 C 11.17 g/m*3 16.2 C 0 km/h
37 11-09-2008 03:03:06 16.2 C 11.17 g/m*3 16.2 C 0 km/h
38 11-09-2008 03:08:06 16.1 C 11.1 g/m*3 16.1 C 0 km/h
39 11-09-2008 03:13:06 16.1 C 11.1 g/m*3 16.1 C 0 km/h
40 11-09-2008 03:18:06 16 C 11.04 g/m*3 16 C 0 km/h
41 11-09-2008 03:23:06 16 C 11.04 g/m*3 16 C 0 km/h
42 11-09-2008 03:28:06 16 C 11.17 g/m*3 16 C 0 km/h
43 11-09-2008 03:33:06 15.9 C 11.1 g/m*3 15.9 C 0 km/h
44 11-09-2008 03:38:06 15.9 C 11.1 g/m*3 15.9 C 0 km/h
45 11-09-2008 03:43:06 15.8 C 11.04 g/m*3 15.8 C 0 km/h
46 11-09-2008 03:48:06 15.8 C 11.04 g/m*3 15.8 C 0 km/h
47 11-09-2008 03:53:06 15.8 C 11.04 g/m*3 15.8 C 0 km/h
48 11-09-2008 03:58:06 15.7 C 10.97 g/m*3 15.7 C 0 km/h
49 11-09-2008 04:03:06 15.6 C 10.91 g/m*3 15.6 C 0 km/h
50 11-09-2008 04:08:07 15.7 C 10.97 g/m*3 15.7 C 0 km/h
Sensor: Nr:Datum:Temp:Abs-Feuchte:Windchill:Wind:
Aussen-T/F 51 11-09-2008 04:13:07 15.5 C 10.84 g/m*3 15.5 C 0 km/h
52 11-09-2008 04:18:07 15.4 C 10.9 g/m*3 15.4 C 0 km/h
53 11-09-2008 04:23:07 15.4 C 10.9 g/m*3 15.4 C 0 km/h
54 11-09-2008 04:28:07 15.4 C 10.9 g/m*3 15.4 C 0 km/h
55 11-09-2008 04:33:07 15.3 C 10.84 g/m*3 15.3 C 0 km/h
56 11-09-2008 04:38:07 15.3 C 10.84 g/m*3 15.3 C 0 km/h
57 11-09-2008 04:43:07 15.3 C 10.84 g/m*3 15.3 C 0 km/h
58 11-09-2008 04:48:07 15.3 C 10.97 g/m*3 15.3 C 0 km/h
59 11-09-2008 04:53:07 15.3 C 10.97 g/m*3 15.3 C 0 km/h
60 11-09-2008 04:58:07 15.3 C 10.97 g/m*3 15.3 C 0 km/h
61 11-09-2008 05:03:07 15.4 C 11.04 g/m*3 15.4 C 0 km/h
62 11-09-2008 05:08:07 15.5 C 11.1 g/m*3 15.5 C 0 km/h
63 11-09-2008 05:13:07 15.5 C 11.1 g/m*3 15.5 C 0 km/h
64 11-09-2008 05:18:07 15.6 C 11.17 g/m*3 15.6 C 0 km/h
65 11-09-2008 05:23:07 15.6 C 11.17 g/m*3 15.6 C 0 km/h
66 11-09-2008 05:28:07 15.6 C 11.17 g/m*3 15.6 C 0 km/h
67 11-09-2008 05:33:07 15.6 C 11.17 g/m*3 15.6 C 0 km/h
68 11-09-2008 05:38:07 15.5 C 11.1 g/m*3 15.5 C 0 km/h
69 11-09-2008 05:43:08 15.5 C 11.1 g/m*3 15.5 C 0 km/h
70 11-09-2008 05:48:08 15.5 C 11.1 g/m*3 15.5 C 0 km/h
71 11-09-2008 05:53:08 15.5 C 10.97 g/m*3 15.5 C 0 km/h
72 11-09-2008 05:58:08 15.4 C 11.04 g/m*3 15.4 C 0 km/h
73 11-09-2008 06:03:08 15.4 C 11.04 g/m*3 15.4 C 0 km/h
74 11-09-2008 06:08:08 15.3 C 10.97 g/m*3 15.3 C 0 km/h
75 11-09-2008 06:13:08 15.2 C 10.9 g/m*3 15.2 C 0 km/h
Sensor: Nr:Datum:Temp:Abs-Feuchte:Windchill:Wind:
Aussen-T/F 76 11-09-2008 06:18:08 15.1 C 10.84 g/m*3 15.1 C 0 km/h
77 11-09-2008 06:23:08 15.1 C 10.84 g/m*3 15.1 C 0 km/h
78 11-09-2008 06:28:08 15.2 C 11.03 g/m*3 15.2 C 0 km/h
79 11-09-2008 06:33:08 15.1 C 10.97 g/m*3 15.1 C 0 km/h
80 11-09-2008 06:38:08 15.1 C 10.97 g/m*3 15.1 C 0 km/h
81 11-09-2008 06:43:08 15.2 C 11.03 g/m*3 15.2 C 0 km/h
82 11-09-2008 06:48:08 15.3 C 11.1 g/m*3 15.3 C 0 km/h
83 11-09-2008 06:53:08 15.3 C 11.1 g/m*3 15.3 C 0 km/h
84 11-09-2008 06:58:08 15.4 C 11.17 g/m*3 15.4 C 0 km/h
85 11-09-2008 07:03:02 15.4 C 11.17 g/m*3 15.4 C 0 km/h
86 11-09-2008 07:08:02 15.4 C 11.17 g/m*3 15.4 C 0 km/h
87 11-09-2008 07:13:02 15.4 C 11.17 g/m*3 15.4 C 0 km/h
88 11-09-2008 07:18:02 15.4 C 11.17 g/m*3 15.4 C 0 km/h
89 11-09-2008 07:23:02 15.4 C 11.17 g/m*3 15.4 C 0 km/h
90 11-09-2008 07:28:02 15.4 C 11.17 g/m*3 15.4 C 0 km/h
91 11-09-2008 07:33:02 15.4 C 11.17 g/m*3 15.4 C 0 km/h
92 11-09-2008 07:38:02 15.4 C 11.3 g/m*3 15.4 C 0 km/h
93 11-09-2008 07:43:02 15.5 C 11.37 g/m*3 15.5 C 0 km/h
94 11-09-2008 07:48:02 15.6 C 11.44 g/m*3 15.6 C 0 km/h
95 11-09-2008 07:53:02 15.7 C 11.51 g/m*3 15.7 C 0 km/h
96 11-09-2008 07:58:02 15.8 C 11.58 g/m*3 15.8 C 0 km/h
97 11-09-2008 08:03:02 15.8 C 11.58 g/m*3 15.8 C 0 km/h
98 11-09-2008 08:08:02 15.8 C 11.44 g/m*3 15.8 C 0 km/h
99 11-09-2008 08:13:02 15.9 C 11.51 g/m*3 15.9 C 0 km/h
100 11-09-2008 08:18:02 16 C 11.44 g/m*3 16 C 0 km/h
Sensor: Nr:Datum:Temp:Abs-Feuchte:Windchill:Wind:
Aussen-T/F 101 11-09-2008 08:23:02 16 C 11.44 g/m*3 16 C 0 km/h
102 11-09-2008 08:28:02 16.1 C 11.65 g/m*3 16.1 C 0 km/h
103 11-09-2008 08:33:03 16.2 C 11.72 g/m*3 16.2 C 0 km/h
104 11-09-2008 08:38:03 16.4 C 11.86 g/m*3 16.4 C 0 km/h
105 11-09-2008 08:43:03 16.5 C 11.8 g/m*3 16.5 C 0 km/h
106 11-09-2008 08:48:02 16.6 C 11.87 g/m*3 16.6 C 0 km/h
107 11-09-2008 08:53:02 16.6 C 11.87 g/m*3 16.6 C 0 km/h
108 11-09-2008 08:58:02 16.7 C 11.94 g/m*3 16.7 C 0 km/h
109 11-09-2008 09:03:02 16.8 C 11.87 g/m*3 16.8 C 0 km/h
110 11-09-2008 09:08:02 16.8 C 11.87 g/m*3 16.8 C 0 km/h
111 11-09-2008 09:13:02 17 C 12.01 g/m*3 17 C 0 km/h
112 11-09-2008 09:18:02 17.2 C 12.15 g/m*3 17.2 C 0 km/h
113 11-09-2008 09:23:02 17.3 C 12.08 g/m*3 17.3 C 0 km/h
114 11-09-2008 09:28:02 17.5 C 12.23 g/m*3 17.5 C 0 km/h
115 11-09-2008 09:33:03 17.6 C 12.15 g/m*3 17.6 C 0 km/h
116 11-09-2008 09:38:03 17.6 C 12 g/m*3 17.6 C 0 km/h
117 11-09-2008 09:43:03 17.7 C 12.07 g/m*3 17.7 C 0 km/h
118 11-09-2008 09:48:02 17.8 C 11.99 g/m*3 17.8 C 0 km/h
119 11-09-2008 09:53:02 17.9 C 12.06 g/m*3 17.9 C 0 km/h
120 11-09-2008 09:58:02 18.2 C 12.12 g/m*3 18.2 C 0 km/h
121 11-09-2008 10:03:03 18.4 C 12.11 g/m*3 18.4 C 0 km/h
122 11-09-2008 10:08:03 18.7 C 12.33 g/m*3 18.7 C 0 km/h
123 11-09-2008 10:13:03 18.8 C 12.24 g/m*3 18.8 C 0 km/h
124 11-09-2008 10:18:02 19 C 12.06 g/m*3 19 C 0 km/h
125 11-09-2008 10:23:02 19.2 C 12.04 g/m*3 19.2 C 0 km/h
Sensor: Nr:Datum:Temp:Abs-Feuchte:Windchill:Wind:
Aussen-T/F 126 11-09-2008 10:28:02 19.3 C 12.11 g/m*3 19.3 C 0 km/h
127 11-09-2008 10:33:02 19.5 C 12.08 g/m*3 19.5 C 0 km/h
128 11-09-2008 10:38:02 19.7 C 12.06 g/m*3 19.7 C 0 km/h
129 11-09-2008 10:43:02 19.9 C 12.03 g/m*3 19.9 C 0 km/h
130 11-09-2008 10:48:03 20.1 C 11.82 g/m*3 20.1 C 0 km/h
131 11-09-2008 10:53:03 20.5 C 12.1 g/m*3 20.5 C 0 km/h
132 11-09-2008 10:58:03 20.4 C 11.85 g/m*3 20.4 C 0 km/h
133 11-09-2008 11:03:02 20.5 C 11.74 g/m*3 20.5 C 0 km/h
134 11-09-2008 11:08:02 20.8 C 11.95 g/m*3 20.8 C 0 km/h
135 11-09-2008 11:13:02 20.9 C 11.84 g/m*3 20.9 C 0 km/h
136 11-09-2008 11:18:02 21 C 11.72 g/m*3 21 C 0 km/h
137 11-09-2008 11:23:02 21.1 C 11.79 g/m*3 21.1 C 0 km/h
138 11-09-2008 11:28:02 21.2 C 11.68 g/m*3 21.2 C 0 km/h
139 11-09-2008 11:33:02 21.1 C 11.61 g/m*3 21.1 C 0 km/h
140 11-09-2008 11:38:02 20.9 C 11.66 g/m*3 20.9 C 0 km/h
141 11-09-2008 11:43:03 20.8 C 11.95 g/m*3 20.8 C 0 km/h
142 11-09-2008 11:48:01 20.9 C 12.02 g/m*3 20.9 C 0 km/h
143 11-09-2008 11:53:01 21 C 11.91 g/m*3 21 C 0 km/h
144 11-09-2008 11:58:01 21.1 C 11.79 g/m*3 21.1 C 0 km/h
145 11-09-2008 12:03:02 21.1 C 11.98 g/m*3 21.1 C 0 km/h
146 11-09-2008 12:08:02 21.2 C 12.05 g/m*3 21.2 C 0 km/h
147 11-09-2008 12:13:02 21.2 C 12.05 g/m*3 21.2 C 0 km/h
148 11-09-2008 12:18:02 21.5 C 12.26 g/m*3 21.5 C 0 km/h
149 11-09-2008 12:23:02 21.6 C 12.14 g/m*3 21.6 C 0 km/h
150 11-09-2008 12:28:03 21.9 C 12.35 g/m*3 21.9 C 0 km/h
Sensor: Nr:Datum:Temp:Abs-Feuchte:Windchill:Wind:
Aussen-T/F 151 11-09-2008 12:33:01 22.2 C 12.17 g/m*3 22.2 C 0 km/h
152 11-09-2008 12:38:01 22.5 C 12.38 g/m*3 22.5 C 0 km/h
153 11-09-2008 12:43:01 22.8 C 12.19 g/m*3 22.8 C 0 km/h
154 11-09-2008 12:48:02 23 C 12.13 g/m*3 23 C 0 km/h
155 11-09-2008 12:53:02 23.1 C 12.2 g/m*3 23.1 C 0 km/h
156 11-09-2008 12:58:02 23.3 C 12.13 g/m*3 23.3 C 0 km/h
157 11-09-2008 13:03:01 23.7 C 12.19 g/m*3 23.7 C 0 km/h
158 11-09-2008 13:08:01 24.1 C 12.03 g/m*3 24.1 C 0 km/h
159 11-09-2008 13:13:01 24.3 C 12.17 g/m*3 24.3 C 0 km/h
160 11-09-2008 13:18:01 24.7 C 12.22 g/m*3 24.7 C 0 km/h
161 11-09-2008 13:23:01 24.9 C 12.13 g/m*3 24.9 C 0 km/h
162 11-09-2008 13:28:01 24.9 C 11.9 g/m*3 24.9 C 0 km/h
163 11-09-2008 13:33:02 25.4 C 11.77 g/m*3 25.4 C 0 km/h
164 11-09-2008 13:38:02 25.7 C 11.73 g/m*3 25.7 C 0 km/h
165 11-09-2008 13:43:02 25.9 C 11.86 g/m*3 25.9 C 0 km/h
166 11-09-2008 13:48:02 26.1 C 12 g/m*3 26.1 C 0 km/h
167 11-09-2008 13:53:02 26.4 C 11.7 g/m*3 26.4 C 0 km/h
168 11-09-2008 13:58:02 26.5 C 11.77 g/m*3 26.5 C 0 km/h
169 11-09-2008 14:03:01 26.9 C 11.77 g/m*3 26.9 C 0 km/h
170 11-09-2008 14:08:01 27.2 C 11.45 g/m*3 27.2 C 0 km/h
171 11-09-2008 14:13:01 27.5 C 11.38 g/m*3 27.5 C 0 km/h
172 11-09-2008 14:18:02 27.7 C 11.5 g/m*3 27.7 C 0 km/h
173 11-09-2008 14:23:02 27.8 C 11.3 g/m*3 27.8 C 0 km/h
174 11-09-2008 14:28:02 27.9 C 11.09 g/m*3 27.9 C 0 km/h
175 11-09-2008 14:33:02 27.8 C 11.03 g/m*3 27.8 C 0 km/h
Sensor: Nr:Datum:Temp:Abs-Feuchte:Windchill:Wind:
Aussen-T/F 176 11-09-2008 14:38:02 28.2 C 11.27 g/m*3 28.2 C 0 km/h
177 11-09-2008 14:43:02 28.3 C 11.06 g/m*3 28.3 C 0 km/h
178 11-09-2008 14:48:01 28.3 C 11.33 g/m*3 28.3 C 0 km/h
179 11-09-2008 14:53:01 28.7 C 11.3 g/m*3 28.7 C 0 km/h
180 11-09-2008 14:58:01 29 C 10.63 g/m*3 29 C 0 km/h
181 11-09-2008 15:03:02 29.4 C 10.27 g/m*3 29.4 C 0 km/h
182 11-09-2008 15:08:03 29.6 C 10.68 g/m*3 29.6 C 0 km/h
183 11-09-2008 15:13:03 29.4 C 9.98 g/m*3 29.4 C 0 km/h
184 11-09-2008 15:18:02 29 C 10.63 g/m*3 29 C 0 km/h
185 11-09-2008 15:23:02 28.8 C 10.51 g/m*3 28.8 C 0 km/h
186 11-09-2008 15:28:02 28.7 C 10.17 g/m*3 28.7 C 0 km/h
187 11-09-2008 15:33:02 28.8 C 10.51 g/m*3 28.8 C 0 km/h
188 11-09-2008 15:38:02 28.9 C 10.86 g/m*3 28.9 C 0 km/h
189 11-09-2008 15:43:02 29 C 9.77 g/m*3 29 C 0 km/h
190 11-09-2008 15:48:02 29.2 C 9.29 g/m*3 29.2 C 0 km/h
191 11-09-2008 15:53:02 29 C 8.9 g/m*3 29 C 0 km/h
192 11-09-2008 15:58:02 28.6 C 8.99 g/m*3 28.6 C 0 km/h
193 11-09-2008 16:03:01 28.3 C 9.68 g/m*3 28.3 C 0 km/h
194 11-09-2008 16:08:01 28 C 10.06 g/m*3 28 C 0 km/h
195 11-09-2008 16:13:01 27.7 C 10.7 g/m*3 27.7 C 0 km/h
196 11-09-2008 16:18:02 27.1 C 10.61 g/m*3 27.1 C 0 km/h
197 11-09-2008 16:23:02 26.6 C 11.08 g/m*3 26.6 C 0 km/h
198 11-09-2008 16:28:02 26.5 C 10.51 g/m*3 26.5 C 0 km/h
199 11-09-2008 16:33:02 26.3 C 11.39 g/m*3 26.3 C 0 km/h
200 11-09-2008 16:38:02 26 C 11.2 g/m*3 26 C 0 km/h
Sensor: Nr:Datum:Temp:Abs-Feuchte:Windchill:Wind:
Aussen-T/F 201 11-09-2008 16:43:02 25.9 C 11.62 g/m*3 25.9 C 0 km/h
202 11-09-2008 16:48:02 25.8 C 11.56 g/m*3 25.8 C 0 km/h
203 11-09-2008 16:53:02 25.6 C 10.95 g/m*3 25.6 C 0 km/h
204 11-09-2008 16:58:02 25.4 C 11.06 g/m*3 25.4 C 0 km/h
205 11-09-2008 17:03:02 25.1 C 11.11 g/m*3 25.1 C 0 km/h
206 11-09-2008 17:08:02 25.3 C 10.77 g/m*3 25.3 C 0 km/h
207 11-09-2008 17:13:02 25.2 C 10.94 g/m*3 25.2 C 0 km/h
208 11-09-2008 17:18:02 25.1 C 10.88 g/m*3 25.1 C 0 km/h
209 11-09-2008 17:23:02 25.1 C 10.88 g/m*3 25.1 C 0 km/h
210 11-09-2008 17:28:02 24.8 C 11.38 g/m*3 24.8 C 0 km/h
211 11-09-2008 17:33:02 24.7 C 11.54 g/m*3 24.7 C 0 km/h
212 11-09-2008 17:38:02 24.6 C 11.7 g/m*3 24.6 C 0 km/h
213 11-09-2008 17:43:02 23.2 C 13.1 g/m*3 23.2 C 0 km/h
214 11-09-2008 17:48:02 22.7 C 13.74 g/m*3 22.7 C 0 km/h
215 11-09-2008 17:53:02 21.6 C 14.22 g/m*3 21.6 C 0 km/h
216 11-09-2008 17:58:02 21.1 C 14.56 g/m*3 21.1 C 0 km/h
217 11-09-2008 18:03:01 20.9 C 14.75 g/m*3 20.9 C 0 km/h
218 11-09-2008 18:08:01 20.8 C 14.85 g/m*3 20.8 C 0 km/h
219 11-09-2008 18:13:01 20.9 C 15.12 g/m*3 20.9 C 0 km/h
220 11-09-2008 18:18:02 21 C 15.02 g/m*3 21 C 0 km/h
221 11-09-2008 18:23:02 21.1 C 15.11 g/m*3 21.1 C 0 km/h
222 11-09-2008 18:28:02 21.4 C 15.37 g/m*3 21.4 C 0 km/h
223 11-09-2008 18:33:02 21.6 C 15.36 g/m*3 21.6 C 0 km/h
224 11-09-2008 18:38:02 21.8 C 15.54 g/m*3 21.8 C 0 km/h
225 11-09-2008 18:43:02 22.1 C 15.42 g/m*3 22.1 C 0 km/h
Sensor: Nr:Datum:Temp:Abs-Feuchte:Windchill:Wind:
Aussen-T/F 226 11-09-2008 18:48:02 22.2 C 15.31 g/m*3 22.2 C 0 km/h
227 11-09-2008 18:53:02 22.2 C 15.31 g/m*3 22.2 C 0 km/h
228 11-09-2008 18:58:02 22.2 C 15.12 g/m*3 22.2 C 0 km/h
229 11-09-2008 19:03:02 22.2 C 15.12 g/m*3 22.2 C 0 km/h
230 11-09-2008 19:08:02 22.1 C 15.03 g/m*3 22.1 C 0 km/h
231 11-09-2008 19:13:02 22 C 14.94 g/m*3 22 C 0 km/h
232 11-09-2008 19:18:02 21.8 C 15.16 g/m*3 21.8 C 0 km/h
233 11-09-2008 19:23:02 21.6 C 14.98 g/m*3 21.6 C 0 km/h
234 11-09-2008 19:28:02 21.4 C 14.81 g/m*3 21.4 C 0 km/h
235 11-09-2008 19:33:01 21.2 C 14.83 g/m*3 21.2 C 0 km/h
236 11-09-2008 19:38:01 21.1 C 14.74 g/m*3 21.1 C 0 km/h
237 11-09-2008 19:43:01 21.1 C 14.92 g/m*3 21.1 C 0 km/h
238 11-09-2008 19:48:02 20.9 C 14.93 g/m*3 20.9 C 0 km/h
239 11-09-2008 19:53:02 20.8 C 14.85 g/m*3 20.8 C 0 km/h
240 11-09-2008 19:58:02 20.7 C 14.76 g/m*3 20.7 C 0 km/h
241 11-09-2008 20:03:02 20.6 C 14.68 g/m*3 20.6 C 0 km/h
242 11-09-2008 20:08:02 20.4 C 14.51 g/m*3 20.4 C 0 km/h
243 11-09-2008 20:13:02 20.3 C 14.42 g/m*3 20.3 C 0 km/h
244 11-09-2008 20:18:02 20.1 C 14.25 g/m*3 20.1 C 0 km/h
245 11-09-2008 20:23:02 20 C 14.17 g/m*3 20 C 0 km/h
246 11-09-2008 20:28:02 19.9 C 14.26 g/m*3 19.9 C 0 km/h
247 11-09-2008 20:33:02 19.9 C 14.26 g/m*3 19.9 C 0 km/h
248 11-09-2008 20:38:02 19.9 C 14.26 g/m*3 19.9 C 0 km/h
249 11-09-2008 20:43:02 19.9 C 14.26 g/m*3 19.9 C 0 km/h
250 11-09-2008 20:48:01 20 C 14.17 g/m*3 20 C 0 km/h
Sensor: Nr:Datum:Temp:Abs-Feuchte:Windchill:Wind:
Aussen-T/F 251 11-09-2008 20:53:01 19.7 C 14.26 g/m*3 19.7 C 0 km/h
252 11-09-2008 20:58:01 19.6 C 14.18 g/m*3 19.6 C 0 km/h
253 11-09-2008 21:03:01 19.5 C 14.1 g/m*3 19.5 C 0 km/h
254 11-09-2008 21:08:01 19.6 C 14.18 g/m*3 19.6 C 0 km/h
255 11-09-2008 21:13:01 19.5 C 14.1 g/m*3 19.5 C 0 km/h
256 11-09-2008 21:18:01 19.5 C 14.1 g/m*3 19.5 C 0 km/h
257 11-09-2008 21:23:01 19.5 C 14.1 g/m*3 19.5 C 0 km/h
258 11-09-2008 21:28:01 19.4 C 14.01 g/m*3 19.4 C 0 km/h
259 11-09-2008 21:33:01 19.3 C 13.93 g/m*3 19.3 C 0 km/h
260 11-09-2008 21:38:01 19.3 C 13.93 g/m*3 19.3 C 0 km/h
261 11-09-2008 21:43:01 19.3 C 14.1 g/m*3 19.3 C 0 km/h
262 11-09-2008 21:49:03 19.2 C 14.02 g/m*3 19.2 C 0 km/h
263 11-09-2008 21:54:03 19.2 C 14.02 g/m*3 19.2 C 0 km/h
264 11-09-2008 21:59:03 19.1 C 13.93 g/m*3 19.1 C 0 km/h
265 11-09-2008 22:04:03 19 C 13.85 g/m*3 19 C 0 km/h
266 11-09-2008 22:09:03 19 C 13.85 g/m*3 19 C 0 km/h
267 11-09-2008 22:14:03 19 C 13.85 g/m*3 19 C 0 km/h
268 11-09-2008 22:19:03 18.9 C 13.93 g/m*3 18.9 C 0 km/h
269 11-09-2008 22:24:03 18.9 C 13.93 g/m*3 18.9 C 0 km/h
270 11-09-2008 22:29:03 18.8 C 13.85 g/m*3 18.8 C 0 km/h
271 11-09-2008 22:34:03 18.8 C 13.85 g/m*3 18.8 C 0 km/h
272 11-09-2008 22:39:03 18.7 C 13.93 g/m*3 18.7 C 0 km/h
273 11-09-2008 22:44:03 18.7 C 13.93 g/m*3 18.7 C 0 km/h
274 11-09-2008 22:49:03 18.7 C 13.77 g/m*3 18.7 C 0 km/h
275 11-09-2008 22:54:03 18.6 C 13.69 g/m*3 18.6 C 0 km/h
Sensor: Nr:Datum:Temp:Abs-Feuchte:Windchill:Wind:
Aussen-T/F 276 11-09-2008 22:59:03 18.6 C 13.85 g/m*3 18.6 C 0 km/h
277 11-09-2008 23:04:04 18.6 C 13.85 g/m*3 18.6 C 0 km/h
278 11-09-2008 23:09:04 18.5 C 13.77 g/m*3 18.5 C 0 km/h
279 11-09-2008 23:14:04 18.5 C 13.77 g/m*3 18.5 C 0 km/h
280 11-09-2008 23:19:04 18.5 C 13.77 g/m*3 18.5 C 0 km/h
281 11-09-2008 23:24:04 18.4 C 13.68 g/m*3 18.4 C 0 km/h
282 11-09-2008 23:29:04 18.3 C 13.6 g/m*3 18.3 C 0 km/h
283 11-09-2008 23:34:04 18.2 C 13.52 g/m*3 18.2 C 0 km/h
284 11-09-2008 23:39:04 18.1 C 13.44 g/m*3 18.1 C 0 km/h
285 11-09-2008 23:44:04 18.1 C 13.44 g/m*3 18.1 C 0 km/h
286 11-09-2008 23:49:04 18.1 C 13.44 g/m*3 18.1 C 0 km/h
287 11-09-2008 23:54:04 18 C 13.36 g/m*3 18 C 0 km/h
288 11-09-2008 23:59:04 18 C 13.52 g/m*3 18 C 0 km/h
289 12-09-2008 00:04:04 18 C 13.52 g/m*3 18 C 0 km/h
290 12-09-2008 00:09:04 18.1 C 13.6 g/m*3 18.1 C 0 km/h
291 12-09-2008 00:14:04 18.1 C 13.6 g/m*3 18.1 C 0 km/h
292 12-09-2008 00:19:04 18.1 C 13.6 g/m*3 18.1 C 0 km/h
293 12-09-2008 00:24:04 18.1 C 13.6 g/m*3 18.1 C 0 km/h
294 12-09-2008 00:29:04 18.1 C 13.6 g/m*3 18.1 C 0 km/h
295 12-09-2008 00:34:04 18.1 C 13.6 g/m*3 18.1 C 0 km/h
296 12-09-2008 00:39:05 18.1 C 13.6 g/m*3 18.1 C 0 km/h
297 12-09-2008 00:44:05 18.1 C 13.6 g/m*3 18.1 C 0 km/h
298 12-09-2008 00:49:05 18.1 C 13.6 g/m*3 18.1 C 0 km/h
299 12-09-2008 00:54:05 18.1 C 13.6 g/m*3 18.1 C 0 km/h
300 12-09-2008 00:59:05 18.1 C 13.6 g/m*3 18.1 C 0 km/h
Sensor: Nr:Datum:Temp:Abs-Feuchte:Windchill:Wind:
Aussen-T/F 301 12-09-2008 01:04:05 18.1 C 13.6 g/m*3 18.1 C 0 km/h
302 12-09-2008 01:09:05 18.1 C 13.6 g/m*3 18.1 C 0 km/h
303 12-09-2008 01:14:05 18.1 C 13.6 g/m*3 18.1 C 0 km/h
304 12-09-2008 01:19:05 18.2 C 13.68 g/m*3 18.2 C 0 km/h
305 12-09-2008 01:24:05 18.2 C 13.68 g/m*3 18.2 C 0 km/h
306 12-09-2008 01:29:05 18.2 C 13.68 g/m*3 18.2 C 0 km/h
307 12-09-2008 01:34:05 18.2 C 13.52 g/m*3 18.2 C 0 km/h
308 12-09-2008 01:39:05 18.3 C 13.6 g/m*3 18.3 C 0 km/h
309 12-09-2008 01:44:05 18.3 C 13.6 g/m*3 18.3 C 0 km/h
310 12-09-2008 01:49:05 18.3 C 13.6 g/m*3 18.3 C 0 km/h
311 12-09-2008 01:54:05 18.3 C 13.45 g/m*3 18.3 C 0 km/h
312 12-09-2008 01:59:05 18.3 C 13.45 g/m*3 18.3 C 0 km/h
313 12-09-2008 02:04:05 18.2 C 13.37 g/m*3 18.2 C 0 km/h
314 12-09-2008 02:09:05 18.3 C 13.45 g/m*3 18.3 C 0 km/h
315 12-09-2008 02:14:06 18.2 C 13.37 g/m*3 18.2 C 0 km/h
316 12-09-2008 02:19:06 18.3 C 13.45 g/m*3 18.3 C 0 km/h
317 12-09-2008 02:24:06 18.3 C 13.45 g/m*3 18.3 C 0 km/h
318 12-09-2008 02:29:06 18.3 C 13.45 g/m*3 18.3 C 0 km/h
319 12-09-2008 02:34:06 18.3 C 13.45 g/m*3 18.3 C 0 km/h
320 12-09-2008 02:39:06 18.3 C 13.45 g/m*3 18.3 C 0 km/h
321 12-09-2008 02:44:06 18.3 C 13.45 g/m*3 18.3 C 0 km/h
322 12-09-2008 02:49:06 18.3 C 13.45 g/m*3 18.3 C 0 km/h
323 12-09-2008 02:54:06 18.3 C 13.45 g/m*3 18.3 C 0 km/h
324 12-09-2008 02:59:06 18.3 C 13.45 g/m*3 18.3 C 0 km/h
325 12-09-2008 03:04:06 18.3 C 13.45 g/m*3 18.3 C 0 km/h
Sensor: Nr:Datum:Temp:Abs-Feuchte:Windchill:Wind:
Aussen-T/F 326 12-09-2008 03:09:06 18.2 C 13.37 g/m*3 18.2 C 0 km/h
327 12-09-2008 03:14:06 18.1 C 13.44 g/m*3 18.1 C 0 km/h
328 12-09-2008 03:19:06 18.1 C 13.44 g/m*3 18.1 C 0 km/h
329 12-09-2008 03:24:06 18.1 C 13.44 g/m*3 18.1 C 0 km/h
330 12-09-2008 03:29:06 18.2 C 13.52 g/m*3 18.2 C 0 km/h
331 12-09-2008 03:34:06 18 C 13.36 g/m*3 18 C 0 km/h
332 12-09-2008 03:39:06 17.9 C 13.44 g/m*3 17.9 C 0 km/h
333 12-09-2008 03:44:06 17.9 C 13.59 g/m*3 17.9 C 0 km/h
334 12-09-2008 03:49:07 17.8 C 13.51 g/m*3 17.8 C 0 km/h
335 12-09-2008 03:54:07 17.8 C 13.51 g/m*3 17.8 C 0 km/h
336 12-09-2008 03:59:07 17.8 C 13.51 g/m*3 17.8 C 0 km/h
337 12-09-2008 04:04:07 17.9 C 13.59 g/m*3 17.9 C 0 km/h
338 12-09-2008 04:09:07 17.9 C 13.59 g/m*3 17.9 C 0 km/h
339 12-09-2008 04:14:07 17.9 C 13.59 g/m*3 17.9 C 0 km/h
340 12-09-2008 04:19:07 17.8 C 13.51 g/m*3 17.8 C 0 km/h
341 12-09-2008 04:24:07 17.8 C 13.51 g/m*3 17.8 C 0 km/h
342 12-09-2008 04:29:07 17.8 C 13.51 g/m*3 17.8 C 0 km/h
343 12-09-2008 04:34:07 17.8 C 13.51 g/m*3 17.8 C 0 km/h
344 12-09-2008 04:39:07 17.8 C 13.51 g/m*3 17.8 C 0 km/h
345 12-09-2008 04:44:07 17.7 C 13.43 g/m*3 17.7 C 0 km/h
346 12-09-2008 04:49:07 17.7 C 13.43 g/m*3 17.7 C 0 km/h
347 12-09-2008 04:54:07 17.7 C 13.43 g/m*3 17.7 C 0 km/h
348 12-09-2008 04:59:07 17.7 C 13.58 g/m*3 17.7 C 0 km/h
349 12-09-2008 05:04:07 17.7 C 13.58 g/m*3 17.7 C 0 km/h
350 12-09-2008 05:09:07 17.7 C 13.58 g/m*3 17.7 C 0 km/h
Sensor: Nr:Datum:Temp:Abs-Feuchte:Windchill:Wind:
Aussen-T/F 351 12-09-2008 05:14:07 17.7 C 13.58 g/m*3 17.7 C 0 km/h
352 12-09-2008 05:19:07 17.5 C 13.27 g/m*3 17.5 C 0 km/h
353 12-09-2008 05:24:07 17.5 C 13.27 g/m*3 17.5 C 0 km/h
354 12-09-2008 05:29:08 17.5 C 13.42 g/m*3 17.5 C 0 km/h
355 12-09-2008 05:34:08 17.4 C 13.19 g/m*3 17.4 C 0 km/h
356 12-09-2008 05:39:08 17.4 C 13.19 g/m*3 17.4 C 0 km/h
357 12-09-2008 05:44:08 17.4 C 13.19 g/m*3 17.4 C 0 km/h
358 12-09-2008 05:49:08 17.4 C 13.34 g/m*3 17.4 C 0 km/h
359 12-09-2008 05:54:08 17.2 C 13.03 g/m*3 17.2 C 0 km/h
360 12-09-2008 05:59:08 17.2 C 13.03 g/m*3 17.2 C 0 km/h
361 12-09-2008 06:04:08 17.3 C 13.26 g/m*3 17.3 C 0 km/h
362 12-09-2008 06:09:08 17.5 C 13.42 g/m*3 17.5 C 0 km/h
363 12-09-2008 06:14:08 17.5 C 13.42 g/m*3 17.5 C 0 km/h
364 12-09-2008 06:19:08 17.4 C 13.34 g/m*3 17.4 C 0 km/h
365 12-09-2008 06:24:08 17.4 C 13.34 g/m*3 17.4 C 0 km/h
366 12-09-2008 06:29:08 17.5 C 13.42 g/m*3 17.5 C 0 km/h
367 12-09-2008 06:34:08 17.4 C 13.34 g/m*3 17.4 C 0 km/h
368 12-09-2008 06:39:08 17.2 C 13.18 g/m*3 17.2 C 0 km/h
369 12-09-2008 06:44:08 17.2 C 13.18 g/m*3 17.2 C 0 km/h
370 12-09-2008 06:49:08 17.2 C 13.03 g/m*3 17.2 C 0 km/h
371 12-09-2008 06:54:08 17 C 12.88 g/m*3 17 C 0 km/h
372 12-09-2008 06:59:08 16.9 C 12.94 g/m*3 16.9 C 0 km/h
373 12-09-2008 07:04:02 16.9 C 12.94 g/m*3 16.9 C 0 km/h
374 12-09-2008 07:09:02 16.9 C 12.94 g/m*3 16.9 C 0 km/h
375 12-09-2008 07:14:02 17 C 12.88 g/m*3 17 C 0 km/h
Sensor: Nr:Datum:Temp:Abs-Feuchte:Windchill:Wind:
Aussen-T/F 376 12-09-2008 07:19:03 17 C 12.88 g/m*3 17 C 0 km/h
377 12-09-2008 07:24:03 16.9 C 12.94 g/m*3 16.9 C 0 km/h
378 12-09-2008 07:29:03 16.9 C 12.94 g/m*3 16.9 C 0 km/h
379 12-09-2008 07:34:02 17 C 12.88 g/m*3 17 C 0 km/h
380 12-09-2008 07:39:02 16.8 C 12.87 g/m*3 16.8 C 0 km/h
381 12-09-2008 07:44:02 16.9 C 12.8 g/m*3 16.9 C 0 km/h
382 12-09-2008 07:49:01 16.8 C 12.87 g/m*3 16.8 C 0 km/h
383 12-09-2008 07:54:01 16.8 C 12.87 g/m*3 16.8 C 0 km/h
384 12-09-2008 07:59:01 16.9 C 12.94 g/m*3 16.9 C 0 km/h
385 12-09-2008 08:04:02 16.9 C 12.94 g/m*3 16.9 C 0 km/h
386 12-09-2008 08:09:02 16.9 C 12.94 g/m*3 16.9 C 0 km/h
387 12-09-2008 08:14:02 17 C 12.88 g/m*3 17 C 0 km/h
388 12-09-2008 08:19:01 17.1 C 12.96 g/m*3 17.1 C 0 km/h
389 12-09-2008 08:24:01 17.1 C 12.96 g/m*3 17.1 C 0 km/h
390 12-09-2008 08:29:01 17.1 C 12.81 g/m*3 17.1 C 0 km/h
391 12-09-2008 08:34:02 17.2 C 12.89 g/m*3 17.2 C 0 km/h
392 12-09-2008 08:39:02 17.3 C 12.96 g/m*3 17.3 C 0 km/h
393 12-09-2008 08:44:02 17.5 C 13.12 g/m*3 17.5 C 0 km/h
394 12-09-2008 08:49:02 17.4 C 12.89 g/m*3 17.4 C 0 km/h
395 12-09-2008 08:54:02 17.5 C 12.97 g/m*3 17.5 C 0 km/h
396 12-09-2008 08:59:02 17.4 C 12.89 g/m*3 17.4 C 0 km/h
397 12-09-2008 09:04:02 17.2 C 12.74 g/m*3 17.2 C 0 km/h
398 12-09-2008 09:09:02 17 C 12.73 g/m*3 17 C 0 km/h
399 12-09-2008 09:14:02 16.9 C 12.8 g/m*3 16.9 C 0 km/h
400 12-09-2008 09:19:02 16.9 C 12.8 g/m*3 16.9 C 0 km/h
Sensor: Nr:Datum:Temp:Abs-Feuchte:Windchill:Wind:
Aussen-T/F 401 12-09-2008 09:24:02 17 C 12.88 g/m*3 17 C 0 km/h
402 12-09-2008 09:29:02 17 C 12.88 g/m*3 17 C 0 km/h
403 12-09-2008 09:34:02 16.9 C 12.94 g/m*3 16.9 C 0 km/h
404 12-09-2008 09:39:02 16.8 C 12.87 g/m*3 16.8 C 0 km/h
405 12-09-2008 09:44:02 16.9 C 13.09 g/m*3 16.9 C 0 km/h
406 12-09-2008 09:49:02 17 C 13.02 g/m*3 17 C 0 km/h
407 12-09-2008 09:54:02 17.3 C 13.41 g/m*3 17.3 C 0 km/h
408 12-09-2008 09:59:02 17.5 C 13.57 g/m*3 17.5 C 0 km/h
409 12-09-2008 10:04:01 17.5 C 13.57 g/m*3 17.5 C 0 km/h
410 12-09-2008 10:09:01 17.3 C 13.26 g/m*3 17.3 C 0 km/h
411 12-09-2008 10:14:01 17.3 C 13.26 g/m*3 17.3 C 0 km/h
412 12-09-2008 10:19:02 17.4 C 13.34 g/m*3 17.4 C 0 km/h
413 12-09-2008 10:24:02 17.7 C 13.73 g/m*3 17.7 C 0 km/h
414 12-09-2008 10:29:02 17.6 C 13.65 g/m*3 17.6 C 0 km/h
415 12-09-2008 10:34:01 17.5 C 13.57 g/m*3 17.5 C 0 km/h
416 12-09-2008 10:39:01 17.6 C 13.65 g/m*3 17.6 C 0 km/h
417 12-09-2008 10:44:01 17.6 C 13.65 g/m*3 17.6 C 0 km/h
418 12-09-2008 10:49:01 17.6 C 13.65 g/m*3 17.6 C 0 km/h
419 12-09-2008 10:54:01 17.7 C 13.73 g/m*3 17.7 C 0 km/h
420 12-09-2008 10:59:01 17.7 C 13.73 g/m*3 17.7 C 0 km/h
421 12-09-2008 11:04:02 17.7 C 13.73 g/m*3 17.7 C 0 km/h
422 12-09-2008 11:09:02 17.6 C 13.65 g/m*3 17.6 C 0 km/h
423 12-09-2008 11:14:02 17.5 C 13.57 g/m*3 17.5 C 0 km/h
424 12-09-2008 11:19:01 17.6 C 13.65 g/m*3 17.6 C 0 km/h
425 12-09-2008 11:24:01 17.6 C 13.65 g/m*3 17.6 C 0 km/h
Sensor: Nr:Datum:Temp:Abs-Feuchte:Windchill:Wind:
Aussen-T/F 426 12-09-2008 11:29:01 17.7 C 13.73 g/m*3 17.7 C 0 km/h
427 12-09-2008 11:34:02 17.6 C 13.65 g/m*3 17.6 C 0 km/h
428 12-09-2008 11:39:02 17.6 C 13.8 g/m*3 17.6 C 0 km/h
429 12-09-2008 11:44:02 17.7 C 13.88 g/m*3 17.7 C 0 km/h
430 12-09-2008 11:49:02 17.7 C 13.88 g/m*3 17.7 C 0 km/h
431 12-09-2008 11:54:02 17.7 C 13.88 g/m*3 17.7 C 0 km/h
432 12-09-2008 11:59:02 17.7 C 13.88 g/m*3 17.7 C 0 km/h
433 12-09-2008 12:04:02 17.7 C 13.88 g/m*3 17.7 C 0 km/h
434 12-09-2008 12:09:02 17.9 C 14.05 g/m*3 17.9 C 0 km/h
435 12-09-2008 12:14:02 17.9 C 14.05 g/m*3 17.9 C 0 km/h
436 12-09-2008 12:19:02 17.7 C 13.88 g/m*3 17.7 C 0 km/h
437 12-09-2008 12:24:02 17.7 C 13.88 g/m*3 17.7 C 0 km/h
438 12-09-2008 12:29:02 17.7 C 13.88 g/m*3 17.7 C 0 km/h
439 12-09-2008 12:34:02 17.8 C 13.96 g/m*3 17.8 C 0 km/h
440 12-09-2008 12:39:02 17.9 C 14.05 g/m*3 17.9 C 0 km/h
441 12-09-2008 12:44:02 17.9 C 14.05 g/m*3 17.9 C 0 km/h
442 12-09-2008 12:49:02 18 C 13.98 g/m*3 18 C 0 km/h
443 12-09-2008 12:54:02 18 C 13.98 g/m*3 18 C 0 km/h
444 12-09-2008 12:59:02 18 C 13.98 g/m*3 18 C 0 km/h
445 12-09-2008 13:04:02 17.9 C 14.05 g/m*3 17.9 C 0 km/h
446 12-09-2008 13:09:02 18 C 13.98 g/m*3 18 C 0 km/h
447 12-09-2008 13:14:02 18.1 C 14.06 g/m*3 18.1 C 0 km/h
448 12-09-2008 13:19:02 18.1 C 14.06 g/m*3 18.1 C 0 km/h
449 12-09-2008 13:24:02 18.1 C 14.06 g/m*3 18.1 C 0 km/h
450 12-09-2008 13:29:02 18 C 13.98 g/m*3 18 C 0 km/h
Sensor: Nr:Datum:Temp:Abs-Feuchte:Windchill:Wind:
Aussen-T/F 451 12-09-2008 13:34:02 17.9 C 14.05 g/m*3 17.9 C 0 km/h
452 12-09-2008 13:39:02 17.9 C 14.05 g/m*3 17.9 C 0 km/h
453 12-09-2008 13:44:02 17.9 C 14.05 g/m*3 17.9 C 0 km/h
454 12-09-2008 13:49:02 18 C 13.98 g/m*3 18 C 0 km/h
455 12-09-2008 13:54:02 18.1 C 14.21 g/m*3 18.1 C 0 km/h
456 12-09-2008 13:59:02 18.2 C 14.3 g/m*3 18.2 C 0 km/h
457 12-09-2008 14:04:02 18.1 C 14.21 g/m*3 18.1 C 0 km/h
458 12-09-2008 14:09:02 18.2 C 14.3 g/m*3 18.2 C 0 km/h
459 12-09-2008 14:14:02 18.2 C 14.3 g/m*3 18.2 C 0 km/h
460 12-09-2008 14:19:02 18.1 C 14.21 g/m*3 18.1 C 0 km/h
461 12-09-2008 14:24:02 17.9 C 14.2 g/m*3 17.9 C 0 km/h
462 12-09-2008 14:29:02 17.4 C 13.63 g/m*3 17.4 C 0 km/h
463 12-09-2008 14:34:02 17 C 13.17 g/m*3 17 C 0 km/h
464 12-09-2008 14:39:03 17 C 13.17 g/m*3 17 C 0 km/h
465 12-09-2008 14:44:03 16.8 C 13.15 g/m*3 16.8 C 0 km/h
466 12-09-2008 14:49:02 16.7 C 13.07 g/m*3 16.7 C 0 km/h
467 12-09-2008 14:54:02 16.7 C 13.07 g/m*3 16.7 C 0 km/h
468 12-09-2008 14:59:02 16.6 C 13 g/m*3 16.6 C 0 km/h
469 12-09-2008 15:04:03 16.4 C 12.84 g/m*3 16.4 C 0 km/h
470 12-09-2008 15:09:03 16.2 C 12.69 g/m*3 16.2 C 0 km/h
471 12-09-2008 15:14:03 16.1 C 12.61 g/m*3 16.1 C 0 km/h
472 12-09-2008 15:19:02 15.8 C 12.38 g/m*3 15.8 C 0 km/h
473 12-09-2008 15:24:03 15.7 C 12.31 g/m*3 15.7 C 0 km/h
474 12-09-2008 15:29:03 15.7 C 12.31 g/m*3 15.7 C 0 km/h
475 12-09-2008 15:34:02 15.7 C 12.31 g/m*3 15.7 C 0 km/h
Sensor: Nr:Datum:Temp:Abs-Feuchte:Windchill:Wind:
Aussen-T/F 476 12-09-2008 15:39:02 15.8 C 12.52 g/m*3 15.8 C 0 km/h
477 12-09-2008 15:44:02 15.8 C 12.52 g/m*3 15.8 C 0 km/h
478 12-09-2008 15:49:03 15.8 C 12.52 g/m*3 15.8 C 0 km/h
479 12-09-2008 15:54:03 15.9 C 12.59 g/m*3 15.9 C 0 km/h
480 12-09-2008 15:59:03 15.8 C 12.52 g/m*3 15.8 C 0 km/h
481 12-09-2008 16:04:02 15.8 C 12.52 g/m*3 15.8 C 0 km/h
482 12-09-2008 16:09:02 15.8 C 12.52 g/m*3 15.8 C 0 km/h
483 12-09-2008 16:14:02 15.7 C 12.44 g/m*3 15.7 C 0 km/h
484 12-09-2008 16:19:02 15.8 C 12.52 g/m*3 15.8 C 0 km/h
485 12-09-2008 16:24:02 15.8 C 12.52 g/m*3 15.8 C 0 km/h
486 12-09-2008 16:29:02 15.8 C 12.52 g/m*3 15.8 C 0 km/h
487 12-09-2008 16:34:02 15.8 C 12.52 g/m*3 15.8 C 0 km/h
488 12-09-2008 16:39:03 15.8 C 12.65 g/m*3 15.8 C 0 km/h
489 12-09-2008 16:44:03 15.8 C 12.65 g/m*3 15.8 C 0 km/h
490 12-09-2008 16:49:01 15.9 C 12.73 g/m*3 15.9 C 0 km/h
491 12-09-2008 16:54:01 15.8 C 12.65 g/m*3 15.8 C 0 km/h
492 12-09-2008 16:59:01 15.6 C 12.5 g/m*3 15.6 C 0 km/h
493 12-09-2008 17:04:02 15.6 C 12.5 g/m*3 15.6 C 0 km/h
494 12-09-2008 17:09:02 15.7 C 12.58 g/m*3 15.7 C 0 km/h
495 12-09-2008 17:14:02 15.7 C 12.58 g/m*3 15.7 C 0 km/h
496 12-09-2008 17:19:01 15.7 C 12.58 g/m*3 15.7 C 0 km/h
497 12-09-2008 17:24:01 15.7 C 12.58 g/m*3 15.7 C 0 km/h
498 12-09-2008 17:29:01 15.7 C 12.58 g/m*3 15.7 C 0 km/h
499 12-09-2008 17:34:01 15.8 C 12.65 g/m*3 15.8 C 0 km/h
500 12-09-2008 17:39:01 15.7 C 12.58 g/m*3 15.7 C 0 km/h
Sensor: Nr:Datum:Temp:Abs-Feuchte:Windchill:Wind:
Aussen-T/F 501 12-09-2008 17:44:01 15.7 C 12.58 g/m*3 15.7 C 0 km/h
502 12-09-2008 17:49:03 15.5 C 12.43 g/m*3 15.5 C 0 km/h
503 12-09-2008 17:54:03 15.5 C 12.43 g/m*3 15.5 C 0 km/h
504 12-09-2008 17:59:03 15.5 C 12.43 g/m*3 15.5 C 0 km/h
505 12-09-2008 18:04:02 15.6 C 12.5 g/m*3 15.6 C 0 km/h
506 12-09-2008 18:09:02 15.6 C 12.5 g/m*3 15.6 C 0 km/h
507 12-09-2008 18:14:02 15.6 C 12.5 g/m*3 15.6 C 0 km/h
508 12-09-2008 18:19:03 15.6 C 12.5 g/m*3 15.6 C 0 km/h
509 12-09-2008 18:24:03 15.6 C 12.5 g/m*3 15.6 C 0 km/h
510 12-09-2008 18:29:03 15.6 C 12.5 g/m*3 15.6 C 0 km/h
511 12-09-2008 18:34:02 15.6 C 12.5 g/m*3 15.6 C 0 km/h
512 12-09-2008 18:39:02 15.5 C 12.43 g/m*3 15.5 C 0 km/h
513 12-09-2008 18:44:02 15.4 C 12.35 g/m*3 15.4 C 0 km/h
514 12-09-2008 18:49:01 15.4 C 12.35 g/m*3 15.4 C 0 km/h
515 12-09-2008 18:54:01 15.4 C 12.35 g/m*3 15.4 C 0 km/h
516 12-09-2008 18:59:01 15.3 C 12.28 g/m*3 15.3 C 0 km/h
517 12-09-2008 19:04:02 15.3 C 12.28 g/m*3 15.3 C 0 km/h
518 12-09-2008 19:09:02 15.2 C 12.2 g/m*3 15.2 C 0 km/h
519 12-09-2008 19:14:02 15.2 C 12.2 g/m*3 15.2 C 0 km/h
520 12-09-2008 19:19:01 15.2 C 12.2 g/m*3 15.2 C 0 km/h
521 12-09-2008 19:24:01 15.2 C 12.2 g/m*3 15.2 C 0 km/h
522 12-09-2008 19:29:01 15.2 C 12.2 g/m*3 15.2 C 0 km/h
523 12-09-2008 19:34:02 15.2 C 12.2 g/m*3 15.2 C 0 km/h
524 12-09-2008 19:39:02 15.1 C 12.13 g/m*3 15.1 C 0 km/h
525 12-09-2008 19:44:02 15 C 12.05 g/m*3 15 C 0 km/h
Sensor: Nr:Datum:Temp:Abs-Feuchte:Windchill:Wind:
Aussen-T/F 526 12-09-2008 19:49:03 14.9 C 12.11 g/m*3 14.9 C 0 km/h
527 12-09-2008 19:54:03 14.9 C 12.11 g/m*3 14.9 C 0 km/h
528 12-09-2008 19:59:03 14.9 C 12.11 g/m*3 14.9 C 0 km/h
529 12-09-2008 20:04:02 15 C 12.05 g/m*3 15 C 0 km/h
530 12-09-2008 20:09:02 14.8 C 12.03 g/m*3 14.8 C 0 km/h
531 12-09-2008 20:14:02 14.8 C 12.03 g/m*3 14.8 C 0 km/h
532 12-09-2008 20:19:03 15 C 12.05 g/m*3 15 C 0 km/h
533 12-09-2008 20:24:03 15 C 12.05 g/m*3 15 C 0 km/h
534 12-09-2008 20:29:03 15 C 12.05 g/m*3 15 C 0 km/h
535 12-09-2008 20:34:02 14.8 C 11.91 g/m*3 14.8 C 0 km/h
536 12-09-2008 20:39:02 14.8 C 11.91 g/m*3 14.8 C 0 km/h
537 12-09-2008 20:44:02 14.8 C 11.91 g/m*3 14.8 C 0 km/h
538 12-09-2008 20:49:01 14.8 C 11.91 g/m*3 14.8 C 0 km/h
539 12-09-2008 20:54:01 14.8 C 11.91 g/m*3 14.8 C 0 km/h
540 12-09-2008 20:59:01 14.7 C 11.83 g/m*3 14.7 C 0 km/h
541 12-09-2008 21:04:02 14.6 C 11.64 g/m*3 14.6 C 0 km/h
542 12-09-2008 21:09:02 14.7 C 11.71 g/m*3 14.7 C 0 km/h
543 12-09-2008 21:14:02 14.6 C 11.64 g/m*3 14.6 C 0 km/h
544 12-09-2008 21:19:01 14.6 C 11.64 g/m*3 14.6 C 0 km/h
545 12-09-2008 21:24:01 14.6 C 11.64 g/m*3 14.6 C 0 km/h
546 12-09-2008 21:29:01 14.6 C 11.64 g/m*3 14.6 C 0 km/h
547 12-09-2008 21:34:02 14.6 C 11.64 g/m*3 14.6 C 0 km/h
548 12-09-2008 21:39:02 14.5 C 11.57 g/m*3 14.5 C 0 km/h
549 12-09-2008 21:44:02 14.5 C 11.57 g/m*3 14.5 C 0 km/h
550 12-09-2008 21:49:02 14.5 C 11.57 g/m*3 14.5 C 0 km/h
Sensor: Nr:Datum:Temp:Abs-Feuchte:Windchill:Wind:
Aussen-T/F 551 12-09-2008 21:54:02 14.5 C 11.57 g/m*3 14.5 C 0 km/h
552 12-09-2008 21:59:02 14.4 C 11.5 g/m*3 14.4 C 0 km/h
553 12-09-2008 22:04:02 14.4 C 11.5 g/m*3 14.4 C 0 km/h
554 12-09-2008 22:09:02 14.4 C 11.5 g/m*3 14.4 C 0 km/h
555 12-09-2008 22:14:02 14.4 C 11.5 g/m*3 14.4 C 0 km/h
556 12-09-2008 22:19:02 14.4 C 11.5 g/m*3 14.4 C 0 km/h
557 12-09-2008 22:24:02 14.4 C 11.5 g/m*3 14.4 C 0 km/h
558 12-09-2008 22:29:02 14.4 C 11.5 g/m*3 14.4 C 0 km/h
559 12-09-2008 22:34:02 14.4 C 11.5 g/m*3 14.4 C 0 km/h
560 12-09-2008 22:39:02 14.3 C 11.3 g/m*3 14.3 C 0 km/h
561 12-09-2008 22:44:02 14.3 C 11.43 g/m*3 14.3 C 0 km/h
562 12-09-2008 22:49:02 14.2 C 11.23 g/m*3 14.2 C 0 km/h
563 12-09-2008 22:54:02 14.2 C 11.23 g/m*3 14.2 C 0 km/h
564 12-09-2008 22:59:02 14.2 C 11.23 g/m*3 14.2 C 0 km/h
565 12-09-2008 23:04:02 14.2 C 11.23 g/m*3 14.2 C 0 km/h
566 12-09-2008 23:09:02 14.2 C 11.23 g/m*3 14.2 C 0 km/h
567 12-09-2008 23:14:02 14.2 C 11.23 g/m*3 14.2 C 0 km/h
568 12-09-2008 23:19:02 14.2 C 11.23 g/m*3 14.2 C 0 km/h
569 12-09-2008 23:24:02 14.2 C 11.23 g/m*3 14.2 C 0 km/h
570 12-09-2008 23:29:02 14.2 C 11.23 g/m*3 14.2 C 0 km/h
571 12-09-2008 23:34:02 14.2 C 11.23 g/m*3 14.2 C 0 km/h
572 12-09-2008 23:39:02 14.1 C 11.17 g/m*3 14.1 C 0 km/h
573 12-09-2008 23:44:02 14.1 C 11.17 g/m*3 14.1 C 0 km/h
574 12-09-2008 23:49:02 14.2 C 11.23 g/m*3 14.2 C 0 km/h
575 12-09-2008 23:54:02 14.2 C 11.23 g/m*3 14.2 C 0 km/h
Sensor: Nr:Datum:Temp:Abs-Feuchte:Windchill:Wind:
Aussen-T/F 576 12-09-2008 23:59:03 14.2 C 11.23 g/m*3 14.2 C 0 km/h
577 13-09-2008 00:04:01 14.1 C 11.04 g/m*3 14.1 C 0 km/h
578 13-09-2008 00:09:01 14.1 C 11.04 g/m*3 14.1 C 0 km/h
579 13-09-2008 00:14:01 14.1 C 11.04 g/m*3 14.1 C 0 km/h
580 13-09-2008 00:19:02 14.2 C 11.11 g/m*3 14.2 C 0 km/h
581 13-09-2008 00:24:02 14.1 C 11.04 g/m*3 14.1 C 0 km/h
582 13-09-2008 00:29:02 14.1 C 11.04 g/m*3 14.1 C 0 km/h
583 13-09-2008 00:34:02 14.1 C 11.04 g/m*3 14.1 C 0 km/h
584 13-09-2008 00:39:02 14.1 C 11.04 g/m*3 14.1 C 0 km/h
585 13-09-2008 00:44:02 14.1 C 11.04 g/m*3 14.1 C 0 km/h
586 13-09-2008 00:49:02 14.1 C 11.04 g/m*3 14.1 C 0 km/h
587 13-09-2008 00:54:02 14.1 C 11.04 g/m*3 14.1 C 0 km/h
588 13-09-2008 00:59:02 14.1 C 11.04 g/m*3 14.1 C 0 km/h
589 13-09-2008 01:04:01 14.1 C 11.04 g/m*3 14.1 C 0 km/h
590 13-09-2008 01:09:01 14.1 C 11.04 g/m*3 14.1 C 0 km/h
591 13-09-2008 01:14:01 14.1 C 11.04 g/m*3 14.1 C 0 km/h
592 13-09-2008 01:19:02 14.1 C 11.04 g/m*3 14.1 C 0 km/h
593 13-09-2008 01:24:02 14.1 C 11.04 g/m*3 14.1 C 0 km/h
594 13-09-2008 01:29:02 14.2 C 11.11 g/m*3 14.2 C 0 km/h
595 13-09-2008 01:34:01 14.2 C 11.11 g/m*3 14.2 C 0 km/h
596 13-09-2008 01:39:01 14.2 C 11.11 g/m*3 14.2 C 0 km/h
597 13-09-2008 01:44:01 14.1 C 11.04 g/m*3 14.1 C 0 km/h
598 13-09-2008 01:49:01 14.1 C 11.04 g/m*3 14.1 C 0 km/h
599 13-09-2008 01:54:01 14.1 C 10.92 g/m*3 14.1 C 0 km/h
600 13-09-2008 01:59:01 14 C 10.86 g/m*3 14 C 0 km/h
Sensor: Nr:Datum:Temp:Abs-Feuchte:Windchill:Wind:
Aussen-T/F 601 13-09-2008 02:04:02 13.9 C 10.91 g/m*3 13.9 C 0 km/h
602 13-09-2008 02:09:02 13.9 C 10.91 g/m*3 13.9 C 0 km/h
603 13-09-2008 02:14:02 13.9 C 10.91 g/m*3 13.9 C 0 km/h
604 13-09-2008 02:19:01 13.8 C 10.84 g/m*3 13.8 C 0 km/h
605 13-09-2008 02:24:01 13.9 C 10.91 g/m*3 13.9 C 0 km/h
606 13-09-2008 02:29:01 13.9 C 11.03 g/m*3 13.9 C 0 km/h
607 13-09-2008 02:34:02 13.8 C 10.96 g/m*3 13.8 C 0 km/h
608 13-09-2008 02:39:02 13.8 C 10.96 g/m*3 13.8 C 0 km/h
609 13-09-2008 02:44:02 13.8 C 10.96 g/m*3 13.8 C 0 km/h
610 13-09-2008 02:50:04 13.7 C 11.01 g/m*3 13.7 C 0 km/h
611 13-09-2008 02:55:05 13.7 C 11.01 g/m*3 13.7 C 0 km/h
612 13-09-2008 03:00:05 13.7 C 11.01 g/m*3 13.7 C 0 km/h
613 13-09-2008 03:05:05 13.7 C 11.01 g/m*3 13.7 C 0 km/h
614 13-09-2008 03:10:03 13.7 C 11.01 g/m*3 13.7 C 0 km/h
615 13-09-2008 03:15:03 13.7 C 11.01 g/m*3 13.7 C 0 km/h
616 13-09-2008 03:20:03 13.7 C 11.13 g/m*3 13.7 C 0 km/h
617 13-09-2008 03:25:03 13.7 C 11.13 g/m*3 13.7 C 0 km/h
618 13-09-2008 03:30:03 13.7 C 11.13 g/m*3 13.7 C 0 km/h
619 13-09-2008 03:35:01 13.7 C 11.13 g/m*3 13.7 C 0 km/h
620 13-09-2008 03:40:01 13.7 C 11.13 g/m*3 13.7 C 0 km/h
621 13-09-2008 03:45:01 13.7 C 11.13 g/m*3 13.7 C 0 km/h
622 13-09-2008 03:50:01 13.7 C 11.13 g/m*3 13.7 C 0 km/h
623 13-09-2008 03:55:01 13.6 C 11.06 g/m*3 13.6 C 0 km/h
624 13-09-2008 04:00:01 13.7 C 11.13 g/m*3 13.7 C 0 km/h
625 13-09-2008 04:05:02 13.6 C 11.06 g/m*3 13.6 C 0 km/h
Sensor: Nr:Datum:Temp:Abs-Feuchte:Windchill:Wind:
Aussen-T/F 626 13-09-2008 04:10:02 13.7 C 11.13 g/m*3 13.7 C 0 km/h
627 13-09-2008 04:15:02 13.7 C 11.13 g/m*3 13.7 C 0 km/h
628 13-09-2008 04:20:02 13.7 C 11.13 g/m*3 13.7 C 0 km/h
629 13-09-2008 04:25:02 13.8 C 11.2 g/m*3 13.8 C 0 km/h
630 13-09-2008 04:30:02 13.8 C 11.2 g/m*3 13.8 C 0 km/h
631 13-09-2008 04:35:02 13.9 C 11.27 g/m*3 13.9 C 0 km/h
632 13-09-2008 04:40:02 13.9 C 11.27 g/m*3 13.9 C 0 km/h
633 13-09-2008 04:45:02 13.9 C 11.27 g/m*3 13.9 C 0 km/h
634 13-09-2008 04:50:02 14 C 11.34 g/m*3 14 C 0 km/h
635 13-09-2008 04:55:02 13.9 C 11.27 g/m*3 13.9 C 0 km/h
636 13-09-2008 05:00:02 13.9 C 11.27 g/m*3 13.9 C 0 km/h
637 13-09-2008 05:05:01 13.9 C 11.27 g/m*3 13.9 C 0 km/h
638 13-09-2008 05:10:01 13.8 C 11.2 g/m*3 13.8 C 0 km/h
639 13-09-2008 05:15:02 13.8 C 11.2 g/m*3 13.8 C 0 km/h
640 13-09-2008 05:20:02 13.9 C 11.27 g/m*3 13.9 C 0 km/h
641 13-09-2008 05:25:02 13.7 C 11.13 g/m*3 13.7 C 0 km/h
642 13-09-2008 05:30:02 13.7 C 11.13 g/m*3 13.7 C 0 km/h
643 13-09-2008 05:35:01 13.6 C 11.06 g/m*3 13.6 C 0 km/h
644 13-09-2008 05:40:01 13.6 C 11.06 g/m*3 13.6 C 0 km/h
645 13-09-2008 05:45:02 13.6 C 10.95 g/m*3 13.6 C 0 km/h
646 13-09-2008 05:50:02 13.6 C 10.95 g/m*3 13.6 C 0 km/h
647 13-09-2008 05:55:02 13.6 C 10.95 g/m*3 13.6 C 0 km/h
648 13-09-2008 06:00:02 13.6 C 10.95 g/m*3 13.6 C 0 km/h
649 13-09-2008 06:05:01 13.5 C 10.88 g/m*3 13.5 C 0 km/h
650 13-09-2008 06:10:01 13.5 C 10.88 g/m*3 13.5 C 0 km/h
Sensor: Nr:Datum:Temp:Abs-Feuchte:Windchill:Wind:
Aussen-T/F 651 13-09-2008 06:15:01 13.5 C 10.88 g/m*3 13.5 C 0 km/h
652 13-09-2008 06:20:01 13.5 C 10.88 g/m*3 13.5 C 0 km/h
653 13-09-2008 06:25:01 13.6 C 10.95 g/m*3 13.6 C 0 km/h
654 13-09-2008 06:30:01 13.5 C 10.88 g/m*3 13.5 C 0 km/h
655 13-09-2008 06:35:01 13.5 C 10.99 g/m*3 13.5 C 0 km/h
656 13-09-2008 06:40:02 13.6 C 11.06 g/m*3 13.6 C 0 km/h
657 13-09-2008 06:45:02 13.5 C 10.99 g/m*3 13.5 C 0 km/h
658 13-09-2008 06:50:02 13.6 C 11.06 g/m*3 13.6 C 0 km/h
659 13-09-2008 06:55:02 13.5 C 10.99 g/m*3 13.5 C 0 km/h
660 13-09-2008 07:00:02 13.6 C 11.06 g/m*3 13.6 C 0 km/h
661 13-09-2008 07:05:01 13.5 C 10.99 g/m*3 13.5 C 0 km/h
662 13-09-2008 07:10:01 13.5 C 10.99 g/m*3 13.5 C 0 km/h
663 13-09-2008 07:15:02 13.5 C 10.99 g/m*3 13.5 C 0 km/h
664 13-09-2008 07:20:02 13.5 C 11.11 g/m*3 13.5 C 0 km/h
665 13-09-2008 07:25:02 13.5 C 11.11 g/m*3 13.5 C 0 km/h
666 13-09-2008 07:30:03 13.5 C 11.11 g/m*3 13.5 C 0 km/h
667 13-09-2008 07:35:01 13.6 C 11.18 g/m*3 13.6 C 0 km/h
668 13-09-2008 07:40:01 13.6 C 11.18 g/m*3 13.6 C 0 km/h
669 13-09-2008 07:45:02 13.6 C 11.18 g/m*3 13.6 C 0 km/h
670 13-09-2008 07:50:02 13.7 C 11.25 g/m*3 13.7 C 0 km/h
671 13-09-2008 07:55:02 13.7 C 11.25 g/m*3 13.7 C 0 km/h
672 13-09-2008 08:00:02 13.7 C 11.25 g/m*3 13.7 C 0 km/h
673 13-09-2008 08:05:01 13.7 C 11.25 g/m*3 13.7 C 0 km/h
674 13-09-2008 08:10:01 13.7 C 11.25 g/m*3 13.7 C 0 km/h
675 13-09-2008 08:15:01 13.7 C 11.25 g/m*3 13.7 C 0 km/h
Sensor: Nr:Datum:Temp:Abs-Feuchte:Windchill:Wind:
Aussen-T/F 676 13-09-2008 08:20:01 13.8 C 11.32 g/m*3 13.8 C 0 km/h
677 13-09-2008 08:25:01 13.8 C 11.32 g/m*3 13.8 C 0 km/h
678 13-09-2008 08:30:01 13.7 C 11.25 g/m*3 13.7 C 0 km/h
679 13-09-2008 08:35:01 13.6 C 11.18 g/m*3 13.6 C 0 km/h
680 13-09-2008 08:40:01 13.5 C 11.11 g/m*3 13.5 C 0 km/h
681 13-09-2008 08:45:01 13.4 C 11.04 g/m*3 13.4 C 0 km/h
682 13-09-2008 08:50:01 13.4 C 11.04 g/m*3 13.4 C 0 km/h
683 13-09-2008 08:55:01 13.4 C 11.04 g/m*3 13.4 C 0 km/h
684 13-09-2008 09:00:01 13.4 C 11.04 g/m*3 13.4 C 0 km/h
685 13-09-2008 09:05:02 13.4 C 11.04 g/m*3 13.4 C 0 km/h
686 13-09-2008 09:10:02 13.4 C 11.04 g/m*3 13.4 C 0 km/h
687 13-09-2008 09:15:01 13.3 C 10.98 g/m*3 13.3 C 0 km/h
688 13-09-2008 09:20:01 13.3 C 10.98 g/m*3 13.3 C 0 km/h
689 13-09-2008 09:25:01 13.1 C 10.84 g/m*3 13.1 C 0 km/h
690 13-09-2008 09:30:01 13.1 C 10.84 g/m*3 13.1 C 0 km/h
691 13-09-2008 09:35:01 13.1 C 10.84 g/m*3 13.1 C 0 km/h
692 13-09-2008 09:40:01 13 C 10.77 g/m*3 13 C 0 km/h
693 13-09-2008 09:45:02 13 C 10.77 g/m*3 13 C 0 km/h
694 13-09-2008 09:50:02 13 C 10.77 g/m*3 13 C 0 km/h
695 13-09-2008 09:55:02 13 C 10.77 g/m*3 13 C 0 km/h
696 13-09-2008 10:00:02 12.9 C 10.71 g/m*3 12.9 C 0 km/h
697 13-09-2008 10:05:02 13 C 10.77 g/m*3 13 C 0 km/h
698 13-09-2008 10:10:02 13 C 10.77 g/m*3 13 C 0 km/h
699 13-09-2008 10:15:02 13.1 C 10.84 g/m*3 13.1 C 0 km/h
700 13-09-2008 10:20:02 13.1 C 10.84 g/m*3 13.1 C 0 km/h
Sensor: Nr:Datum:Temp:Abs-Feuchte:Windchill:Wind:
Aussen-T/F 701 13-09-2008 10:25:02 13.1 C 10.84 g/m*3 13.1 C 0 km/h
702 13-09-2008 10:30:02 13.1 C 10.84 g/m*3 13.1 C 0 km/h
703 13-09-2008 10:35:02 13 C 10.77 g/m*3 13 C 0 km/h
704 13-09-2008 10:40:02 12.9 C 10.71 g/m*3 12.9 C 0 km/h
705 13-09-2008 10:45:02 12.8 C 10.64 g/m*3 12.8 C 0 km/h
706 13-09-2008 10:50:02 12.8 C 10.64 g/m*3 12.8 C 0 km/h
707 13-09-2008 10:55:02 12.8 C 10.64 g/m*3 12.8 C 0 km/h
708 13-09-2008 11:00:02 12.7 C 10.58 g/m*3 12.7 C 0 km/h
709 13-09-2008 11:05:02 12.5 C 10.44 g/m*3 12.5 C 0 km/h
710 13-09-2008 11:10:02 12.5 C 10.44 g/m*3 12.5 C 0 km/h
711 13-09-2008 11:15:02 12.5 C 10.44 g/m*3 12.5 C 0 km/h
712 13-09-2008 11:20:02 12.5 C 10.44 g/m*3 12.5 C 0 km/h
713 13-09-2008 11:25:02 12.5 C 10.44 g/m*3 12.5 C 0 km/h
714 13-09-2008 11:30:02 12.3 C 10.32 g/m*3 12.3 C 0 km/h
715 13-09-2008 11:35:02 12.3 C 10.32 g/m*3 12.3 C 0 km/h
716 13-09-2008 11:40:02 12.4 C 10.38 g/m*3 12.4 C 0 km/h
717 13-09-2008 11:45:02 12.2 C 10.25 g/m*3 12.2 C 0 km/h
718 13-09-2008 11:50:02 12.2 C 10.25 g/m*3 12.2 C 0 km/h
719 13-09-2008 11:55:02 12.2 C 10.25 g/m*3 12.2 C 0 km/h
720 13-09-2008 12:00:02 12.3 C 10.32 g/m*3 12.3 C 0 km/h
721 13-09-2008 12:05:01 12.3 C 10.32 g/m*3 12.3 C 0 km/h
722 13-09-2008 12:10:01 12.2 C 10.25 g/m*3 12.2 C 0 km/h
723 13-09-2008 12:15:02 12.2 C 10.25 g/m*3 12.2 C 0 km/h
724 13-09-2008 12:20:02 12.2 C 10.25 g/m*3 12.2 C 0 km/h
725 13-09-2008 12:25:02 12.2 C 10.25 g/m*3 12.2 C 0 km/h
Sensor: Nr:Datum:Temp:Abs-Feuchte:Windchill:Wind:
Aussen-T/F 726 13-09-2008 12:30:02 12.1 C 10.19 g/m*3 12.1 C 0 km/h
727 13-09-2008 12:35:01 12 C 10.12 g/m*3 12 C 0 km/h
728 13-09-2008 12:40:01 12 C 10.12 g/m*3 12 C 0 km/h
729 13-09-2008 12:45:01 11.9 C 10.06 g/m*3 11.9 C 0 km/h
730 13-09-2008 12:50:01 11.9 C 10.06 g/m*3 11.9 C 0 km/h
731 13-09-2008 12:55:01 11.9 C 10.06 g/m*3 11.9 C 0 km/h
732 13-09-2008 13:00:01 12 C 10.12 g/m*3 12 C 0 km/h
733 13-09-2008 13:05:02 11.9 C 10.06 g/m*3 11.9 C 0 km/h
734 13-09-2008 13:10:02 11.9 C 10.06 g/m*3 11.9 C 0 km/h
735 13-09-2008 13:15:01 11.9 C 10.06 g/m*3 11.9 C 0 km/h
736 13-09-2008 13:20:01 11.9 C 10.06 g/m*3 11.9 C 0 km/h
737 13-09-2008 13:25:01 12 C 10.02 g/m*3 12 C 0 km/h
738 13-09-2008 13:30:01 12 C 10.02 g/m*3 12 C 0 km/h
739 13-09-2008 13:35:02 11.7 C 9.94 g/m*3 11.7 C 0 km/h
740 13-09-2008 13:40:02 11.7 C 9.94 g/m*3 11.7 C 0 km/h
741 13-09-2008 13:45:02 11.7 C 9.94 g/m*3 11.7 C 0 km/h
742 13-09-2008 13:50:02 11.7 C 9.94 g/m*3 11.7 C 0 km/h
743 13-09-2008 13:55:03 11.6 C 9.77 g/m*3 11.6 C 0 km/h
744 13-09-2008 14:00:03 11.6 C 9.77 g/m*3 11.6 C 0 km/h
745 13-09-2008 14:05:02 11.8 C 9.89 g/m*3 11.8 C 0 km/h
746 13-09-2008 14:10:02 11.9 C 9.96 g/m*3 11.9 C 0 km/h
747 13-09-2008 14:15:02 11.9 C 9.96 g/m*3 11.9 C 0 km/h
748 13-09-2008 14:20:02 12 C 10.02 g/m*3 12 C 0 km/h
749 13-09-2008 14:25:02 12.1 C 10.08 g/m*3 12.1 C 0 km/h
750 13-09-2008 14:30:02 12.1 C 9.97 g/m*3 12.1 C 0 km/h
Sensor: Nr:Datum:Temp:Abs-Feuchte:Windchill:Wind:
Aussen-T/F 751 13-09-2008 14:35:02 12.1 C 9.97 g/m*3 12.1 C 0 km/h
752 13-09-2008 14:40:02 12.1 C 9.97 g/m*3 12.1 C 0 km/h
753 13-09-2008 14:45:01 12.2 C 10.04 g/m*3 12.2 C 0 km/h
754 13-09-2008 14:50:01 12.3 C 10.1 g/m*3 12.3 C 0 km/h
755 13-09-2008 14:55:01 12.5 C 10.22 g/m*3 12.5 C 0 km/h
756 13-09-2008 15:00:01 12.8 C 10.3 g/m*3 12.8 C 0 km/h
757 13-09-2008 15:05:02 13 C 10.43 g/m*3 13 C 0 km/h
758 13-09-2008 15:10:02 13.5 C 10.76 g/m*3 13.5 C 0 km/h
759 13-09-2008 15:15:02 13.7 C 10.78 g/m*3 13.7 C 0 km/h
760 13-09-2008 15:20:02 13.9 C 10.91 g/m*3 13.9 C 0 km/h
761 13-09-2008 15:25:02 14 C 10.86 g/m*3 14 C 0 km/h
762 13-09-2008 15:30:02 14.3 C 11.06 g/m*3 14.3 C 0 km/h
763 13-09-2008 15:35:02 14.4 C 11.13 g/m*3 14.4 C 0 km/h
764 13-09-2008 15:40:02 14.4 C 11 g/m*3 14.4 C 0 km/h
765 13-09-2008 15:45:02 14.4 C 11 g/m*3 14.4 C 0 km/h
766 13-09-2008 15:50:02 14.5 C 11.07 g/m*3 14.5 C 0 km/h
767 13-09-2008 15:55:02 14.5 C 11.07 g/m*3 14.5 C 0 km/h
768 13-09-2008 16:00:03 14.8 C 11.15 g/m*3 14.8 C 0 km/h
769 13-09-2008 16:05:02 14.9 C 11.09 g/m*3 14.9 C 0 km/h
770 13-09-2008 16:10:02 15.1 C 10.97 g/m*3 15.1 C 0 km/h
771 13-09-2008 16:15:02 15 C 10.64 g/m*3 15 C 0 km/h
772 13-09-2008 16:20:03 14.7 C 10.45 g/m*3 14.7 C 0 km/h
773 13-09-2008 16:25:03 15 C 10.51 g/m*3 15 C 0 km/h
774 13-09-2008 16:30:03 15 C 10.39 g/m*3 15 C 0 km/h
775 13-09-2008 16:35:02 15 C 10.39 g/m*3 15 C 0 km/h
Sensor: Nr:Datum:Temp:Abs-Feuchte:Windchill:Wind:
Aussen-T/F 776 13-09-2008 16:40:02 15 C 10.39 g/m*3 15 C 0 km/h
777 13-09-2008 16:45:03 14.9 C 10.45 g/m*3 14.9 C 0 km/h
778 13-09-2008 16:50:03 14.8 C 10.51 g/m*3 14.8 C 0 km/h
779 13-09-2008 16:55:03 14.9 C 10.58 g/m*3 14.9 C 0 km/h
780 13-09-2008 17:00:03 14.9 C 10.58 g/m*3 14.9 C 0 km/h
781 13-09-2008 17:05:02 14.8 C 10.39 g/m*3 14.8 C 0 km/h
782 13-09-2008 17:10:02 14.7 C 10.32 g/m*3 14.7 C 0 km/h
783 13-09-2008 17:15:02 14.6 C 10.26 g/m*3 14.6 C 0 km/h
784 13-09-2008 17:20:02 14.4 C 10.14 g/m*3 14.4 C 0 km/h
785 13-09-2008 17:25:02 14.3 C 10.07 g/m*3 14.3 C 0 km/h
786 13-09-2008 17:30:02 14.3 C 9.95 g/m*3 14.3 C 0 km/h
787 13-09-2008 17:35:03 14.3 C 9.95 g/m*3 14.3 C 0 km/h
788 13-09-2008 17:40:03 14.2 C 9.89 g/m*3 14.2 C 0 km/h
789 13-09-2008 17:45:02 14.2 C 10.01 g/m*3 14.2 C 0 km/h
790 13-09-2008 17:50:02 14.1 C 9.95 g/m*3 14.1 C 0 km/h
791 13-09-2008 17:55:02 14 C 9.89 g/m*3 14 C 0 km/h
792 13-09-2008 18:00:03 13.9 C 9.95 g/m*3 13.9 C 0 km/h
793 13-09-2008 18:05:01 13.8 C 9.77 g/m*3 13.8 C 0 km/h
794 13-09-2008 18:10:01 13.7 C 9.71 g/m*3 13.7 C 0 km/h
795 13-09-2008 18:15:02 13.5 C 9.59 g/m*3 13.5 C 0 km/h
796 13-09-2008 18:20:03 13.4 C 9.65 g/m*3 13.4 C 0 km/h
797 13-09-2008 18:25:03 13.4 C 9.65 g/m*3 13.4 C 0 km/h
798 13-09-2008 18:30:03 13.2 C 9.64 g/m*3 13.2 C 0 km/h
799 13-09-2008 18:35:02 13.1 C 9.59 g/m*3 13.1 C 0 km/h
800 13-09-2008 18:40:02 13 C 9.64 g/m*3 13 C 0 km/h
Sensor: Nr:Datum:Temp:Abs-Feuchte:Windchill:Wind:
Aussen-T/F 801 13-09-2008 18:45:01 12.9 C 9.69 g/m*3 12.9 C 0 km/h
802 13-09-2008 18:50:01 12.9 C 9.69 g/m*3 12.9 C 0 km/h
803 13-09-2008 18:55:01 12.9 C 9.69 g/m*3 12.9 C 0 km/h
804 13-09-2008 19:00:01 12.8 C 9.74 g/m*3 12.8 C 0 km/h
805 13-09-2008 19:05:02 12.8 C 9.74 g/m*3 12.8 C 0 km/h
806 13-09-2008 19:10:02 12.7 C 9.68 g/m*3 12.7 C 0 km/h
807 13-09-2008 19:15:01 12.5 C 9.57 g/m*3 12.5 C 0 km/h
808 13-09-2008 19:20:01 12.4 C 9.4 g/m*3 12.4 C 0 km/h
809 13-09-2008 19:25:01 12.1 C 9.22 g/m*3 12.1 C 0 km/h
810 13-09-2008 19:30:01 12.1 C 9.22 g/m*3 12.1 C 0 km/h
811 13-09-2008 19:35:02 11.8 C 9.05 g/m*3 11.8 C 0 km/h
812 13-09-2008 19:40:02 11.7 C 9.1 g/m*3 11.7 C 0 km/h
813 13-09-2008 19:45:02 11.6 C 9.04 g/m*3 11.6 C 0 km/h
814 13-09-2008 19:50:02 11.4 C 8.93 g/m*3 11.4 C 0 km/h
815 13-09-2008 19:55:02 11.2 C 8.82 g/m*3 11.2 C 0 km/h
816 13-09-2008 20:00:02 11.2 C 8.82 g/m*3 11.2 C 0 km/h
817 13-09-2008 20:05:02 11 C 8.71 g/m*3 11 C 0 km/h
818 13-09-2008 20:10:02 10.8 C 8.7 g/m*3 10.8 C 0 km/h
819 13-09-2008 20:15:02 10.7 C 8.64 g/m*3 10.7 C 0 km/h
820 13-09-2008 20:20:02 10.6 C 8.59 g/m*3 10.6 C 0 km/h
821 13-09-2008 20:25:03 10.4 C 8.48 g/m*3 10.4 C 0 km/h
822 13-09-2008 20:30:03 10.2 C 8.37 g/m*3 10.2 C 0 km/h
823 13-09-2008 20:35:02 10.1 C 8.32 g/m*3 10.1 C 0 km/h
824 13-09-2008 20:40:02 10 C 8.27 g/m*3 10 C 0 km/h
825 13-09-2008 20:45:03 9.9 C 8.31 g/m*3 9.9 C 0 km/h
Sensor: Nr:Datum:Temp:Abs-Feuchte:Windchill:Wind:
Aussen-T/F 826 13-09-2008 20:50:03 9.9 C 8.31 g/m*3 9.9 C 0 km/h
827 13-09-2008 20:55:03 9.7 C 8.2 g/m*3 9.7 C 0 km/h
828 13-09-2008 21:00:03 9.6 C 8.06 g/m*3 9.6 C 0 km/h
829 13-09-2008 21:05:02 9.6 C 8.06 g/m*3 9.6 C 0 km/h
830 13-09-2008 21:10:02 9.5 C 8.01 g/m*3 9.5 C 0 km/h
831 13-09-2008 21:15:02 9.4 C 7.96 g/m*3 9.4 C 0 km/h
832 13-09-2008 21:20:02 9.4 C 7.96 g/m*3 9.4 C 0 km/h
833 13-09-2008 21:25:02 9.2 C 7.86 g/m*3 9.2 C 0 km/h
834 13-09-2008 21:30:02 9.2 C 7.86 g/m*3 9.2 C 0 km/h
835 13-09-2008 21:35:02 9.1 C 7.81 g/m*3 9.1 C 0 km/h
836 13-09-2008 21:40:02 9 C 7.76 g/m*3 9 C 0 km/h
837 13-09-2008 21:45:02 8.9 C 7.8 g/m*3 8.9 C 0 km/h
838 13-09-2008 21:50:02 8.8 C 7.75 g/m*3 8.8 C 0 km/h
839 13-09-2008 21:55:02 8.8 C 7.75 g/m*3 8.8 C 0 km/h
840 13-09-2008 22:00:02 8.7 C 7.7 g/m*3 8.7 C 0 km/h
841 13-09-2008 22:05:01 8.6 C 7.65 g/m*3 8.6 C 0 km/h
842 13-09-2008 22:10:01 8.6 C 7.65 g/m*3 8.6 C 0 km/h
843 13-09-2008 22:15:02 8.5 C 7.6 g/m*3 8.5 C 0 km/h
844 13-09-2008 22:20:02 8.5 C 7.51 g/m*3 8.5 C 0 km/h
845 13-09-2008 22:25:03 8.5 C 7.51 g/m*3 8.5 C 0 km/h
846 13-09-2008 22:30:03 8.5 C 7.51 g/m*3 8.5 C 0 km/h
847 13-09-2008 22:35:01 8.5 C 7.43 g/m*3 8.5 C 0 km/h
848 13-09-2008 22:40:01 8.4 C 7.38 g/m*3 8.4 C 0 km/h
849 13-09-2008 22:45:02 8.4 C 7.3 g/m*3 8.4 C 0 km/h
850 13-09-2008 22:50:02 8.5 C 7.26 g/m*3 8.5 C 0 km/h
Sensor: Nr:Datum:Temp:Abs-Feuchte:Windchill:Wind:
Aussen-T/F 851 13-09-2008 22:55:02 8.4 C 7.13 g/m*3 8.4 C 0 km/h
852 13-09-2008 23:00:02 8.4 C 7.13 g/m*3 8.4 C 0 km/h
853 13-09-2008 23:06:01 8.4 C 7.04 g/m*3 8.4 C 0 km/h
854 13-09-2008 23:11:01 8.4 C 6.96 g/m*3 8.4 C 0 km/h
855 13-09-2008 23:16:01 8.3 C 6.91 g/m*3 8.3 C 0 km/h
856 13-09-2008 23:21:01 8.2 C 6.87 g/m*3 8.2 C 0 km/h
857 13-09-2008 23:26:01 8.1 C 6.82 g/m*3 8.1 C 0 km/h
858 13-09-2008 23:31:01 8.1 C 6.82 g/m*3 8.1 C 0 km/h
859 13-09-2008 23:36:01 8.1 C 6.82 g/m*3 8.1 C 0 km/h
860 13-09-2008 23:41:01 8.1 C 6.82 g/m*3 8.1 C 0 km/h
861 13-09-2008 23:46:01 8 C 6.78 g/m*3 8 C 0 km/h
862 13-09-2008 23:51:01 8 C 6.78 g/m*3 8 C 0 km/h
863 13-09-2008 23:56:02 7.9 C 6.82 g/m*3 7.9 C 0 km/h
864 14-09-2008 00:01:02 8 C 6.78 g/m*3 8 C 0 km/h
865 14-09-2008 00:06:02 8 C 6.7 g/m*3 8 C 0 km/h
866 14-09-2008 00:11:02 7.9 C 6.74 g/m*3 7.9 C 0 km/h
867 14-09-2008 00:16:02 8 C 6.7 g/m*3 8 C 0 km/h
868 14-09-2008 00:21:02 8 C 6.61 g/m*3 8 C 0 km/h
869 14-09-2008 00:26:02 8 C 6.53 g/m*3 8 C 0 km/h
870 14-09-2008 00:31:02 8.1 C 6.57 g/m*3 8.1 C 0 km/h
871 14-09-2008 00:36:02 8.1 C 6.49 g/m*3 8.1 C 0 km/h
872 14-09-2008 00:41:02 8.2 C 6.53 g/m*3 8.2 C 0 km/h
873 14-09-2008 00:46:02 8.2 C 6.36 g/m*3 8.2 C 0 km/h
874 14-09-2008 00:51:02 8.2 C 6.36 g/m*3 8.2 C 0 km/h
875 14-09-2008 00:56:02 8.2 C 6.36 g/m*3 8.2 C 0 km/h
Sensor: Nr:Datum:Temp:Abs-Feuchte:Windchill:Wind:
Aussen-T/F 876 14-09-2008 01:01:02 8.2 C 6.28 g/m*3 8.2 C 0 km/h
877 14-09-2008 01:06:02 8.2 C 6.2 g/m*3 8.2 C 0 km/h
878 14-09-2008 01:11:02 8.1 C 6.16 g/m*3 8.1 C 0 km/h
879 14-09-2008 01:16:02 8.1 C 6.16 g/m*3 8.1 C 0 km/h
880 14-09-2008 01:21:02 8.1 C 6.24 g/m*3 8.1 C 0 km/h
881 14-09-2008 01:26:02 8.1 C 6.24 g/m*3 8.1 C 0 km/h
882 14-09-2008 01:31:02 8.1 C 6.24 g/m*3 8.1 C 0 km/h
883 14-09-2008 01:36:03 8.1 C 6.24 g/m*3 8.1 C 0 km/h
884 14-09-2008 01:41:03 8.3 C 6.24 g/m*3 8.3 C 0 km/h
885 14-09-2008 01:46:03 8.3 C 6.15 g/m*3 8.3 C 0 km/h
886 14-09-2008 01:51:03 8.4 C 6.19 g/m*3 8.4 C 0 km/h
887 14-09-2008 01:56:03 8.4 C 6.19 g/m*3 8.4 C 0 km/h
888 14-09-2008 02:01:03 8.4 C 6.19 g/m*3 8.4 C 0 km/h
889 14-09-2008 02:06:03 8.5 C 6.23 g/m*3 8.5 C 0 km/h
890 14-09-2008 02:11:03 8.4 C 6.19 g/m*3 8.4 C 0 km/h
891 14-09-2008 02:16:03 8.4 C 6.19 g/m*3 8.4 C 0 km/h
892 14-09-2008 02:21:03 8.4 C 6.28 g/m*3 8.4 C 0 km/h
893 14-09-2008 02:26:03 8.3 C 6.15 g/m*3 8.3 C 0 km/h
894 14-09-2008 02:31:03 8.2 C 6.2 g/m*3 8.2 C 0 km/h
895 14-09-2008 02:36:03 8.2 C 6.2 g/m*3 8.2 C 0 km/h
896 14-09-2008 02:41:03 8.2 C 6.11 g/m*3 8.2 C 0 km/h
897 14-09-2008 02:46:03 8.2 C 6.11 g/m*3 8.2 C 0 km/h
898 14-09-2008 02:51:03 8.2 C 6.11 g/m*3 8.2 C 0 km/h
899 14-09-2008 02:56:03 8.5 C 6.06 g/m*3 8.5 C 0 km/h
900 14-09-2008 03:01:03 8.4 C 6.02 g/m*3 8.4 C 0 km/h
Sensor: Nr:Datum:Temp:Abs-Feuchte:Windchill:Wind:
Aussen-T/F 901 14-09-2008 03:06:03 8.5 C 5.98 g/m*3 8.5 C 0 km/h
902 14-09-2008 03:11:03 8.4 C 6.02 g/m*3 8.4 C 0 km/h
903 14-09-2008 03:16:04 8.3 C 6.07 g/m*3 8.3 C 0 km/h
904 14-09-2008 03:21:04 8.3 C 5.98 g/m*3 8.3 C 0 km/h
905 14-09-2008 03:26:04 8.2 C 6.03 g/m*3 8.2 C 0 km/h
906 14-09-2008 03:31:04 8.2 C 6.03 g/m*3 8.2 C 0 km/h
907 14-09-2008 03:36:04 8.2 C 6.03 g/m*3 8.2 C 0 km/h
908 14-09-2008 03:41:04 8 C 6.04 g/m*3 8 C 0 km/h
909 14-09-2008 03:46:04 8 C 6.04 g/m*3 8 C 0 km/h
910 14-09-2008 03:51:04 8 C 6.04 g/m*3 8 C 0 km/h
911 14-09-2008 03:56:04 8 C 6.04 g/m*3 8 C 0 km/h
912 14-09-2008 04:01:04 7.9 C 6.08 g/m*3 7.9 C 0 km/h
913 14-09-2008 04:06:04 7.8 C 6.04 g/m*3 7.8 C 0 km/h
914 14-09-2008 04:11:04 7.7 C 6.08 g/m*3 7.7 C 0 km/h
915 14-09-2008 04:16:04 7.5 C 6.08 g/m*3 7.5 C 0 km/h
916 14-09-2008 04:21:04 7.4 C 6.12 g/m*3 7.4 C 0 km/h
917 14-09-2008 04:26:04 7.3 C 6.08 g/m*3 7.3 C 0 km/h
918 14-09-2008 04:31:04 7.2 C 6.12 g/m*3 7.2 C 0 km/h
919 14-09-2008 04:36:04 7.2 C 6.12 g/m*3 7.2 C 0 km/h
920 14-09-2008 04:41:04 7.1 C 6.08 g/m*3 7.1 C 0 km/h
921 14-09-2008 04:46:04 7 C 6.12 g/m*3 7 C 0 km/h
922 14-09-2008 04:51:05 7.1 C 6.16 g/m*3 7.1 C 0 km/h
923 14-09-2008 04:56:05 7.1 C 6.16 g/m*3 7.1 C 0 km/h
924 14-09-2008 05:01:05 7.3 C 6.16 g/m*3 7.3 C 0 km/h
925 14-09-2008 05:06:05 7.3 C 6.16 g/m*3 7.3 C 0 km/h
Sensor: Nr:Datum:Temp:Abs-Feuchte:Windchill:Wind:
Aussen-T/F 926 14-09-2008 05:11:05 7.7 C 6.32 g/m*3 7.7 C 0 km/h
927 14-09-2008 05:16:05 7.3 C 6.08 g/m*3 7.3 C 0 km/h
928 14-09-2008 05:21:05 7.1 C 6.01 g/m*3 7.1 C 0 km/h
929 14-09-2008 05:26:05 7.1 C 6.08 g/m*3 7.1 C 0 km/h
930 14-09-2008 05:31:05 7.1 C 6.01 g/m*3 7.1 C 0 km/h
931 14-09-2008 05:36:05 6.9 C 6 g/m*3 6.9 C 0 km/h
932 14-09-2008 05:41:05 6.9 C 6.08 g/m*3 6.9 C 0 km/h
933 14-09-2008 05:46:05 6.8 C 6.12 g/m*3 6.8 C 0 km/h
934 14-09-2008 05:51:05 6.8 C 6.12 g/m*3 6.8 C 0 km/h
935 14-09-2008 05:56:05 6.8 C 6.12 g/m*3 6.8 C 0 km/h
936 14-09-2008 06:01:05 6.8 C 6.19 g/m*3 6.8 C 0 km/h
937 14-09-2008 06:06:05 6.8 C 6.12 g/m*3 6.8 C 0 km/h
938 14-09-2008 06:11:05 6.8 C 6.19 g/m*3 6.8 C 0 km/h
939 14-09-2008 06:16:05 6.7 C 6.15 g/m*3 6.7 C 0 km/h
940 14-09-2008 06:21:05 6.7 C 6.15 g/m*3 6.7 C 0 km/h
941 14-09-2008 06:26:06 6.8 C 6.12 g/m*3 6.8 C 0 km/h
942 14-09-2008 06:31:06 6.8 C 6.04 g/m*3 6.8 C 0 km/h
943 14-09-2008 06:36:06 6.8 C 5.97 g/m*3 6.8 C 0 km/h
944 14-09-2008 06:41:06 6.7 C 5.93 g/m*3 6.7 C 0 km/h
945 14-09-2008 06:46:06 6.6 C 5.96 g/m*3 6.6 C 0 km/h
946 14-09-2008 06:51:06 6.5 C 6 g/m*3 6.5 C 0 km/h
947 14-09-2008 06:56:06 6.4 C 5.96 g/m*3 6.4 C 0 km/h
948 14-09-2008 07:01:02 6.4 C 5.96 g/m*3 6.4 C 0 km/h
949 14-09-2008 07:06:02 6.2 C 5.96 g/m*3 6.2 C 0 km/h
950 14-09-2008 07:11:02 6 C 5.88 g/m*3 6 C 0 km/h
Sensor: Nr:Datum:Temp:Abs-Feuchte:Windchill:Wind:
Aussen-T/F 951 14-09-2008 07:16:02 5.9 C 5.98 g/m*3 5.9 C 0 km/h
952 14-09-2008 07:21:02 5.8 C 5.95 g/m*3 5.8 C 0 km/h
953 14-09-2008 07:26:02 5.8 C 5.95 g/m*3 5.8 C 0 km/h
954 14-09-2008 07:31:01 5.8 C 6.02 g/m*3 5.8 C 0 km/h
955 14-09-2008 07:36:01 5.8 C 6.02 g/m*3 5.8 C 0 km/h
956 14-09-2008 07:41:01 5.7 C 5.98 g/m*3 5.7 C 0 km/h
957 14-09-2008 07:46:02 5.8 C 6.09 g/m*3 5.8 C 0 km/h
958 14-09-2008 07:51:02 5.8 C 6.09 g/m*3 5.8 C 0 km/h
959 14-09-2008 07:56:02 5.8 C 6.09 g/m*3 5.8 C 0 km/h
960 14-09-2008 08:01:02 5.8 C 6.09 g/m*3 5.8 C 0 km/h
961 14-09-2008 08:06:02 5.7 C 6.05 g/m*3 5.7 C 0 km/h
962 14-09-2008 08:11:02 5.7 C 6.12 g/m*3 5.7 C 0 km/h
963 14-09-2008 08:16:01 5.8 C 6.16 g/m*3 5.8 C 0 km/h
964 14-09-2008 08:21:01 5.9 C 6.2 g/m*3 5.9 C 0 km/h
965 14-09-2008 08:26:01 5.9 C 6.2 g/m*3 5.9 C 0 km/h
966 14-09-2008 08:31:02 5.9 C 6.27 g/m*3 5.9 C 0 km/h
967 14-09-2008 08:36:03 5.9 C 6.27 g/m*3 5.9 C 0 km/h
968 14-09-2008 08:41:03 5.9 C 6.27 g/m*3 5.9 C 0 km/h
969 14-09-2008 08:46:02 6 C 6.24 g/m*3 6 C 0 km/h
970 14-09-2008 08:51:02 6.2 C 6.4 g/m*3 6.2 C 0 km/h
971 14-09-2008 08:56:02 6.2 C 6.4 g/m*3 6.2 C 0 km/h
972 14-09-2008 09:01:02 6.3 C 6.44 g/m*3 6.3 C 0 km/h
973 14-09-2008 09:06:02 6.4 C 6.48 g/m*3 6.4 C 0 km/h
974 14-09-2008 09:11:02 6.6 C 6.64 g/m*3 6.6 C 0 km/h
975 14-09-2008 09:16:02 6.7 C 6.69 g/m*3 6.7 C 0 km/h
Sensor: Nr:Datum:Temp:Abs-Feuchte:Windchill:Wind:
Aussen-T/F 976 14-09-2008 09:21:02 6.8 C 6.65 g/m*3 6.8 C 0 km/h
977 14-09-2008 09:26:03 7 C 6.66 g/m*3 7 C 0 km/h
978 14-09-2008 09:31:01 7.1 C 6.71 g/m*3 7.1 C 0 km/h
979 14-09-2008 09:36:01 7.3 C 6.79 g/m*3 7.3 C 0 km/h
980 14-09-2008 09:41:01 7.6 C 6.85 g/m*3 7.6 C 0 km/h
981 14-09-2008 09:46:02 7.6 C 6.85 g/m*3 7.6 C 0 km/h
982 14-09-2008 09:51:02 7.7 C 6.89 g/m*3 7.7 C 0 km/h
983 14-09-2008 09:56:02 8.1 C 6.91 g/m*3 8.1 C 0 km/h
984 14-09-2008 10:01:02 8.4 C 7.04 g/m*3 8.4 C 0 km/h
985 14-09-2008 10:06:02 8.5 C 7.09 g/m*3 8.5 C 0 km/h
986 14-09-2008 10:11:02 8.8 C 7.14 g/m*3 8.8 C 0 km/h
987 14-09-2008 10:16:01 9.2 C 7.05 g/m*3 9.2 C 0 km/h
988 14-09-2008 10:21:01 9.4 C 7.05 g/m*3 9.4 C 0 km/h
989 14-09-2008 10:26:01 9.6 C 6.96 g/m*3 9.6 C 0 km/h
990 14-09-2008 10:31:02 9.8 C 6.96 g/m*3 9.8 C 0 km/h
991 14-09-2008 10:36:02 10 C 6.86 g/m*3 10 C 0 km/h
992 14-09-2008 10:41:03 10.3 C 6.7 g/m*3 10.3 C 0 km/h
993 14-09-2008 10:46:02 10.7 C 6.48 g/m*3 10.7 C 0 km/h
994 14-09-2008 10:51:02 10.9 C 6.56 g/m*3 10.9 C 0 km/h
995 14-09-2008 10:56:02 11.1 C 6.25 g/m*3 11.1 C 0 km/h
996 14-09-2008 11:01:03 11.4 C 6.16 g/m*3 11.4 C 0 km/h
997 14-09-2008 11:06:03 11.8 C 6.1 g/m*3 11.8 C 0 km/h
998 14-09-2008 11:11:03 12 C 6.18 g/m*3 12 C 0 km/h
999 14-09-2008 11:16:02 12.2 C 5.5 g/m*3 12.2 C 0 km/h
1000 14-09-2008 11:21:02 12.5 C 5.5 g/m*3 12.5 C 0 km/h
Sensor: Nr:Datum:Temp:Abs-Feuchte:Windchill:Wind:
Aussen-T/F 1001 14-09-2008 11:26:03 12.6 C 5.42 g/m*3 12.6 C 0 km/h
1002 14-09-2008 11:31:02 12.8 C 5.6 g/m*3 12.8 C 0 km/h
1003 14-09-2008 11:36:02 13.1 C 5.36 g/m*3 13.1 C 0 km/h
1004 14-09-2008 11:41:02 13.2 C 5.4 g/m*3 13.2 C 0 km/h
1005 14-09-2008 11:46:02 13.6 C 5.41 g/m*3 13.6 C 0 km/h
1006 14-09-2008 11:51:02 13.7 C 5.09 g/m*3 13.7 C 0 km/h
1007 14-09-2008 11:56:02 13.7 C 5.09 g/m*3 13.7 C 0 km/h
1008 14-09-2008 12:01:02 14.1 C 4.85 g/m*3 14.1 C 0 km/h
1009 14-09-2008 12:06:02 14.3 C 4.79 g/m*3 14.3 C 0 km/h
1010 14-09-2008 12:11:02 14.4 C 4.7 g/m*3 14.4 C 0 km/h
1011 14-09-2008 12:16:02 14.5 C 4.6 g/m*3 14.5 C 0 km/h
1012 14-09-2008 12:21:02 14.7 C 4.78 g/m*3 14.7 C 0 km/h
1013 14-09-2008 12:26:02 14.6 C 4.63 g/m*3 14.6 C 0 km/h
1014 14-09-2008 12:31:02 14.6 C 4.63 g/m*3 14.6 C 0 km/h
1015 14-09-2008 12:36:02 14.2 C 4.52 g/m*3 14.2 C 0 km/h
1016 14-09-2008 12:41:02 14.2 C 4.88 g/m*3 14.2 C 0 km/h
1017 14-09-2008 12:46:02 14.4 C 4.7 g/m*3 14.4 C 0 km/h
1018 14-09-2008 12:51:02 14.9 C 4.72 g/m*3 14.9 C 0 km/h
1019 14-09-2008 12:56:02 15.3 C 4.83 g/m*3 15.3 C 0 km/h
1020 14-09-2008 13:01:01 15.8 C 4.71 g/m*3 15.8 C 0 km/h
1021 14-09-2008 13:06:01 16 C 4.77 g/m*3 16 C 0 km/h
1022 14-09-2008 13:11:01 16.4 C 5.02 g/m*3 16.4 C 0 km/h
1023 14-09-2008 13:16:02 16.1 C 4.8 g/m*3 16.1 C 0 km/h
1024 14-09-2008 13:21:02 15.9 C 4.74 g/m*3 15.9 C 0 km/h
1025 14-09-2008 13:26:02 15.5 C 4.76 g/m*3 15.5 C 0 km/h
Sensor: Nr:Datum:Temp:Abs-Feuchte:Windchill:Wind:
Aussen-T/F 1026 14-09-2008 13:31:01 15.2 C 4.67 g/m*3 15.2 C 0 km/h
1027 14-09-2008 13:36:01 15.1 C 4.64 g/m*3 15.1 C 0 km/h
1028 14-09-2008 13:41:01 15.8 C 5.12 g/m*3 15.8 C 0 km/h
1029 14-09-2008 13:46:01 16.3 C 4.86 g/m*3 16.3 C 0 km/h
1030 14-09-2008 13:51:01 16.5 C 5.06 g/m*3 16.5 C 0 km/h
1031 14-09-2008 13:56:01 16.9 C 4.75 g/m*3 16.9 C 0 km/h
1032 14-09-2008 14:01:02 17.4 C 4.74 g/m*3 17.4 C 0 km/h
1033 14-09-2008 14:06:03 17 C 4.63 g/m*3 17 C 0 km/h
1034 14-09-2008 14:11:03 16.8 C 4.58 g/m*3 16.8 C 0 km/h
1035 14-09-2008 14:16:01 17.5 C 4.92 g/m*3 17.5 C 0 km/h
1036 14-09-2008 14:21:01 18.3 C 4.85 g/m*3 18.3 C 0 km/h
1037 14-09-2008 14:26:01 18.6 C 4.62 g/m*3 18.6 C 0 km/h
1038 14-09-2008 14:31:02 18.9 C 4.86 g/m*3 18.9 C 0 km/h
1039 14-09-2008 14:36:02 19.1 C 4.92 g/m*3 19.1 C 0 km/h
1040 14-09-2008 14:41:02 19.4 C 5.01 g/m*3 19.4 C 0 km/h
1041 14-09-2008 14:46:01 19.6 C 4.56 g/m*3 19.6 C 0 km/h
1042 14-09-2008 14:51:01 19.5 C 4.53 g/m*3 19.5 C 0 km/h
1043 14-09-2008 14:56:01 19.3 C 4.81 g/m*3 19.3 C 0 km/h
1044 14-09-2008 15:01:02 19.3 C 4.64 g/m*3 19.3 C 0 km/h
1045 14-09-2008 15:06:02 19.3 C 4.81 g/m*3 19.3 C 0 km/h
1046 14-09-2008 15:11:02 19.1 C 4.43 g/m*3 19.1 C 0 km/h
1047 14-09-2008 15:16:02 19 C 4.73 g/m*3 19 C 0 km/h
1048 14-09-2008 15:21:02 19 C 4.73 g/m*3 19 C 0 km/h
1049 14-09-2008 15:26:02 18.7 C 4.64 g/m*3 18.7 C 0 km/h
1050 14-09-2008 15:31:01 18.5 C 4.75 g/m*3 18.5 C 0 km/h
Sensor: Nr:Datum:Temp:Abs-Feuchte:Windchill:Wind:
Aussen-T/F 1051 14-09-2008 15:36:01 18.5 C 4.9 g/m*3 18.5 C 0 km/h
1052 14-09-2008 15:41:01 18.2 C 4.82 g/m*3 18.2 C 0 km/h
1053 14-09-2008 15:46:02 18.1 C 4.79 g/m*3 18.1 C 0 km/h
1054 14-09-2008 15:51:02 17.9 C 4.89 g/m*3 17.9 C 0 km/h
1055 14-09-2008 15:56:02 17.8 C 5.01 g/m*3 17.8 C 0 km/h
1056 14-09-2008 16:01:02 18.1 C 5.25 g/m*3 18.1 C 0 km/h
1057 14-09-2008 16:06:02 18.5 C 5.22 g/m*3 18.5 C 0 km/h
1058 14-09-2008 16:11:02 19.1 C 4.92 g/m*3 19.1 C 0 km/h
1059 14-09-2008 16:16:02 18.8 C 4.83 g/m*3 18.8 C 0 km/h
1060 14-09-2008 16:21:02 18.9 C 4.86 g/m*3 18.9 C 0 km/h
1061 14-09-2008 16:26:02 18.7 C 4.8 g/m*3 18.7 C 0 km/h
1062 14-09-2008 16:31:01 18.6 C 4.77 g/m*3 18.6 C 0 km/h
1063 14-09-2008 16:36:01 18.5 C 4.75 g/m*3 18.5 C 0 km/h
1064 14-09-2008 16:41:01 19 C 4.89 g/m*3 19 C 0 km/h
1065 14-09-2008 16:46:02 20 C 5.01 g/m*3 20 C 0 km/h
1066 14-09-2008 16:51:02 20 C 4.84 g/m*3 20 C 0 km/h
1067 14-09-2008 16:56:02 20.3 C 4.75 g/m*3 20.3 C 0 km/h
1068 14-09-2008 17:01:02 21.3 C 4.66 g/m*3 21.3 C 0 km/h
1069 14-09-2008 17:06:02 20.6 C 4.47 g/m*3 20.6 C 0 km/h
1070 14-09-2008 17:11:02 20.4 C 4.6 g/m*3 20.4 C 0 km/h
1071 14-09-2008 17:16:02 19.7 C 4.75 g/m*3 19.7 C 0 km/h
1072 14-09-2008 17:21:02 19.2 C 4.95 g/m*3 19.2 C 0 km/h
1073 14-09-2008 17:26:02 18.7 C 4.8 g/m*3 18.7 C 0 km/h
1074 14-09-2008 17:31:02 18.4 C 5.35 g/m*3 18.4 C 0 km/h
1075 14-09-2008 17:36:02 18.2 C 5.44 g/m*3 18.2 C 0 km/h
Sensor: Nr:Datum:Temp:Abs-Feuchte:Windchill:Wind:
Aussen-T/F 1076 14-09-2008 17:41:02 18 C 5.53 g/m*3 18 C 0 km/h
1077 14-09-2008 17:46:02 17.7 C 5.73 g/m*3 17.7 C 0 km/h
1078 14-09-2008 17:51:02 17.6 C 5.55 g/m*3 17.6 C 0 km/h
1079 14-09-2008 17:56:02 17.9 C 6.11 g/m*3 17.9 C 0 km/h
1080 14-09-2008 18:01:02 17.9 C 6.11 g/m*3 17.9 C 0 km/h
1081 14-09-2008 18:06:02 17.8 C 5.62 g/m*3 17.8 C 0 km/h
1082 14-09-2008 18:11:03 17.6 C 5.55 g/m*3 17.6 C 0 km/h
1083 14-09-2008 18:16:01 17.5 C 5.52 g/m*3 17.5 C 0 km/h
1084 14-09-2008 18:21:01 17 C 5.5 g/m*3 17 C 0 km/h
1085 14-09-2008 18:26:01 16.9 C 5.9 g/m*3 16.9 C 0 km/h
1086 14-09-2008 18:31:02 16.8 C 5.72 g/m*3 16.8 C 0 km/h
1087 14-09-2008 18:36:02 16.6 C 5.79 g/m*3 16.6 C 0 km/h
1088 14-09-2008 18:41:02 16.1 C 5.35 g/m*3 16.1 C 0 km/h
1089 14-09-2008 18:46:02 16 C 5.18 g/m*3 16 C 0 km/h
1090 14-09-2008 18:51:02 15.8 C 5.25 g/m*3 15.8 C 0 km/h
1091 14-09-2008 18:56:02 15.5 C 5.42 g/m*3 15.5 C 0 km/h
1092 14-09-2008 19:01:02 15.4 C 5.39 g/m*3 15.4 C 0 km/h
1093 14-09-2008 19:06:02 15.3 C 5.35 g/m*3 15.3 C 0 km/h
1094 14-09-2008 19:11:02 15.2 C 5.58 g/m*3 15.2 C 0 km/h
1095 14-09-2008 19:16:02 15 C 5.26 g/m*3 15 C 0 km/h
1096 14-09-2008 19:21:02 14.9 C 5.48 g/m*3 14.9 C 0 km/h
1097 14-09-2008 19:26:02 14.8 C 5.57 g/m*3 14.8 C 0 km/h
1098 14-09-2008 19:31:02 14.7 C 5.67 g/m*3 14.7 C 0 km/h
1099 14-09-2008 19:36:02 14.4 C 5.81 g/m*3 14.4 C 0 km/h
1100 14-09-2008 19:41:02 14.3 C 5.65 g/m*3 14.3 C 0 km/h
Sensor: Nr:Datum:Temp:Abs-Feuchte:Windchill:Wind:
Aussen-T/F 1101 14-09-2008 19:46:02 14.1 C 5.34 g/m*3 14.1 C 0 km/h
1102 14-09-2008 19:51:02 13.8 C 5.48 g/m*3 13.8 C 0 km/h
1103 14-09-2008 19:56:03 13.7 C 5.45 g/m*3 13.7 C 0 km/h
1104 14-09-2008 20:01:01 13.5 C 5.38 g/m*3 13.5 C 0 km/h
1105 14-09-2008 20:06:01 13.2 C 5.28 g/m*3 13.2 C 0 km/h
1106 14-09-2008 20:11:01 13.1 C 5.25 g/m*3 13.1 C 0 km/h
1107 14-09-2008 20:16:02 13 C 5.33 g/m*3 13 C 0 km/h
1108 14-09-2008 20:21:02 12.8 C 5.38 g/m*3 12.8 C 0 km/h
1109 14-09-2008 20:26:02 12.7 C 5.57 g/m*3 12.7 C 0 km/h
1110 14-09-2008 20:31:01 12.5 C 5.72 g/m*3 12.5 C 0 km/h
1111 14-09-2008 20:36:01 12.4 C 5.68 g/m*3 12.4 C 0 km/h
1112 14-09-2008 20:41:01 12.3 C 5.65 g/m*3 12.3 C 0 km/h
1113 14-09-2008 20:46:01 12.2 C 5.61 g/m*3 12.2 C 0 km/h
1114 14-09-2008 20:51:01 12.3 C 5.75 g/m*3 12.3 C 0 km/h
1115 14-09-2008 20:56:01 12.2 C 5.83 g/m*3 12.2 C 0 km/h
1116 14-09-2008 21:01:02 12.2 C 5.94 g/m*3 12.2 C 0 km/h
1117 14-09-2008 21:06:02 12.3 C 6.08 g/m*3 12.3 C 0 km/h
1118 14-09-2008 21:11:02 12.4 C 6.01 g/m*3 12.4 C 0 km/h
1119 14-09-2008 21:16:01 12.2 C 5.94 g/m*3 12.2 C 0 km/h
1120 14-09-2008 21:21:01 12.4 C 6.01 g/m*3 12.4 C 0 km/h
1121 14-09-2008 21:26:01 12.4 C 6.01 g/m*3 12.4 C 0 km/h
1122 14-09-2008 21:31:02 12.2 C 6.04 g/m*3 12.2 C 0 km/h
1123 14-09-2008 21:36:02 12.2 C 6.04 g/m*3 12.2 C 0 km/h
1124 14-09-2008 21:41:02 12.4 C 6.23 g/m*3 12.4 C 0 km/h
1125 14-09-2008 21:46:02 12.4 C 6.23 g/m*3 12.4 C 0 km/h
Sensor: Nr:Datum:Temp:Abs-Feuchte:Windchill:Wind:
Aussen-T/F 1126 14-09-2008 21:51:02 12.4 C 6.12 g/m*3 12.4 C 0 km/h
1127 14-09-2008 21:56:02 12.2 C 6.04 g/m*3 12.2 C 0 km/h
1128 14-09-2008 22:02:02 12.2 C 6.15 g/m*3 12.2 C 0 km/h
1129 14-09-2008 22:07:02 12.2 C 6.15 g/m*3 12.2 C 0 km/h
1130 14-09-2008 22:12:02 12.1 C 6.11 g/m*3 12.1 C 0 km/h
1131 14-09-2008 22:17:02 12.1 C 6.33 g/m*3 12.1 C 0 km/h
1132 14-09-2008 22:22:02 12.1 C 6.33 g/m*3 12.1 C 0 km/h
1133 14-09-2008 22:27:02 12.1 C 6.43 g/m*3 12.1 C 0 km/h
1134 14-09-2008 22:32:02 12 C 6.39 g/m*3 12 C 0 km/h
1135 14-09-2008 22:37:02 11.8 C 6.31 g/m*3 11.8 C 0 km/h
1136 14-09-2008 22:42:02 11.7 C 6.48 g/m*3 11.7 C 0 km/h
1137 14-09-2008 22:47:02 11.5 C 6.4 g/m*3 11.5 C 0 km/h
1138 14-09-2008 22:52:02 11.3 C 6.32 g/m*3 11.3 C 0 km/h
1139 14-09-2008 22:57:03 11.2 C 6.28 g/m*3 11.2 C 0 km/h
1140 14-09-2008 23:02:03 11 C 6.31 g/m*3 11 C 0 km/h
1141 14-09-2008 23:07:03 10.9 C 6.47 g/m*3 10.9 C 0 km/h
1142 14-09-2008 23:12:03 10.8 C 6.42 g/m*3 10.8 C 0 km/h
1143 14-09-2008 23:17:03 10.8 C 6.52 g/m*3 10.8 C 0 km/h
1144 14-09-2008 23:22:03 10.9 C 6.56 g/m*3 10.9 C 0 km/h
1145 14-09-2008 23:27:03 10.8 C 6.52 g/m*3 10.8 C 0 km/h
1146 14-09-2008 23:32:03 10.8 C 6.52 g/m*3 10.8 C 0 km/h
1147 14-09-2008 23:37:03 10.7 C 6.48 g/m*3 10.7 C 0 km/h
1148 14-09-2008 23:42:03 10.7 C 6.58 g/m*3 10.7 C 0 km/h
1149 14-09-2008 23:47:03 10.7 C 6.58 g/m*3 10.7 C 0 km/h
1150 14-09-2008 23:52:03 10.5 C 6.6 g/m*3 10.5 C 0 km/h
Sensor: Nr:Datum:Temp:Abs-Feuchte:Windchill:Wind:
Aussen-T/F 1151 14-09-2008 23:57:03 10.4 C 6.55 g/m*3 10.4 C 0 km/h
1152 15-09-2008 00:02:03 10.3 C 6.51 g/m*3 10.3 C 0 km/h
1153 15-09-2008 00:07:03 10.1 C 6.43 g/m*3 10.1 C 0 km/h
1154 15-09-2008 00:12:03 9.9 C 6.54 g/m*3 9.9 C 0 km/h
1155 15-09-2008 00:17:03 9.8 C 6.49 g/m*3 9.8 C 0 km/h
1156 15-09-2008 00:22:03 9.7 C 6.55 g/m*3 9.7 C 0 km/h
1157 15-09-2008 00:27:03 9.6 C 6.6 g/m*3 9.6 C 0 km/h
1158 15-09-2008 00:32:03 9.6 C 6.6 g/m*3 9.6 C 0 km/h
1159 15-09-2008 00:37:04 9.4 C 6.51 g/m*3 9.4 C 0 km/h
1160 15-09-2008 00:42:04 9.3 C 6.56 g/m*3 9.3 C 0 km/h
1161 15-09-2008 00:47:04 9.3 C 6.56 g/m*3 9.3 C 0 km/h
1162 15-09-2008 00:52:04 9.2 C 6.52 g/m*3 9.2 C 0 km/h
1163 15-09-2008 00:57:04 9.1 C 6.57 g/m*3 9.1 C 0 km/h
1164 15-09-2008 01:02:04 9 C 6.52 g/m*3 9 C 0 km/h
1165 15-09-2008 01:07:04 9 C 6.52 g/m*3 9 C 0 km/h
1166 15-09-2008 01:12:04 9 C 6.61 g/m*3 9 C 0 km/h
1167 15-09-2008 01:17:04 9 C 6.61 g/m*3 9 C 0 km/h
1168 15-09-2008 01:22:04 9 C 6.52 g/m*3 9 C 0 km/h
1169 15-09-2008 01:27:04 9.1 C 6.48 g/m*3 9.1 C 0 km/h
1170 15-09-2008 01:32:04 9 C 6.44 g/m*3 9 C 0 km/h
1171 15-09-2008 01:37:04 9 C 6.44 g/m*3 9 C 0 km/h
1172 15-09-2008 01:42:04 8.9 C 6.48 g/m*3 8.9 C 0 km/h
1173 15-09-2008 01:47:04 8.9 C 6.57 g/m*3 8.9 C 0 km/h
1174 15-09-2008 01:52:04 8.9 C 6.48 g/m*3 8.9 C 0 km/h
1175 15-09-2008 01:57:04 8.8 C 6.44 g/m*3 8.8 C 0 km/h
Sensor: Nr:Datum:Temp:Abs-Feuchte:Windchill:Wind:
Aussen-T/F 1176 15-09-2008 02:02:04 8.7 C 6.4 g/m*3 8.7 C 0 km/h
1177 15-09-2008 02:07:04 8.7 C 6.49 g/m*3 8.7 C 0 km/h
1178 15-09-2008 02:12:05 8.7 C 6.49 g/m*3 8.7 C 0 km/h
1179 15-09-2008 02:17:05 8.8 C 6.53 g/m*3 8.8 C 0 km/h
1180 15-09-2008 02:22:05 8.8 C 6.53 g/m*3 8.8 C 0 km/h
1181 15-09-2008 02:27:05 8.8 C 6.44 g/m*3 8.8 C 0 km/h
1182 15-09-2008 02:32:05 8.8 C 6.44 g/m*3 8.8 C 0 km/h
1183 15-09-2008 02:37:05 8.7 C 6.31 g/m*3 8.7 C 0 km/h
1184 15-09-2008 02:42:05 8.7 C 6.31 g/m*3 8.7 C 0 km/h
1185 15-09-2008 02:47:05 8.7 C 6.31 g/m*3 8.7 C 0 km/h
1186 15-09-2008 02:52:05 8.6 C 6.27 g/m*3 8.6 C 0 km/h
1187 15-09-2008 02:57:05 8.6 C 6.27 g/m*3 8.6 C 0 km/h
1188 15-09-2008 03:02:05 8.5 C 6.23 g/m*3 8.5 C 0 km/h
1189 15-09-2008 03:07:05 8.4 C 6.28 g/m*3 8.4 C 0 km/h
1190 15-09-2008 03:12:05 8.2 C 6.28 g/m*3 8.2 C 0 km/h
1191 15-09-2008 03:17:05 8.2 C 6.36 g/m*3 8.2 C 0 km/h
1192 15-09-2008 03:22:05 8.2 C 6.36 g/m*3 8.2 C 0 km/h
1193 15-09-2008 03:27:05 8.3 C 6.49 g/m*3 8.3 C 0 km/h
1194 15-09-2008 03:32:05 8.2 C 6.45 g/m*3 8.2 C 0 km/h
1195 15-09-2008 03:37:05 8.2 C 6.45 g/m*3 8.2 C 0 km/h
1196 15-09-2008 03:42:05 8.2 C 6.53 g/m*3 8.2 C 0 km/h
1197 15-09-2008 03:47:06 8.2 C 6.53 g/m*3 8.2 C 0 km/h
1198 15-09-2008 03:52:06 8.2 C 6.53 g/m*3 8.2 C 0 km/h
1199 15-09-2008 03:57:06 8.1 C 6.49 g/m*3 8.1 C 0 km/h
1200 15-09-2008 04:02:06 8.1 C 6.57 g/m*3 8.1 C 0 km/h
Sensor: Nr:Datum:Temp:Abs-Feuchte:Windchill:Wind:
Aussen-T/F 1201 15-09-2008 04:07:06 8 C 6.53 g/m*3 8 C 0 km/h
1202 15-09-2008 04:12:06 7.9 C 6.57 g/m*3 7.9 C 0 km/h
1203 15-09-2008 04:17:06 7.8 C 6.53 g/m*3 7.8 C 0 km/h
1204 15-09-2008 04:22:06 7.7 C 6.49 g/m*3 7.7 C 0 km/h
1205 15-09-2008 04:27:06 7.6 C 6.44 g/m*3 7.6 C 0 km/h
1206 15-09-2008 04:32:06 7.5 C 6.48 g/m*3 7.5 C 0 km/h
1207 15-09-2008 04:37:06 7.4 C 6.44 g/m*3 7.4 C 0 km/h
1208 15-09-2008 04:42:06 7.4 C 6.52 g/m*3 7.4 C 0 km/h
1209 15-09-2008 04:47:06 7.5 C 6.56 g/m*3 7.5 C 0 km/h
1210 15-09-2008 04:52:06 7.3 C 6.48 g/m*3 7.3 C 0 km/h
1211 15-09-2008 04:57:06 7.3 C 6.56 g/m*3 7.3 C 0 km/h
1212 15-09-2008 05:02:06 7.3 C 6.56 g/m*3 7.3 C 0 km/h
1213 15-09-2008 05:07:06 7.3 C 6.56 g/m*3 7.3 C 0 km/h
1214 15-09-2008 05:12:06 7.2 C 6.52 g/m*3 7.2 C 0 km/h
1215 15-09-2008 05:17:06 7.2 C 6.52 g/m*3 7.2 C 0 km/h
1216 15-09-2008 05:22:07 7.2 C 6.59 g/m*3 7.2 C 0 km/h
1217 15-09-2008 05:27:07 7.3 C 6.64 g/m*3 7.3 C 0 km/h
1218 15-09-2008 05:32:07 7.4 C 6.68 g/m*3 7.4 C 0 km/h
1219 15-09-2008 05:37:07 7.4 C 6.68 g/m*3 7.4 C 0 km/h
1220 15-09-2008 05:42:07 7.2 C 6.59 g/m*3 7.2 C 0 km/h
1221 15-09-2008 05:47:07 7.1 C 6.55 g/m*3 7.1 C 0 km/h
1222 15-09-2008 05:52:07 7 C 6.51 g/m*3 7 C 0 km/h
1223 15-09-2008 05:57:07 6.9 C 6.62 g/m*3 6.9 C 0 km/h
1224 15-09-2008 06:02:07 6.9 C 6.62 g/m*3 6.9 C 0 km/h
1225 15-09-2008 06:07:07 6.9 C 6.62 g/m*3 6.9 C 0 km/h
Sensor: Nr:Datum:Temp:Abs-Feuchte:Windchill:Wind:
Aussen-T/F 1226 15-09-2008 06:12:07 6.9 C 6.62 g/m*3 6.9 C 0 km/h
1227 15-09-2008 06:17:07 6.8 C 6.58 g/m*3 6.8 C 0 km/h
1228 15-09-2008 06:22:07 6.8 C 6.58 g/m*3 6.8 C 0 km/h
1229 15-09-2008 06:27:07 6.8 C 6.58 g/m*3 6.8 C 0 km/h
1230 15-09-2008 06:32:07 6.7 C 6.61 g/m*3 6.7 C 0 km/h
1231 15-09-2008 06:37:07 6.6 C 6.57 g/m*3 6.6 C 0 km/h
1232 15-09-2008 06:42:07 6.6 C 6.57 g/m*3 6.6 C 0 km/h
1233 15-09-2008 06:47:07 6.5 C 6.52 g/m*3 6.5 C 0 km/h
1234 15-09-2008 06:52:07 6.4 C 6.48 g/m*3 6.4 C 0 km/h
1235 15-09-2008 06:57:08 6.4 C 6.48 g/m*3 6.4 C 0 km/h
1236 15-09-2008 07:02:02 6.3 C 6.51 g/m*3 6.3 C 0 km/h
1237 15-09-2008 07:07:02 6.3 C 6.51 g/m*3 6.3 C 0 km/h
1238 15-09-2008 07:12:02 6.2 C 6.47 g/m*3 6.2 C 0 km/h
1239 15-09-2008 07:17:02 6.2 C 6.47 g/m*3 6.2 C 0 km/h
1240 15-09-2008 07:22:02 6.2 C 6.47 g/m*3 6.2 C 0 km/h
1241 15-09-2008 07:27:02 6.2 C 6.47 g/m*3 6.2 C 0 km/h
1242 15-09-2008 07:32:02 6.2 C 6.55 g/m*3 6.2 C 0 km/h
1243 15-09-2008 07:37:02 6.1 C 6.43 g/m*3 6.1 C 0 km/h
1244 15-09-2008 07:42:02 6.1 C 6.5 g/m*3 6.1 C 0 km/h
1245 15-09-2008 07:47:02 6.1 C 6.5 g/m*3 6.1 C 0 km/h
1246 15-09-2008 07:52:02 6.1 C 6.5 g/m*3 6.1 C 0 km/h
1247 15-09-2008 07:57:02 6.1 C 6.5 g/m*3 6.1 C 0 km/h
1248 15-09-2008 08:02:02 6.1 C 6.5 g/m*3 6.1 C 0 km/h
1249 15-09-2008 08:07:02 6.2 C 6.55 g/m*3 6.2 C 0 km/h
1250 15-09-2008 08:12:02 6.2 C 6.55 g/m*3 6.2 C 0 km/h
Sensor: Nr:Datum:Temp:Abs-Feuchte:Windchill:Wind:
Aussen-T/F 1251 15-09-2008 08:17:02 6.2 C 6.55 g/m*3 6.2 C 0 km/h
1252 15-09-2008 08:22:02 6.3 C 6.59 g/m*3 6.3 C 0 km/h
1253 15-09-2008 08:27:02 6.3 C 6.59 g/m*3 6.3 C 0 km/h
1254 15-09-2008 08:32:02 6.4 C 6.63 g/m*3 6.4 C 0 km/h
1255 15-09-2008 08:37:02 6.5 C 6.67 g/m*3 6.5 C 0 km/h
1256 15-09-2008 08:42:02 6.6 C 6.72 g/m*3 6.6 C 0 km/h
1257 15-09-2008 08:47:02 6.8 C 6.81 g/m*3 6.8 C 0 km/h
1258 15-09-2008 08:52:03 6.9 C 6.85 g/m*3 6.9 C 0 km/h
1259 15-09-2008 08:57:03 7.1 C 6.86 g/m*3 7.1 C 0 km/h
1260 15-09-2008 09:02:01 7.3 C 6.95 g/m*3 7.3 C 0 km/h
1261 15-09-2008 09:07:01 7.3 C 6.95 g/m*3 7.3 C 0 km/h
1262 15-09-2008 09:12:01 7.4 C 6.92 g/m*3 7.4 C 0 km/h
1263 15-09-2008 09:17:02 7.6 C 6.93 g/m*3 7.6 C 0 km/h
1264 15-09-2008 09:22:02 7.6 C 6.93 g/m*3 7.6 C 0 km/h
1265 15-09-2008 09:27:02 7.6 C 6.93 g/m*3 7.6 C 0 km/h
1266 15-09-2008 09:32:01 7.7 C 6.89 g/m*3 7.7 C 0 km/h
1267 15-09-2008 09:37:01 7.8 C 6.94 g/m*3 7.8 C 0 km/h
1268 15-09-2008 09:42:01 8 C 6.94 g/m*3 8 C 0 km/h
1269 15-09-2008 09:47:01 8.2 C 7.03 g/m*3 8.2 C 0 km/h
1270 15-09-2008 09:52:01 8.5 C 7.09 g/m*3 8.5 C 0 km/h
1271 15-09-2008 09:57:01 8.7 C 7.09 g/m*3 8.7 C 0 km/h
1272 15-09-2008 10:02:02 9 C 7.05 g/m*3 9 C 0 km/h
1273 15-09-2008 10:07:02 9.2 C 7.05 g/m*3 9.2 C 0 km/h
1274 15-09-2008 10:12:02 9.4 C 7.05 g/m*3 9.4 C 0 km/h
1275 15-09-2008 10:17:01 9.7 C 7.01 g/m*3 9.7 C 0 km/h
Sensor: Nr:Datum:Temp:Abs-Feuchte:Windchill:Wind:
Aussen-T/F 1276 15-09-2008 10:22:01 10 C 6.95 g/m*3 10 C 0 km/h
1277 15-09-2008 10:27:01 10 C 6.86 g/m*3 10 C 0 km/h
1278 15-09-2008 10:32:02 10.2 C 6.85 g/m*3 10.2 C 0 km/h
1279 15-09-2008 10:37:02 10.4 C 6.75 g/m*3 10.4 C 0 km/h
1280 15-09-2008 10:42:02 10.7 C 6.88 g/m*3 10.7 C 0 km/h
1281 15-09-2008 10:47:02 10.8 C 6.92 g/m*3 10.8 C 0 km/h
1282 15-09-2008 10:52:03 11.3 C 7.04 g/m*3 11.3 C 0 km/h
1283 15-09-2008 10:57:03 11.8 C 7.05 g/m*3 11.8 C 0 km/h
1284 15-09-2008 11:02:02 12 C 6.93 g/m*3 12 C 0 km/h
1285 15-09-2008 11:07:02 12.1 C 6.65 g/m*3 12.1 C 0 km/h
1286 15-09-2008 11:12:02 12.1 C 6.54 g/m*3 12.1 C 0 km/h
1287 15-09-2008 11:17:02 12.1 C 6.54 g/m*3 12.1 C 0 km/h
1288 15-09-2008 11:22:02 12 C 6.39 g/m*3 12 C 0 km/h
1289 15-09-2008 11:27:02 11.8 C 6.53 g/m*3 11.8 C 0 km/h
1290 15-09-2008 11:32:02 11.8 C 6.53 g/m*3 11.8 C 0 km/h
1291 15-09-2008 11:37:02 11.9 C 6.57 g/m*3 11.9 C 0 km/h
1292 15-09-2008 11:42:02 12.2 C 6.47 g/m*3 12.2 C 0 km/h
1293 15-09-2008 11:47:02 12.5 C 6.38 g/m*3 12.5 C 0 km/h
1294 15-09-2008 11:52:02 12.6 C 6.2 g/m*3 12.6 C 0 km/h
1295 15-09-2008 11:57:02 12.8 C 6.16 g/m*3 12.8 C 0 km/h
1296 15-09-2008 12:02:02 13.1 C 6.05 g/m*3 13.1 C 0 km/h
1297 15-09-2008 12:07:02 13.2 C 6.09 g/m*3 13.2 C 0 km/h
1298 15-09-2008 12:12:02 13.3 C 5.89 g/m*3 13.3 C 0 km/h
1299 15-09-2008 12:17:02 13.4 C 5.93 g/m*3 13.4 C 0 km/h
1300 15-09-2008 12:22:02 13.4 C 5.81 g/m*3 13.4 C 0 km/h
Sensor: Nr:Datum:Temp:Abs-Feuchte:Windchill:Wind:
Aussen-T/F 1301 15-09-2008 12:27:02 13.4 C 5.81 g/m*3 13.4 C 0 km/h
1302 15-09-2008 12:32:02 13.4 C 5.93 g/m*3 13.4 C 0 km/h
1303 15-09-2008 12:37:02 13.8 C 6.08 g/m*3 13.8 C 0 km/h
1304 15-09-2008 12:42:02 14 C 6.03 g/m*3 14 C 0 km/h
1305 15-09-2008 12:47:02 14.2 C 5.74 g/m*3 14.2 C 0 km/h
1306 15-09-2008 12:52:03 14 C 5.67 g/m*3 14 C 0 km/h
1307 15-09-2008 12:57:03 14 C 5.67 g/m*3 14 C 0 km/h
1308 15-09-2008 13:02:01 14.2 C 5.74 g/m*3 14.2 C 0 km/h
1309 15-09-2008 13:07:01 14.1 C 5.83 g/m*3 14.1 C 0 km/h
1310 15-09-2008 13:12:01 14.2 C 5.86 g/m*3 14.2 C 0 km/h
1311 15-09-2008 13:17:02 14.5 C 5.85 g/m*3 14.5 C 0 km/h
1312 15-09-2008 13:22:02 14.8 C 5.83 g/m*3 14.8 C 0 km/h
1313 15-09-2008 13:27:02 14.7 C 5.79 g/m*3 14.7 C 0 km/h
1314 15-09-2008 13:32:01 14.4 C 5.81 g/m*3 14.4 C 0 km/h
1315 15-09-2008 13:37:01 14 C 6.03 g/m*3 14 C 0 km/h
1316 15-09-2008 13:42:01 13.2 C 6.54 g/m*3 13.2 C 0 km/h
1317 15-09-2008 13:47:01 12.8 C 6.72 g/m*3 12.8 C 0 km/h
1318 15-09-2008 13:52:01 12.2 C 6.8 g/m*3 12.2 C 0 km/h
1319 15-09-2008 13:57:01 12.1 C 7.08 g/m*3 12.1 C 0 km/h
1320 15-09-2008 14:02:02 12.2 C 7.23 g/m*3 12.2 C 0 km/h
1321 15-09-2008 14:07:02 12.8 C 7.28 g/m*3 12.8 C 0 km/h
1322 15-09-2008 14:12:02 13.5 C 6.9 g/m*3 13.5 C 0 km/h
1323 15-09-2008 14:17:02 13.9 C 6.95 g/m*3 13.9 C 0 km/h
1324 15-09-2008 14:22:02 14 C 6.51 g/m*3 14 C 0 km/h
1325 15-09-2008 14:27:02 14.1 C 6.43 g/m*3 14.1 C 0 km/h
Sensor: Nr:Datum:Temp:Abs-Feuchte:Windchill:Wind:
Aussen-T/F 1326 15-09-2008 14:32:02 13.8 C 6.43 g/m*3 13.8 C 0 km/h
1327 15-09-2008 14:37:02 13.7 C 6.51 g/m*3 13.7 C 0 km/h
1328 15-09-2008 14:42:02 13.2 C 6.66 g/m*3 13.2 C 0 km/h
1329 15-09-2008 14:47:02 12.2 C 7.01 g/m*3 12.2 C 0 km/h
1330 15-09-2008 14:52:02 12 C 7.35 g/m*3 12 C 0 km/h
1331 15-09-2008 14:57:02 11.7 C 7.95 g/m*3 11.7 C 0 km/h
1332 15-09-2008 15:02:01 11.8 C 8.31 g/m*3 11.8 C 0 km/h
1333 15-09-2008 15:07:01 11.9 C 8.47 g/m*3 11.9 C 0 km/h
1334 15-09-2008 15:12:01 12.2 C 8.63 g/m*3 12.2 C 0 km/h
1335 15-09-2008 15:17:02 12.2 C 8.74 g/m*3 12.2 C 0 km/h
1336 15-09-2008 15:22:02 12.3 C 8.9 g/m*3 12.3 C 0 km/h
1337 15-09-2008 15:27:02 12.8 C 9.18 g/m*3 12.8 C 0 km/h
1338 15-09-2008 15:32:01 13.4 C 9.3 g/m*3 13.4 C 0 km/h
1339 15-09-2008 15:37:01 14 C 9.17 g/m*3 14 C 0 km/h
1340 15-09-2008 15:42:01 14.2 C 9.28 g/m*3 14.2 C 0 km/h
1341 15-09-2008 15:47:01 14.2 C 9.04 g/m*3 14.2 C 0 km/h
1342 15-09-2008 15:52:01 14.4 C 9.27 g/m*3 14.4 C 0 km/h
1343 15-09-2008 15:57:01 14.4 C 9.15 g/m*3 14.4 C 0 km/h
1344 15-09-2008 16:02:02 14.5 C 9.08 g/m*3 14.5 C 0 km/h
1345 15-09-2008 16:07:02 14.6 C 8.88 g/m*3 14.6 C 0 km/h
1346 15-09-2008 16:12:02 14.5 C 8.71 g/m*3 14.5 C 0 km/h
1347 15-09-2008 16:17:01 14.4 C 8.53 g/m*3 14.4 C 0 km/h
1348 15-09-2008 16:22:01 14.5 C 8.83 g/m*3 14.5 C 0 km/h
1349 15-09-2008 16:27:01 14.5 C 8.95 g/m*3 14.5 C 0 km/h
1350 15-09-2008 16:32:02 14.5 C 9.2 g/m*3 14.5 C 0 km/h
Sensor: Nr:Datum:Temp:Abs-Feuchte:Windchill:Wind:
Aussen-T/F 1351 15-09-2008 16:37:02 14.3 C 9.09 g/m*3 14.3 C 0 km/h
1352 15-09-2008 16:42:02 14 C 8.93 g/m*3 14 C 0 km/h
1353 15-09-2008 16:47:02 13.8 C 8.82 g/m*3 13.8 C 0 km/h
1354 15-09-2008 16:52:03 13.3 C 8.43 g/m*3 13.3 C 0 km/h
1355 15-09-2008 16:57:03 13.3 C 8.55 g/m*3 13.3 C 0 km/h
1356 15-09-2008 17:02:02 13.2 C 8.38 g/m*3 13.2 C 0 km/h
1357 15-09-2008 17:07:02 13.1 C 8.44 g/m*3 13.1 C 0 km/h
1358 15-09-2008 17:12:02 13.1 C 8.22 g/m*3 13.1 C 0 km/h
1359 15-09-2008 17:17:03 13.1 C 8.1 g/m*3 13.1 C 0 km/h
1360 15-09-2008 17:22:03 12.9 C 7.89 g/m*3 12.9 C 0 km/h
1361 15-09-2008 17:27:03 12.6 C 7.74 g/m*3 12.6 C 0 km/h
1362 15-09-2008 17:32:02 12.4 C 7.87 g/m*3 12.4 C 0 km/h
1363 15-09-2008 17:37:02 12.4 C 7.87 g/m*3 12.4 C 0 km/h
1364 15-09-2008 17:42:02 12.4 C 7.87 g/m*3 12.4 C 0 km/h
1365 15-09-2008 17:47:02 12.2 C 7.77 g/m*3 12.2 C 0 km/h
1366 15-09-2008 17:52:03 12.1 C 7.83 g/m*3 12.1 C 0 km/h
1367 15-09-2008 17:57:03 12.1 C 7.83 g/m*3 12.1 C 0 km/h
1368 15-09-2008 18:02:01 12.1 C 7.83 g/m*3 12.1 C 0 km/h
1369 15-09-2008 18:07:01 12.1 C 7.83 g/m*3 12.1 C 0 km/h
1370 15-09-2008 18:12:01 12.1 C 7.83 g/m*3 12.1 C 0 km/h
1371 15-09-2008 18:17:02 12 C 7.67 g/m*3 12 C 0 km/h
1372 15-09-2008 18:22:02 12 C 7.57 g/m*3 12 C 0 km/h
1373 15-09-2008 18:27:02 11.9 C 7.73 g/m*3 11.9 C 0 km/h
1374 15-09-2008 18:32:01 11.9 C 7.73 g/m*3 11.9 C 0 km/h
1375 15-09-2008 18:37:01 11.8 C 7.58 g/m*3 11.8 C 0 km/h
Sensor: Nr:Datum:Temp:Abs-Feuchte:Windchill:Wind:
Aussen-T/F 1376 15-09-2008 18:42:01 11.7 C 7.53 g/m*3 11.7 C 0 km/h
1377 15-09-2008 18:47:01 11.7 C 7.43 g/m*3 11.7 C 0 km/h
1378 15-09-2008 18:52:01 11.6 C 7.38 g/m*3 11.6 C 0 km/h
1379 15-09-2008 18:57:01 11.6 C 7.38 g/m*3 11.6 C 0 km/h
1380 15-09-2008 19:02:02 11.5 C 7.44 g/m*3 11.5 C 0 km/h
1381 15-09-2008 19:07:02 11.4 C 7.39 g/m*3 11.4 C 0 km/h
1382 15-09-2008 19:12:02 11.3 C 7.45 g/m*3 11.3 C 0 km/h
1383 15-09-2008 19:17:01 11.2 C 7.4 g/m*3 11.2 C 0 km/h
1384 15-09-2008 19:22:01 11.2 C 7.4 g/m*3 11.2 C 0 km/h
1385 15-09-2008 19:27:01 11.1 C 7.25 g/m*3 11.1 C 0 km/h
1386 15-09-2008 19:32:02 11.1 C 7.35 g/m*3 11.1 C 0 km/h
1387 15-09-2008 19:37:02 11.1 C 7.35 g/m*3 11.1 C 0 km/h
1388 15-09-2008 19:42:02 11.2 C 7.3 g/m*3 11.2 C 0 km/h
1389 15-09-2008 19:47:02 11.2 C 7.4 g/m*3 11.2 C 0 km/h
1390 15-09-2008 19:52:02 11.2 C 7.4 g/m*3 11.2 C 0 km/h
1391 15-09-2008 19:57:02 11.1 C 7.45 g/m*3 11.1 C 0 km/h
1392 15-09-2008 20:02:02 11.1 C 7.45 g/m*3 11.1 C 0 km/h
1393 15-09-2008 20:07:02 11 C 7.51 g/m*3 11 C 0 km/h
1394 15-09-2008 20:12:02 11.1 C 7.45 g/m*3 11.1 C 0 km/h
1395 15-09-2008 20:17:02 11.1 C 7.45 g/m*3 11.1 C 0 km/h
1396 15-09-2008 20:22:02 11 C 7.51 g/m*3 11 C 0 km/h
1397 15-09-2008 20:27:02 11 C 7.51 g/m*3 11 C 0 km/h
1398 15-09-2008 20:32:02 11 C 7.51 g/m*3 11 C 0 km/h
1399 15-09-2008 20:37:02 10.9 C 7.56 g/m*3 10.9 C 0 km/h
1400 15-09-2008 20:42:02 10.9 C 7.56 g/m*3 10.9 C 0 km/h
Sensor: Nr:Datum:Temp:Abs-Feuchte:Windchill:Wind:
Aussen-T/F 1401 15-09-2008 20:47:02 10.9 C 7.66 g/m*3 10.9 C 0 km/h
1402 15-09-2008 20:52:02 10.8 C 7.61 g/m*3 10.8 C 0 km/h
1403 15-09-2008 20:57:02 10.9 C 7.66 g/m*3 10.9 C 0 km/h
1404 15-09-2008 21:02:02 10.9 C 7.56 g/m*3 10.9 C 0 km/h
1405 15-09-2008 21:07:02 10.9 C 7.56 g/m*3 10.9 C 0 km/h
1406 15-09-2008 21:12:02 10.8 C 7.51 g/m*3 10.8 C 0 km/h
1407 15-09-2008 21:17:02 10.8 C 7.51 g/m*3 10.8 C 0 km/h
1408 15-09-2008 21:22:02 10.8 C 7.51 g/m*3 10.8 C 0 km/h
1409 15-09-2008 21:27:02 10.8 C 7.41 g/m*3 10.8 C 0 km/h
1410 15-09-2008 21:32:02 10.8 C 7.41 g/m*3 10.8 C 0 km/h
1411 15-09-2008 21:37:02 10.9 C 7.46 g/m*3 10.9 C 0 km/h
1412 15-09-2008 21:42:02 10.8 C 7.41 g/m*3 10.8 C 0 km/h
1413 15-09-2008 21:47:02 10.8 C 7.51 g/m*3 10.8 C 0 km/h
1414 15-09-2008 21:52:02 10.9 C 7.56 g/m*3 10.9 C 0 km/h
1415 15-09-2008 21:57:03 10.9 C 7.56 g/m*3 10.9 C 0 km/h
1416 15-09-2008 22:02:01 10.9 C 7.56 g/m*3 10.9 C 0 km/h
1417 15-09-2008 22:07:01 10.8 C 7.51 g/m*3 10.8 C 0 km/h
1418 15-09-2008 22:12:01 10.8 C 7.51 g/m*3 10.8 C 0 km/h
1419 15-09-2008 22:17:02 10.8 C 7.51 g/m*3 10.8 C 0 km/h
1420 15-09-2008 22:22:02 10.8 C 7.51 g/m*3 10.8 C 0 km/h
1421 15-09-2008 22:27:02 10.7 C 7.37 g/m*3 10.7 C 0 km/h
1422 15-09-2008 22:33:02 10.8 C 7.41 g/m*3 10.8 C 0 km/h
1423 15-09-2008 22:38:02 10.8 C 7.41 g/m*3 10.8 C 0 km/h
1424 15-09-2008 22:43:02 10.8 C 7.41 g/m*3 10.8 C 0 km/h
1425 15-09-2008 22:48:02 10.8 C 7.41 g/m*3 10.8 C 0 km/h
Sensor: Nr:Datum:Temp:Abs-Feuchte:Windchill:Wind:
Aussen-T/F 1426 15-09-2008 22:53:02 10.8 C 7.41 g/m*3 10.8 C 0 km/h
1427 15-09-2008 22:58:02 10.7 C 7.46 g/m*3 10.7 C 0 km/h
1428 15-09-2008 23:03:02 10.7 C 7.46 g/m*3 10.7 C 0 km/h
1429 15-09-2008 23:08:02 10.6 C 7.52 g/m*3 10.6 C 0 km/h
1430 15-09-2008 23:13:02 10.5 C 7.47 g/m*3 10.5 C 0 km/h
1431 15-09-2008 23:18:02 10.5 C 7.47 g/m*3 10.5 C 0 km/h
1432 15-09-2008 23:23:02 10.5 C 7.47 g/m*3 10.5 C 0 km/h
1433 15-09-2008 23:28:02 10.5 C 7.57 g/m*3 10.5 C 0 km/h
1434 15-09-2008 23:33:02 10.5 C 7.57 g/m*3 10.5 C 0 km/h
1435 15-09-2008 23:38:02 10.5 C 7.57 g/m*3 10.5 C 0 km/h
1436 15-09-2008 23:43:02 10.5 C 7.57 g/m*3 10.5 C 0 km/h
1437 15-09-2008 23:48:02 10.5 C 7.57 g/m*3 10.5 C 0 km/h
1438 15-09-2008 23:53:02 10.5 C 7.57 g/m*3 10.5 C 0 km/h
1439 15-09-2008 23:58:02 10.4 C 7.61 g/m*3 10.4 C 0 km/h
1440 16-09-2008 00:03:03 10.4 C 7.52 g/m*3 10.4 C 0 km/h
1441 16-09-2008 00:08:03 10.4 C 7.52 g/m*3 10.4 C 0 km/h
1442 16-09-2008 00:13:03 10.4 C 7.61 g/m*3 10.4 C 0 km/h
1443 16-09-2008 00:18:03 10.3 C 7.57 g/m*3 10.3 C 0 km/h
1444 16-09-2008 00:23:03 10.3 C 7.57 g/m*3 10.3 C 0 km/h
1445 16-09-2008 00:28:03 10.2 C 7.52 g/m*3 10.2 C 0 km/h
1446 16-09-2008 00:33:03 10.2 C 7.52 g/m*3 10.2 C 0 km/h
1447 16-09-2008 00:38:03 10.1 C 7.47 g/m*3 10.1 C 0 km/h
1448 16-09-2008 00:43:03 10.1 C 7.47 g/m*3 10.1 C 0 km/h
1449 16-09-2008 00:48:03 10.1 C 7.47 g/m*3 10.1 C 0 km/h
1450 16-09-2008 00:53:03 10.1 C 7.47 g/m*3 10.1 C 0 km/h
Sensor: Nr:Datum:Temp:Abs-Feuchte:Windchill:Wind:
Aussen-T/F 1451 16-09-2008 00:58:03 10 C 7.52 g/m*3 10 C 0 km/h
1452 16-09-2008 01:03:03 10 C 7.52 g/m*3 10 C 0 km/h
1453 16-09-2008 01:08:03 10 C 7.52 g/m*3 10 C 0 km/h
1454 16-09-2008 01:13:03 10 C 7.52 g/m*3 10 C 0 km/h
1455 16-09-2008 01:18:03 10 C 7.52 g/m*3 10 C 0 km/h
1456 16-09-2008 01:23:03 10 C 7.52 g/m*3 10 C 0 km/h
1457 16-09-2008 01:28:03 10 C 7.61 g/m*3 10 C 0 km/h
1458 16-09-2008 01:33:03 10 C 7.61 g/m*3 10 C 0 km/h
1459 16-09-2008 01:38:03 9.9 C 7.66 g/m*3 9.9 C 0 km/h
1460 16-09-2008 01:43:03 9.9 C 7.66 g/m*3 9.9 C 0 km/h
1461 16-09-2008 01:48:04 9.9 C 7.75 g/m*3 9.9 C 0 km/h
1462 16-09-2008 01:53:04 9.8 C 7.61 g/m*3 9.8 C 0 km/h
1463 16-09-2008 01:58:04 9.9 C 7.66 g/m*3 9.9 C 0 km/h
1464 16-09-2008 02:03:04 9.7 C 7.56 g/m*3 9.7 C 0 km/h
1465 16-09-2008 02:08:04 9.6 C 7.51 g/m*3 9.6 C 0 km/h
1466 16-09-2008 02:13:04 9.5 C 7.46 g/m*3 9.5 C 0 km/h
1467 16-09-2008 02:18:04 9.5 C 7.55 g/m*3 9.5 C 0 km/h
1468 16-09-2008 02:23:04 9.4 C 7.51 g/m*3 9.4 C 0 km/h
1469 16-09-2008 02:28:04 9.3 C 7.46 g/m*3 9.3 C 0 km/h
1470 16-09-2008 02:33:04 9.3 C 7.46 g/m*3 9.3 C 0 km/h
1471 16-09-2008 02:38:04 9.3 C 7.46 g/m*3 9.3 C 0 km/h
1472 16-09-2008 02:43:04 9.3 C 7.46 g/m*3 9.3 C 0 km/h
1473 16-09-2008 02:48:04 9.4 C 7.51 g/m*3 9.4 C 0 km/h
1474 16-09-2008 02:53:04 9.4 C 7.51 g/m*3 9.4 C 0 km/h
1475 16-09-2008 02:58:04 9.4 C 7.51 g/m*3 9.4 C 0 km/h
Sensor: Nr:Datum:Temp:Abs-Feuchte:Windchill:Wind:
Aussen-T/F 1476 16-09-2008 03:03:04 9.5 C 7.55 g/m*3 9.5 C 0 km/h
1477 16-09-2008 03:08:04 9.5 C 7.55 g/m*3 9.5 C 0 km/h
1478 16-09-2008 03:13:04 9.5 C 7.55 g/m*3 9.5 C 0 km/h
1479 16-09-2008 03:18:04 9.3 C 7.46 g/m*3 9.3 C 0 km/h
1480 16-09-2008 03:23:04 9.2 C 7.41 g/m*3 9.2 C 0 km/h
1481 16-09-2008 03:28:04 9 C 7.32 g/m*3 9 C 0 km/h
1482 16-09-2008 03:33:05 8.9 C 7.36 g/m*3 8.9 C 0 km/h
1483 16-09-2008 03:38:05 8.6 C 7.22 g/m*3 8.6 C 0 km/h
1484 16-09-2008 03:43:05 8.4 C 7.13 g/m*3 8.4 C 0 km/h
1485 16-09-2008 03:48:05 8.3 C 7.08 g/m*3 8.3 C 0 km/h
1486 16-09-2008 03:53:05 8.2 C 7.03 g/m*3 8.2 C 0 km/h
1487 16-09-2008 03:58:05 8.1 C 6.99 g/m*3 8.1 C 0 km/h
1488 16-09-2008 04:03:05 8 C 6.94 g/m*3 8 C 0 km/h
1489 16-09-2008 04:08:05 7.9 C 7.06 g/m*3 7.9 C 0 km/h
1490 16-09-2008 04:13:05 7.8 C 7.02 g/m*3 7.8 C 0 km/h
1491 16-09-2008 04:18:05 7.7 C 6.97 g/m*3 7.7 C 0 km/h
1492 16-09-2008 04:23:05 7.7 C 7.05 g/m*3 7.7 C 0 km/h
1493 16-09-2008 04:28:05 7.6 C 7.01 g/m*3 7.6 C 0 km/h
1494 16-09-2008 04:33:05 7.5 C 6.96 g/m*3 7.5 C 0 km/h
1495 16-09-2008 04:38:05 7.5 C 6.96 g/m*3 7.5 C 0 km/h
1496 16-09-2008 04:43:05 7.3 C 6.87 g/m*3 7.3 C 0 km/h
1497 16-09-2008 04:48:05 7.4 C 6.92 g/m*3 7.4 C 0 km/h
1498 16-09-2008 04:53:05 7.3 C 6.87 g/m*3 7.3 C 0 km/h
1499 16-09-2008 04:58:05 7.2 C 6.83 g/m*3 7.2 C 0 km/h
1500 16-09-2008 05:03:05 7.2 C 6.91 g/m*3 7.2 C 0 km/h
Sensor: Nr:Datum:Temp:Abs-Feuchte:Windchill:Wind:
Aussen-T/F 1501 16-09-2008 05:08:05 7.1 C 6.86 g/m*3 7.1 C 0 km/h
1502 16-09-2008 05:13:06 7.1 C 6.86 g/m*3 7.1 C 0 km/h
1503 16-09-2008 05:18:06 7 C 6.82 g/m*3 7 C 0 km/h
1504 16-09-2008 05:23:06 6.9 C 6.85 g/m*3 6.9 C 0 km/h
1505 16-09-2008 05:28:06 6.9 C 6.85 g/m*3 6.9 C 0 km/h
1506 16-09-2008 05:33:06 6.9 C 6.85 g/m*3 6.9 C 0 km/h
1507 16-09-2008 05:38:06 6.9 C 6.85 g/m*3 6.9 C 0 km/h
1508 16-09-2008 05:43:06 6.9 C 6.85 g/m*3 6.9 C 0 km/h
1509 16-09-2008 05:48:06 6.8 C 6.81 g/m*3 6.8 C 0 km/h
1510 16-09-2008 05:53:06 6.8 C 6.88 g/m*3 6.8 C 0 km/h
1511 16-09-2008 05:58:06 6.8 C 6.88 g/m*3 6.8 C 0 km/h
1512 16-09-2008 06:03:06 6.7 C 6.84 g/m*3 6.7 C 0 km/h
1513 16-09-2008 06:08:06 6.5 C 6.75 g/m*3 6.5 C 0 km/h
1514 16-09-2008 06:13:06 6.4 C 6.71 g/m*3 6.4 C 0 km/h
1515 16-09-2008 06:18:06 6.4 C 6.71 g/m*3 6.4 C 0 km/h
1516 16-09-2008 06:23:06 6.5 C 6.75 g/m*3 6.5 C 0 km/h
1517 16-09-2008 06:28:06 6.7 C 6.91 g/m*3 6.7 C 0 km/h
1518 16-09-2008 06:33:06 6.7 C 6.91 g/m*3 6.7 C 0 km/h
1519 16-09-2008 06:38:06 6.7 C 6.91 g/m*3 6.7 C 0 km/h
1520 16-09-2008 06:43:06 6.7 C 6.91 g/m*3 6.7 C 0 km/h
1521 16-09-2008 06:48:06 6.7 C 6.99 g/m*3 6.7 C 0 km/h
1522 16-09-2008 06:53:06 6.8 C 7.04 g/m*3 6.8 C 0 km/h
1523 16-09-2008 06:58:07 6.9 C 7.08 g/m*3 6.9 C 0 km/h
1524 16-09-2008 07:03:03 6.9 C 7.08 g/m*3 6.9 C 0 km/h
1525 16-09-2008 07:08:03 7 C 7.05 g/m*3 7 C 0 km/h
Sensor: Nr:Datum:Temp:Abs-Feuchte:Windchill:Wind:
Aussen-T/F 1526 16-09-2008 07:13:03 7 C 7.13 g/m*3 7 C 0 km/h
1527 16-09-2008 07:18:02 7 C 7.13 g/m*3 7 C 0 km/h
1528 16-09-2008 07:23:02 7.1 C 7.18 g/m*3 7.1 C 0 km/h
1529 16-09-2008 07:28:02 7.2 C 7.22 g/m*3 7.2 C 0 km/h
1530 16-09-2008 07:33:02 7.2 C 7.22 g/m*3 7.2 C 0 km/h
1531 16-09-2008 07:38:02 7.3 C 7.27 g/m*3 7.3 C 0 km/h
1532 16-09-2008 07:43:03 7.3 C 7.27 g/m*3 7.3 C 0 km/h
1533 16-09-2008 07:48:01 7.4 C 7.32 g/m*3 7.4 C 0 km/h
1534 16-09-2008 07:53:01 7.6 C 7.41 g/m*3 7.6 C 0 km/h
1535 16-09-2008 07:58:01 7.5 C 7.44 g/m*3 7.5 C 0 km/h
1536 16-09-2008 08:03:02 7.6 C 7.41 g/m*3 7.6 C 0 km/h
1537 16-09-2008 08:08:02 7.7 C 7.46 g/m*3 7.7 C 0 km/h
1538 16-09-2008 08:13:02 7.8 C 7.59 g/m*3 7.8 C 0 km/h
1539 16-09-2008 08:18:01 7.9 C 7.56 g/m*3 7.9 C 0 km/h
1540 16-09-2008 08:23:01 8 C 7.52 g/m*3 8 C 0 km/h
1541 16-09-2008 08:28:01 8.1 C 7.57 g/m*3 8.1 C 0 km/h
1542 16-09-2008 08:33:01 8.2 C 7.62 g/m*3 8.2 C 0 km/h
1543 16-09-2008 08:38:01 8.3 C 7.67 g/m*3 8.3 C 0 km/h
1544 16-09-2008 08:43:01 8.4 C 7.72 g/m*3 8.4 C 0 km/h
1545 16-09-2008 08:48:03 8.5 C 7.68 g/m*3 8.5 C 0 km/h
1546 16-09-2008 08:53:03 8.6 C 7.73 g/m*3 8.6 C 0 km/h
1547 16-09-2008 08:58:03 8.7 C 7.78 g/m*3 8.7 C 0 km/h
1548 16-09-2008 09:03:02 8.9 C 7.88 g/m*3 8.9 C 0 km/h
1549 16-09-2008 09:08:02 9.1 C 7.81 g/m*3 9.1 C 0 km/h
1550 16-09-2008 09:13:02 9.1 C 7.81 g/m*3 9.1 C 0 km/h
Sensor: Nr:Datum:Temp:Abs-Feuchte:Windchill:Wind:
Aussen-T/F 1551 16-09-2008 09:18:02 9.2 C 7.77 g/m*3 9.2 C 0 km/h
1552 16-09-2008 09:23:02 9.3 C 7.73 g/m*3 9.3 C 0 km/h
1553 16-09-2008 09:28:02 9.4 C 7.69 g/m*3 9.4 C 0 km/h
1554 16-09-2008 09:33:02 9.6 C 7.79 g/m*3 9.6 C 0 km/h
1555 16-09-2008 09:38:02 10.1 C 7.85 g/m*3 10.1 C 0 km/h
1556 16-09-2008 09:43:03 9.9 C 7.75 g/m*3 9.9 C 0 km/h
1557 16-09-2008 09:48:01 10.1 C 7.66 g/m*3 10.1 C 0 km/h
1558 16-09-2008 09:53:01 10.2 C 7.71 g/m*3 10.2 C 0 km/h
1559 16-09-2008 09:58:01 10.3 C 7.76 g/m*3 10.3 C 0 km/h
1560 16-09-2008 10:03:02 10.2 C 7.52 g/m*3 10.2 C 0 km/h
1561 16-09-2008 10:08:02 10.3 C 7.47 g/m*3 10.3 C 0 km/h
1562 16-09-2008 10:13:02 10.5 C 7.57 g/m*3 10.5 C 0 km/h
1563 16-09-2008 10:18:02 10.8 C 7.71 g/m*3 10.8 C 0 km/h
1564 16-09-2008 10:23:02 10.9 C 7.76 g/m*3 10.9 C 0 km/h
1565 16-09-2008 10:28:02 11.1 C 7.76 g/m*3 11.1 C 0 km/h
1566 16-09-2008 10:33:01 11.3 C 7.65 g/m*3 11.3 C 0 km/h
1567 16-09-2008 10:38:01 11.4 C 7.6 g/m*3 11.4 C 0 km/h
1568 16-09-2008 10:43:01 11.4 C 7.39 g/m*3 11.4 C 0 km/h
1569 16-09-2008 10:48:02 11.5 C 7.33 g/m*3 11.5 C 0 km/h
1570 16-09-2008 10:53:02 11.6 C 7.38 g/m*3 11.6 C 0 km/h
1571 16-09-2008 10:58:02 11.9 C 7.52 g/m*3 11.9 C 0 km/h
1572 16-09-2008 11:03:01 12.1 C 7.51 g/m*3 12.1 C 0 km/h
1573 16-09-2008 11:08:01 12.3 C 7.49 g/m*3 12.3 C 0 km/h
1574 16-09-2008 11:13:01 12.5 C 7.59 g/m*3 12.5 C 0 km/h
1575 16-09-2008 11:18:02 12.5 C 7.37 g/m*3 12.5 C 0 km/h
Sensor: Nr:Datum:Temp:Abs-Feuchte:Windchill:Wind:
Aussen-T/F 1576 16-09-2008 11:23:02 12.7 C 7.46 g/m*3 12.7 C 0 km/h
1577 16-09-2008 11:28:02 12.7 C 7.35 g/m*3 12.7 C 0 km/h
1578 16-09-2008 11:33:01 13 C 7.37 g/m*3 13 C 0 km/h
1579 16-09-2008 11:38:01 13.3 C 7.39 g/m*3 13.3 C 0 km/h
1580 16-09-2008 11:43:01 13.5 C 7.49 g/m*3 13.5 C 0 km/h
1581 16-09-2008 11:48:01 13.7 C 7.22 g/m*3 13.7 C 0 km/h
1582 16-09-2008 11:53:01 13.8 C 7.03 g/m*3 13.8 C 0 km/h
1583 16-09-2008 11:58:01 13.8 C 6.91 g/m*3 13.8 C 0 km/h
1584 16-09-2008 12:03:02 14 C 6.88 g/m*3 14 C 0 km/h
1585 16-09-2008 12:08:02 14.3 C 7 g/m*3 14.3 C 0 km/h
1586 16-09-2008 12:13:02 14.4 C 7.05 g/m*3 14.4 C 0 km/h
1587 16-09-2008 12:18:01 14 C 6.63 g/m*3 14 C 0 km/h
1588 16-09-2008 12:23:01 14.4 C 6.55 g/m*3 14.4 C 0 km/h
1589 16-09-2008 12:28:01 14.6 C 6.63 g/m*3 14.6 C 0 km/h
1590 16-09-2008 12:33:01 14.8 C 6.71 g/m*3 14.8 C 0 km/h
1591 16-09-2008 12:38:01 15 C 6.67 g/m*3 15 C 0 km/h
1592 16-09-2008 12:43:01 14.7 C 6.67 g/m*3 14.7 C 0 km/h
1593 16-09-2008 12:48:02 14.9 C 6.88 g/m*3 14.9 C 0 km/h
1594 16-09-2008 12:53:02 14.8 C 6.59 g/m*3 14.8 C 0 km/h
1595 16-09-2008 12:58:02 14.3 C 6.51 g/m*3 14.3 C 0 km/h
1596 16-09-2008 13:03:01 14.2 C 6.59 g/m*3 14.2 C 0 km/h
1597 16-09-2008 13:08:01 14 C 6.75 g/m*3 14 C 0 km/h
1598 16-09-2008 13:13:01 13.7 C 6.75 g/m*3 13.7 C 0 km/h
1599 16-09-2008 13:18:01 13.5 C 6.9 g/m*3 13.5 C 0 km/h
1600 16-09-2008 13:23:01 13.4 C 6.97 g/m*3 13.4 C 0 km/h
Sensor: Nr:Datum:Temp:Abs-Feuchte:Windchill:Wind:
Aussen-T/F 1601 16-09-2008 13:28:01 13.5 C 7.13 g/m*3 13.5 C 0 km/h
1602 16-09-2008 13:33:01 13.7 C 7.22 g/m*3 13.7 C 0 km/h
1603 16-09-2008 13:38:01 13.8 C 7.27 g/m*3 13.8 C 0 km/h
1604 16-09-2008 13:43:02 14.2 C 6.96 g/m*3 14.2 C 0 km/h
1605 16-09-2008 13:48:02 14.7 C 7.05 g/m*3 14.7 C 0 km/h
1606 16-09-2008 13:53:02 14.9 C 7.01 g/m*3 14.9 C 0 km/h
1607 16-09-2008 13:58:02 15.4 C 6.7 g/m*3 15.4 C 0 km/h
1608 16-09-2008 14:03:02 15.7 C 6.69 g/m*3 15.7 C 0 km/h
1609 16-09-2008 14:08:02 15.7 C 6.69 g/m*3 15.7 C 0 km/h
1610 16-09-2008 14:13:02 15.5 C 6.48 g/m*3 15.5 C 0 km/h
1611 16-09-2008 14:18:02 15.2 C 6.49 g/m*3 15.2 C 0 km/h
1612 16-09-2008 14:23:02 15.4 C 6.57 g/m*3 15.4 C 0 km/h
1613 16-09-2008 14:28:03 15.4 C 6.57 g/m*3 15.4 C 0 km/h
1614 16-09-2008 14:33:01 16 C 6.68 g/m*3 16 C 0 km/h
1615 16-09-2008 14:38:01 16 C 6.68 g/m*3 16 C 0 km/h
1616 16-09-2008 14:43:01 15.8 C 6.73 g/m*3 15.8 C 0 km/h
1617 16-09-2008 14:48:02 15.6 C 6.78 g/m*3 15.6 C 0 km/h
1618 16-09-2008 14:53:02 15.2 C 6.75 g/m*3 15.2 C 0 km/h
1619 16-09-2008 14:58:02 15 C 7.05 g/m*3 15 C 0 km/h
1620 16-09-2008 15:03:01 14.6 C 7.13 g/m*3 14.6 C 0 km/h
1621 16-09-2008 15:08:01 14.3 C 7.13 g/m*3 14.3 C 0 km/h
1622 16-09-2008 15:13:01 14 C 7.24 g/m*3 14 C 0 km/h
1623 16-09-2008 15:18:01 13.8 C 7.39 g/m*3 13.8 C 0 km/h
1624 16-09-2008 15:23:01 13.7 C 7.46 g/m*3 13.7 C 0 km/h
1625 16-09-2008 15:28:01 14 C 7.48 g/m*3 14 C 0 km/h
Sensor: Nr:Datum:Temp:Abs-Feuchte:Windchill:Wind:
Aussen-T/F 1626 16-09-2008 15:33:02 14.2 C 7.57 g/m*3 14.2 C 0 km/h
1627 16-09-2008 15:38:03 14.6 C 7.63 g/m*3 14.6 C 0 km/h
1628 16-09-2008 15:43:03 15.1 C 7.48 g/m*3 15.1 C 0 km/h
1629 16-09-2008 15:48:02 15.5 C 7.4 g/m*3 15.5 C 0 km/h
1630 16-09-2008 15:53:02 16.3 C 6.94 g/m*3 16.3 C 0 km/h
1631 16-09-2008 15:58:02 17 C 6.66 g/m*3 17 C 0 km/h
1632 16-09-2008 16:03:01 17 C 6.37 g/m*3 17 C 0 km/h
1633 16-09-2008 16:08:01 16.7 C 6.4 g/m*3 16.7 C 0 km/h
1634 16-09-2008 16:13:01 16.4 C 6.42 g/m*3 16.4 C 0 km/h
1635 16-09-2008 16:18:02 16.1 C 6.31 g/m*3 16.1 C 0 km/h
1636 16-09-2008 16:23:02 16 C 6.54 g/m*3 16 C 0 km/h
1637 16-09-2008 16:28:03 15.9 C 7.04 g/m*3 15.9 C 0 km/h
1638 16-09-2008 16:33:01 16 C 6.95 g/m*3 16 C 0 km/h
1639 16-09-2008 16:38:01 16 C 6.81 g/m*3 16 C 0 km/h
1640 16-09-2008 16:43:01 15.9 C 6.09 g/m*3 15.9 C 0 km/h
1641 16-09-2008 16:48:02 15.8 C 5.79 g/m*3 15.8 C 0 km/h
1642 16-09-2008 16:53:02 15.6 C 5.72 g/m*3 15.6 C 0 km/h
1643 16-09-2008 16:58:02 15.4 C 5.65 g/m*3 15.4 C 0 km/h
1644 16-09-2008 17:03:02 15.2 C 5.84 g/m*3 15.2 C 0 km/h
1645 16-09-2008 17:08:02 15.1 C 5.81 g/m*3 15.1 C 0 km/h
1646 16-09-2008 17:13:02 15.2 C 5.97 g/m*3 15.2 C 0 km/h
1647 16-09-2008 17:18:01 15.2 C 5.97 g/m*3 15.2 C 0 km/h
1648 16-09-2008 17:23:01 15.2 C 5.84 g/m*3 15.2 C 0 km/h
1649 16-09-2008 17:28:01 15.2 C 5.97 g/m*3 15.2 C 0 km/h
1650 16-09-2008 17:33:02 15.1 C 6.32 g/m*3 15.1 C 0 km/h
Sensor: Nr:Datum:Temp:Abs-Feuchte:Windchill:Wind:
Aussen-T/F 1651 16-09-2008 17:38:03 14.8 C 6.59 g/m*3 14.8 C 0 km/h
1652 16-09-2008 17:43:03 14.7 C 6.55 g/m*3 14.7 C 0 km/h
1653 16-09-2008 17:48:02 14.4 C 6.92 g/m*3 14.4 C 0 km/h
1654 16-09-2008 17:53:02 14.1 C 7.16 g/m*3 14.1 C 0 km/h
1655 16-09-2008 17:58:02 14 C 7.12 g/m*3 14 C 0 km/h
1656 16-09-2008 18:03:02 13.8 C 7.39 g/m*3 13.8 C 0 km/h
1657 16-09-2008 18:08:02 13.6 C 7.3 g/m*3 13.6 C 0 km/h
1658 16-09-2008 18:13:02 13.6 C 7.41 g/m*3 13.6 C 0 km/h
1659 16-09-2008 18:18:02 13.5 C 7.37 g/m*3 13.5 C 0 km/h
1660 16-09-2008 18:23:02 13.5 C 7.25 g/m*3 13.5 C 0 km/h
1661 16-09-2008 18:28:03 13.5 C 6.9 g/m*3 13.5 C 0 km/h
1662 16-09-2008 18:33:01 13.6 C 6.59 g/m*3 13.6 C 0 km/h
1663 16-09-2008 18:38:01 13.5 C 6.43 g/m*3 13.5 C 0 km/h
1664 16-09-2008 18:43:01 13.5 C 6.55 g/m*3 13.5 C 0 km/h
1665 16-09-2008 18:48:02 13.4 C 6.51 g/m*3 13.4 C 0 km/h
1666 16-09-2008 18:53:02 13.4 C 6.74 g/m*3 13.4 C 0 km/h
1667 16-09-2008 18:58:02 13.3 C 6.93 g/m*3 13.3 C 0 km/h
1668 16-09-2008 19:03:02 13.2 C 6.77 g/m*3 13.2 C 0 km/h
1669 16-09-2008 19:08:02 13.1 C 6.85 g/m*3 13.1 C 0 km/h
1670 16-09-2008 19:13:02 13 C 6.92 g/m*3 13 C 0 km/h
1671 16-09-2008 19:18:01 12.8 C 6.83 g/m*3 12.8 C 0 km/h
1672 16-09-2008 19:23:01 12.8 C 6.83 g/m*3 12.8 C 0 km/h
1673 16-09-2008 19:28:01 12.7 C 6.68 g/m*3 12.7 C 0 km/h
1674 16-09-2008 19:33:02 12.7 C 6.46 g/m*3 12.7 C 0 km/h
1675 16-09-2008 19:38:03 12.7 C 6.35 g/m*3 12.7 C 0 km/h
Sensor: Nr:Datum:Temp:Abs-Feuchte:Windchill:Wind:
Aussen-T/F 1676 16-09-2008 19:43:03 12.6 C 6.31 g/m*3 12.6 C 0 km/h
1677 16-09-2008 19:48:02 12.6 C 6.31 g/m*3 12.6 C 0 km/h
1678 16-09-2008 19:53:02 12.5 C 6.05 g/m*3 12.5 C 0 km/h
1679 16-09-2008 19:58:02 12.6 C 5.97 g/m*3 12.6 C 0 km/h
1680 16-09-2008 20:03:03 12.5 C 6.05 g/m*3 12.5 C 0 km/h
1681 16-09-2008 20:08:03 12.4 C 6.12 g/m*3 12.4 C 0 km/h
1682 16-09-2008 20:13:03 12.4 C 6.23 g/m*3 12.4 C 0 km/h
1683 16-09-2008 20:18:02 12.3 C 6.41 g/m*3 12.3 C 0 km/h
1684 16-09-2008 20:23:02 12.2 C 6.15 g/m*3 12.2 C 0 km/h
1685 16-09-2008 20:28:03 12.3 C 6.19 g/m*3 12.3 C 0 km/h
1686 16-09-2008 20:33:02 12.1 C 6.01 g/m*3 12.1 C 0 km/h
1687 16-09-2008 20:38:02 12.1 C 6.01 g/m*3 12.1 C 0 km/h
1688 16-09-2008 20:43:02 12.1 C 5.9 g/m*3 12.1 C 0 km/h
1689 16-09-2008 20:48:02 12.1 C 5.79 g/m*3 12.1 C 0 km/h
1690 16-09-2008 20:53:02 12.1 C 5.79 g/m*3 12.1 C 0 km/h
1691 16-09-2008 20:58:02 12.1 C 5.79 g/m*3 12.1 C 0 km/h
1692 16-09-2008 21:03:02 12.1 C 5.9 g/m*3 12.1 C 0 km/h
1693 16-09-2008 21:08:02 12.1 C 5.9 g/m*3 12.1 C 0 km/h
1694 16-09-2008 21:13:02 12 C 5.86 g/m*3 12 C 0 km/h
1695 16-09-2008 21:18:01 12.1 C 5.68 g/m*3 12.1 C 0 km/h
1696 16-09-2008 21:23:01 12.1 C 5.79 g/m*3 12.1 C 0 km/h
1697 16-09-2008 21:28:01 12 C 5.97 g/m*3 12 C 0 km/h
1698 16-09-2008 21:33:02 12 C 6.07 g/m*3 12 C 0 km/h
1699 16-09-2008 21:38:03 11.9 C 6.46 g/m*3 11.9 C 0 km/h
1700 16-09-2008 21:43:03 11.9 C 6.46 g/m*3 11.9 C 0 km/h
Sensor: Nr:Datum:Temp:Abs-Feuchte:Windchill:Wind:
Aussen-T/F 1701 16-09-2008 21:48:01 11.8 C 6.42 g/m*3 11.8 C 0 km/h
1702 16-09-2008 21:53:01 11.7 C 6.38 g/m*3 11.7 C 0 km/h
1703 16-09-2008 21:58:01 11.7 C 6.38 g/m*3 11.7 C 0 km/h
1704 16-09-2008 22:04:02 11.7 C 6.38 g/m*3 11.7 C 0 km/h
1705 16-09-2008 22:09:02 11.7 C 6.38 g/m*3 11.7 C 0 km/h
1706 16-09-2008 22:14:02 11.7 C 6.48 g/m*3 11.7 C 0 km/h
1707 16-09-2008 22:19:02 11.6 C 6.44 g/m*3 11.6 C 0 km/h
1708 16-09-2008 22:24:02 11.5 C 6.4 g/m*3 11.5 C 0 km/h
1709 16-09-2008 22:29:02 11.5 C 6.3 g/m*3 11.5 C 0 km/h
1710 16-09-2008 22:34:02 11.5 C 6.3 g/m*3 11.5 C 0 km/h
1711 16-09-2008 22:39:02 11.4 C 6.26 g/m*3 11.4 C 0 km/h
1712 16-09-2008 22:44:02 11.4 C 6.26 g/m*3 11.4 C 0 km/h
1713 16-09-2008 22:49:02 11.4 C 6.26 g/m*3 11.4 C 0 km/h
1714 16-09-2008 22:54:02 11.4 C 6.36 g/m*3 11.4 C 0 km/h
1715 16-09-2008 22:59:02 11.3 C 6.32 g/m*3 11.3 C 0 km/h
1716 16-09-2008 23:04:02 11.3 C 6.32 g/m*3 11.3 C 0 km/h
1717 16-09-2008 23:09:03 11.3 C 6.32 g/m*3 11.3 C 0 km/h
1718 16-09-2008 23:14:03 11.3 C 6.32 g/m*3 11.3 C 0 km/h
1719 16-09-2008 23:19:03 11.3 C 6.32 g/m*3 11.3 C 0 km/h
1720 16-09-2008 23:24:03 11.3 C 6.43 g/m*3 11.3 C 0 km/h
1721 16-09-2008 23:29:03 11.2 C 6.49 g/m*3 11.2 C 0 km/h
1722 16-09-2008 23:34:03 11.2 C 6.39 g/m*3 11.2 C 0 km/h
1723 16-09-2008 23:39:03 11.2 C 6.49 g/m*3 11.2 C 0 km/h
1724 16-09-2008 23:44:03 11.2 C 6.49 g/m*3 11.2 C 0 km/h
1725 16-09-2008 23:49:03 11.2 C 6.49 g/m*3 11.2 C 0 km/h
Sensor: Nr:Datum:Temp:Abs-Feuchte:Windchill:Wind:
Aussen-T/F 1726 16-09-2008 23:54:03 11.2 C 6.28 g/m*3 11.2 C 0 km/h
1727 16-09-2008 23:59:03 11.2 C 6.28 g/m*3 11.2 C 0 km/h
1728 17-09-2008 00:04:03 11.2 C 6.49 g/m*3 11.2 C 0 km/h
1729 17-09-2008 00:09:03 11.1 C 6.45 g/m*3 11.1 C 0 km/h
1730 17-09-2008 00:14:03 11.1 C 6.55 g/m*3 11.1 C 0 km/h
1731 17-09-2008 00:19:03 11 C 6.51 g/m*3 11 C 0 km/h
1732 17-09-2008 00:24:03 11 C 6.51 g/m*3 11 C 0 km/h
1733 17-09-2008 00:29:03 10.9 C 6.66 g/m*3 10.9 C 0 km/h
1734 17-09-2008 00:34:03 10.9 C 6.66 g/m*3 10.9 C 0 km/h
1735 17-09-2008 00:39:03 10.9 C 6.66 g/m*3 10.9 C 0 km/h
1736 17-09-2008 00:44:03 10.9 C 6.66 g/m*3 10.9 C 0 km/h
1737 17-09-2008 00:49:03 10.9 C 6.66 g/m*3 10.9 C 0 km/h
1738 17-09-2008 00:54:04 10.8 C 6.62 g/m*3 10.8 C 0 km/h
1739 17-09-2008 00:59:04 10.8 C 6.62 g/m*3 10.8 C 0 km/h
1740 17-09-2008 01:04:04 10.8 C 6.62 g/m*3 10.8 C 0 km/h
1741 17-09-2008 01:09:04 10.7 C 6.58 g/m*3 10.7 C 0 km/h
1742 17-09-2008 01:14:04 10.6 C 6.54 g/m*3 10.6 C 0 km/h
1743 17-09-2008 01:19:04 10.5 C 6.5 g/m*3 10.5 C 0 km/h
1744 17-09-2008 01:24:04 10.5 C 6.5 g/m*3 10.5 C 0 km/h
1745 17-09-2008 01:29:04 10.5 C 6.4 g/m*3 10.5 C 0 km/h
1746 17-09-2008 01:34:04 10.4 C 6.07 g/m*3 10.4 C 0 km/h
1747 17-09-2008 01:39:04 10.5 C 5.92 g/m*3 10.5 C 0 km/h
1748 17-09-2008 01:44:04 10.5 C 5.92 g/m*3 10.5 C 0 km/h
1749 17-09-2008 01:49:04 10.5 C 6.01 g/m*3 10.5 C 0 km/h
1750 17-09-2008 01:54:04 10.5 C 6.01 g/m*3 10.5 C 0 km/h
Sensor: Nr:Datum:Temp:Abs-Feuchte:Windchill:Wind:
Aussen-T/F 1751 17-09-2008 01:59:04 10.4 C 6.07 g/m*3 10.4 C 0 km/h
1752 17-09-2008 02:04:04 10.3 C 6.03 g/m*3 10.3 C 0 km/h
1753 17-09-2008 02:09:04 10.3 C 6.03 g/m*3 10.3 C 0 km/h
1754 17-09-2008 02:14:04 10.3 C 6.13 g/m*3 10.3 C 0 km/h
1755 17-09-2008 02:19:04 10.2 C 6.09 g/m*3 10.2 C 0 km/h
1756 17-09-2008 02:24:04 10.1 C 6.05 g/m*3 10.1 C 0 km/h
1757 17-09-2008 02:29:04 10.1 C 6.05 g/m*3 10.1 C 0 km/h
1758 17-09-2008 02:34:05 10 C 6.01 g/m*3 10 C 0 km/h
1759 17-09-2008 02:39:05 10 C 6.01 g/m*3 10 C 0 km/h
1760 17-09-2008 02:44:05 9.9 C 6.16 g/m*3 9.9 C 0 km/h
1761 17-09-2008 02:49:05 9.7 C 6.18 g/m*3 9.7 C 0 km/h
1762 17-09-2008 02:54:05 9.5 C 6.01 g/m*3 9.5 C 0 km/h
1763 17-09-2008 02:59:05 9.3 C 5.93 g/m*3 9.3 C 0 km/h
1764 17-09-2008 03:04:05 9 C 5.82 g/m*3 9 C 0 km/h
1765 17-09-2008 03:09:05 8.8 C 5.83 g/m*3 8.8 C 0 km/h
1766 17-09-2008 03:14:05 8.6 C 5.84 g/m*3 8.6 C 0 km/h
1767 17-09-2008 03:19:05 8.3 C 5.73 g/m*3 8.3 C 0 km/h
1768 17-09-2008 03:24:05 8.2 C 5.78 g/m*3 8.2 C 0 km/h
1769 17-09-2008 03:29:05 8 C 5.7 g/m*3 8 C 0 km/h
1770 17-09-2008 03:34:05 7.9 C 5.83 g/m*3 7.9 C 0 km/h
1771 17-09-2008 03:39:05 7.8 C 5.79 g/m*3 7.8 C 0 km/h
1772 17-09-2008 03:44:05 7.7 C 5.84 g/m*3 7.7 C 0 km/h
1773 17-09-2008 03:49:05 7.6 C 5.8 g/m*3 7.6 C 0 km/h
1774 17-09-2008 03:54:05 7.6 C 5.88 g/m*3 7.6 C 0 km/h
1775 17-09-2008 03:59:05 7.5 C 5.84 g/m*3 7.5 C 0 km/h
Sensor: Nr:Datum:Temp:Abs-Feuchte:Windchill:Wind:
Aussen-T/F 1776 17-09-2008 04:04:05 7.4 C 5.81 g/m*3 7.4 C 0 km/h
1777 17-09-2008 04:09:05 7.3 C 5.85 g/m*3 7.3 C 0 km/h
1778 17-09-2008 04:14:05 7.2 C 5.81 g/m*3 7.2 C 0 km/h
1779 17-09-2008 04:19:06 7.2 C 5.81 g/m*3 7.2 C 0 km/h
1780 17-09-2008 04:24:06 7.1 C 5.77 g/m*3 7.1 C 0 km/h
1781 17-09-2008 04:29:06 7 C 5.73 g/m*3 7 C 0 km/h
1782 17-09-2008 04:34:06 6.9 C 5.77 g/m*3 6.9 C 0 km/h
1783 17-09-2008 04:39:06 6.9 C 5.77 g/m*3 6.9 C 0 km/h
1784 17-09-2008 04:44:06 6.9 C 5.7 g/m*3 6.9 C 0 km/h
1785 17-09-2008 04:49:06 6.9 C 5.7 g/m*3 6.9 C 0 km/h
1786 17-09-2008 04:54:06 6.9 C 5.62 g/m*3 6.9 C 0 km/h
1787 17-09-2008 04:59:06 6.9 C 5.62 g/m*3 6.9 C 0 km/h
1788 17-09-2008 05:04:06 6.9 C 5.62 g/m*3 6.9 C 0 km/h
1789 17-09-2008 05:09:06 6.8 C 5.58 g/m*3 6.8 C 0 km/h
1790 17-09-2008 05:14:06 6.7 C 5.55 g/m*3 6.7 C 0 km/h
1791 17-09-2008 05:19:06 6.5 C 5.47 g/m*3 6.5 C 0 km/h
1792 17-09-2008 05:24:06 6.5 C 5.55 g/m*3 6.5 C 0 km/h
1793 17-09-2008 05:29:06 6.6 C 5.66 g/m*3 6.6 C 0 km/h
1794 17-09-2008 05:34:06 6.6 C 5.74 g/m*3 6.6 C 0 km/h
1795 17-09-2008 05:39:06 6.5 C 5.7 g/m*3 6.5 C 0 km/h
1796 17-09-2008 05:44:06 6.4 C 5.66 g/m*3 6.4 C 0 km/h
1797 17-09-2008 05:49:06 6.3 C 5.7 g/m*3 6.3 C 0 km/h
1798 17-09-2008 05:54:06 6.3 C 5.7 g/m*3 6.3 C 0 km/h
1799 17-09-2008 05:59:06 6.2 C 5.74 g/m*3 6.2 C 0 km/h
1800 17-09-2008 06:04:07 6.2 C 5.74 g/m*3 6.2 C 0 km/h
Sensor: Nr:Datum:Temp:Abs-Feuchte:Windchill:Wind:
Aussen-T/F 1801 17-09-2008 06:09:07 6.1 C 5.7 g/m*3 6.1 C 0 km/h
1802 17-09-2008 06:14:07 6.1 C 5.7 g/m*3 6.1 C 0 km/h
1803 17-09-2008 06:19:07 6.1 C 5.77 g/m*3 6.1 C 0 km/h
1804 17-09-2008 06:24:07 6 C 5.73 g/m*3 6 C 0 km/h
1805 17-09-2008 06:29:07 5.9 C 5.77 g/m*3 5.9 C 0 km/h
1806 17-09-2008 06:34:07 5.7 C 5.69 g/m*3 5.7 C 0 km/h
1807 17-09-2008 06:39:07 5.7 C 5.62 g/m*3 5.7 C 0 km/h
1808 17-09-2008 06:44:07 5.7 C 5.69 g/m*3 5.7 C 0 km/h
1809 17-09-2008 06:49:07 5.7 C 5.69 g/m*3 5.7 C 0 km/h
1810 17-09-2008 06:54:07 5.7 C 5.69 g/m*3 5.7 C 0 km/h
1811 17-09-2008 06:59:07 5.7 C 5.69 g/m*3 5.7 C 0 km/h
1812 17-09-2008 07:04:01 5.6 C 5.66 g/m*3 5.6 C 0 km/h
1813 17-09-2008 07:09:01 5.6 C 5.66 g/m*3 5.6 C 0 km/h
1814 17-09-2008 07:14:01 5.6 C 5.73 g/m*3 5.6 C 0 km/h
1815 17-09-2008 07:19:01 5.6 C 5.73 g/m*3 5.6 C 0 km/h
1816 17-09-2008 07:24:01 5.5 C 5.69 g/m*3 5.5 C 0 km/h
1817 17-09-2008 07:29:01 5.5 C 5.69 g/m*3 5.5 C 0 km/h
1818 17-09-2008 07:34:02 5.6 C 5.73 g/m*3 5.6 C 0 km/h
1819 17-09-2008 07:39:02 5.6 C 5.73 g/m*3 5.6 C 0 km/h
1820 17-09-2008 07:44:02 5.7 C 5.84 g/m*3 5.7 C 0 km/h
1821 17-09-2008 07:49:03 5.7 C 5.84 g/m*3 5.7 C 0 km/h
1822 17-09-2008 07:54:03 5.8 C 5.87 g/m*3 5.8 C 0 km/h
1823 17-09-2008 07:59:03 5.8 C 5.95 g/m*3 5.8 C 0 km/h
1824 17-09-2008 08:04:02 5.8 C 5.95 g/m*3 5.8 C 0 km/h
1825 17-09-2008 08:09:02 5.9 C 5.98 g/m*3 5.9 C 0 km/h
Sensor: Nr:Datum:Temp:Abs-Feuchte:Windchill:Wind:
Aussen-T/F 1826 17-09-2008 08:14:02 6 C 5.95 g/m*3 6 C 0 km/h
1827 17-09-2008 08:19:03 6.1 C 5.99 g/m*3 6.1 C 0 km/h
1828 17-09-2008 08:24:03 6.4 C 6.18 g/m*3 6.4 C 0 km/h
1829 17-09-2008 08:29:03 6.5 C 6.22 g/m*3 6.5 C 0 km/h
1830 17-09-2008 08:34:02 6.6 C 6.27 g/m*3 6.6 C 0 km/h
1831 17-09-2008 08:39:02 6.8 C 6.27 g/m*3 6.8 C 0 km/h
1832 17-09-2008 08:44:02 6.9 C 6.31 g/m*3 6.9 C 0 km/h
1833 17-09-2008 08:49:01 6.9 C 6.31 g/m*3 6.9 C 0 km/h
1834 17-09-2008 08:54:01 7.1 C 6.32 g/m*3 7.1 C 0 km/h
1835 17-09-2008 08:59:01 7.2 C 6.36 g/m*3 7.2 C 0 km/h
1836 17-09-2008 09:04:02 7.3 C 6.32 g/m*3 7.3 C 0 km/h
1837 17-09-2008 09:09:02 7.4 C 6.36 g/m*3 7.4 C 0 km/h
1838 17-09-2008 09:14:02 7.4 C 6.28 g/m*3 7.4 C 0 km/h
1839 17-09-2008 09:19:01 7.5 C 6.32 g/m*3 7.5 C 0 km/h
1840 17-09-2008 09:24:01 7.7 C 6.41 g/m*3 7.7 C 0 km/h
1841 17-09-2008 09:29:01 7.9 C 6.41 g/m*3 7.9 C 0 km/h
1842 17-09-2008 09:34:02 8 C 6.37 g/m*3 8 C 0 km/h
1843 17-09-2008 09:39:02 8.1 C 6.32 g/m*3 8.1 C 0 km/h
1844 17-09-2008 09:44:02 8.3 C 6.41 g/m*3 8.3 C 0 km/h
1845 17-09-2008 09:49:02 8.5 C 6.4 g/m*3 8.5 C 0 km/h
1846 17-09-2008 09:54:02 8.6 C 6.44 g/m*3 8.6 C 0 km/h
1847 17-09-2008 09:59:02 8.8 C 6.44 g/m*3 8.8 C 0 km/h
1848 17-09-2008 10:04:02 9 C 6.44 g/m*3 9 C 0 km/h
1849 17-09-2008 10:09:02 9.3 C 6.47 g/m*3 9.3 C 0 km/h
1850 17-09-2008 10:14:02 9.4 C 6.51 g/m*3 9.4 C 0 km/h
Sensor: Nr:Datum:Temp:Abs-Feuchte:Windchill:Wind:
Aussen-T/F 1851 17-09-2008 10:19:03 9.7 C 6.55 g/m*3 9.7 C 0 km/h
1852 17-09-2008 10:24:03 10 C 6.48 g/m*3 10 C 0 km/h
1853 17-09-2008 10:29:03 10.2 C 6.57 g/m*3 10.2 C 0 km/h
1854 17-09-2008 10:34:02 10.4 C 6.55 g/m*3 10.4 C 0 km/h
1855 17-09-2008 10:39:02 10.8 C 6.62 g/m*3 10.8 C 0 km/h
1856 17-09-2008 10:44:02 11 C 6.61 g/m*3 11 C 0 km/h
1857 17-09-2008 10:49:01 11.2 C 6.59 g/m*3 11.2 C 0 km/h
1858 17-09-2008 10:54:01 11.5 C 6.2 g/m*3 11.5 C 0 km/h
1859 17-09-2008 10:59:01 11.7 C 5.75 g/m*3 11.7 C 0 km/h
1860 17-09-2008 11:04:02 11.8 C 5.79 g/m*3 11.8 C 0 km/h
1861 17-09-2008 11:09:02 12.1 C 5.79 g/m*3 12.1 C 0 km/h
1862 17-09-2008 11:14:02 12.3 C 5.54 g/m*3 12.3 C 0 km/h
1863 17-09-2008 11:19:01 12.4 C 5.57 g/m*3 12.4 C 0 km/h
1864 17-09-2008 11:24:01 12.7 C 5.57 g/m*3 12.7 C 0 km/h
1865 17-09-2008 11:29:01 12.9 C 5.52 g/m*3 12.9 C 0 km/h
1866 17-09-2008 11:34:02 13.1 C 5.36 g/m*3 13.1 C 0 km/h
1867 17-09-2008 11:39:02 13.2 C 5.28 g/m*3 13.2 C 0 km/h
1868 17-09-2008 11:44:02 13.4 C 5.11 g/m*3 13.4 C 0 km/h
1869 17-09-2008 11:49:02 13.5 C 5.03 g/m*3 13.5 C 0 km/h
1870 17-09-2008 11:54:02 13.7 C 4.97 g/m*3 13.7 C 0 km/h
1871 17-09-2008 11:59:02 13.9 C 4.92 g/m*3 13.9 C 0 km/h
1872 17-09-2008 12:04:02 14 C 4.7 g/m*3 14 C 0 km/h
1873 17-09-2008 12:09:02 14 C 4.82 g/m*3 14 C 0 km/h
1874 17-09-2008 12:14:02 14.2 C 4.88 g/m*3 14.2 C 0 km/h
1875 17-09-2008 12:19:02 14.3 C 4.91 g/m*3 14.3 C 0 km/h
Sensor: Nr:Datum:Temp:Abs-Feuchte:Windchill:Wind:
Aussen-T/F 1876 17-09-2008 12:24:02 14.3 C 4.79 g/m*3 14.3 C 0 km/h
1877 17-09-2008 12:29:02 14.3 C 4.79 g/m*3 14.3 C 0 km/h
1878 17-09-2008 12:34:02 14.4 C 4.94 g/m*3 14.4 C 0 km/h
1879 17-09-2008 12:39:02 14.7 C 5.16 g/m*3 14.7 C 0 km/h
1880 17-09-2008 12:44:02 14.9 C 5.1 g/m*3 14.9 C 0 km/h
1881 17-09-2008 12:49:02 14.9 C 4.84 g/m*3 14.9 C 0 km/h
1882 17-09-2008 12:54:02 15 C 4.74 g/m*3 15 C 0 km/h
1883 17-09-2008 12:59:02 15.2 C 4.93 g/m*3 15.2 C 0 km/h
1884 17-09-2008 13:04:02 15.4 C 4.99 g/m*3 15.4 C 0 km/h
1885 17-09-2008 13:09:03 15.7 C 5.08 g/m*3 15.7 C 0 km/h
1886 17-09-2008 13:14:03 15.9 C 5.15 g/m*3 15.9 C 0 km/h
1887 17-09-2008 13:19:02 16.3 C 4.99 g/m*3 16.3 C 0 km/h
1888 17-09-2008 13:24:02 16.6 C 4.94 g/m*3 16.6 C 0 km/h
1889 17-09-2008 13:29:02 16.5 C 4.91 g/m*3 16.5 C 0 km/h
1890 17-09-2008 13:34:02 16.7 C 4.97 g/m*3 16.7 C 0 km/h
1891 17-09-2008 13:39:02 16.8 C 4.86 g/m*3 16.8 C 0 km/h
1892 17-09-2008 13:44:02 16.7 C 4.83 g/m*3 16.7 C 0 km/h
1893 17-09-2008 13:49:02 16.7 C 4.97 g/m*3 16.7 C 0 km/h
1894 17-09-2008 13:54:02 16.9 C 5.03 g/m*3 16.9 C 0 km/h
1895 17-09-2008 13:59:03 17 C 4.77 g/m*3 17 C 0 km/h
1896 17-09-2008 14:04:01 17.1 C 4.8 g/m*3 17.1 C 0 km/h
1897 17-09-2008 14:09:01 17.6 C 5.1 g/m*3 17.6 C 0 km/h
1898 17-09-2008 14:14:01 17.9 C 5.04 g/m*3 17.9 C 0 km/h
1899 17-09-2008 14:19:02 17.7 C 4.83 g/m*3 17.7 C 0 km/h
1900 17-09-2008 14:24:02 17.7 C 4.98 g/m*3 17.7 C 0 km/h
Sensor: Nr:Datum:Temp:Abs-Feuchte:Windchill:Wind:
Aussen-T/F 1901 17-09-2008 14:29:02 17.6 C 4.8 g/m*3 17.6 C 0 km/h
1902 17-09-2008 14:34:01 17.7 C 4.98 g/m*3 17.7 C 0 km/h
1903 17-09-2008 14:39:01 17.8 C 4.86 g/m*3 17.8 C 0 km/h
1904 17-09-2008 14:44:01 17.9 C 4.89 g/m*3 17.9 C 0 km/h
1905 17-09-2008 14:49:01 18 C 4.92 g/m*3 18 C 0 km/h
1906 17-09-2008 14:54:01 18.2 C 4.66 g/m*3 18.2 C 0 km/h
1907 17-09-2008 14:59:01 18.2 C 4.66 g/m*3 18.2 C 0 km/h
1908 17-09-2008 15:04:02 18.4 C 4.72 g/m*3 18.4 C 0 km/h
1909 17-09-2008 15:09:03 18.6 C 4.77 g/m*3 18.6 C 0 km/h
1910 17-09-2008 15:14:03 19 C 4.73 g/m*3 19 C 0 km/h
1911 17-09-2008 15:19:01 18.8 C 4.51 g/m*3 18.8 C 0 km/h
1912 17-09-2008 15:24:01 18.9 C 4.54 g/m*3 18.9 C 0 km/h
1913 17-09-2008 15:29:01 19.2 C 4.62 g/m*3 19.2 C 0 km/h
1914 17-09-2008 15:34:02 19.3 C 4.64 g/m*3 19.3 C 0 km/h
1915 17-09-2008 15:39:02 19.5 C 4.7 g/m*3 19.5 C 0 km/h
1916 17-09-2008 15:44:02 19.4 C 4.34 g/m*3 19.4 C 0 km/h
1917 17-09-2008 15:49:02 19.4 C 4.5 g/m*3 19.4 C 0 km/h
1918 17-09-2008 15:54:02 19.5 C 4.36 g/m*3 19.5 C 0 km/h
1919 17-09-2008 15:59:03 19.5 C 4.36 g/m*3 19.5 C 0 km/h
1920 17-09-2008 16:04:02 19.3 C 4.31 g/m*3 19.3 C 0 km/h
1921 17-09-2008 16:09:02 18.9 C 4.37 g/m*3 18.9 C 0 km/h
1922 17-09-2008 16:14:02 19 C 4.4 g/m*3 19 C 0 km/h
1923 17-09-2008 16:19:02 19 C 4.4 g/m*3 19 C 0 km/h
1924 17-09-2008 16:24:02 19.1 C 4.59 g/m*3 19.1 C 0 km/h
1925 17-09-2008 16:29:02 19.2 C 4.62 g/m*3 19.2 C 0 km/h
Sensor: Nr:Datum:Temp:Abs-Feuchte:Windchill:Wind:
Aussen-T/F 1926 17-09-2008 16:34:02 19.4 C 4.67 g/m*3 19.4 C 0 km/h
1927 17-09-2008 16:39:02 19.4 C 4.5 g/m*3 19.4 C 0 km/h
1928 17-09-2008 16:44:02 19.4 C 4.5 g/m*3 19.4 C 0 km/h
1929 17-09-2008 16:49:02 19.1 C 4.43 g/m*3 19.1 C 0 km/h
1930 17-09-2008 16:54:02 18.7 C 4.32 g/m*3 18.7 C 0 km/h
1931 17-09-2008 16:59:02 18.4 C 4.25 g/m*3 18.4 C 0 km/h
1932 17-09-2008 17:04:02 18.3 C 4.22 g/m*3 18.3 C 0 km/h
1933 17-09-2008 17:09:02 18.2 C 4.51 g/m*3 18.2 C 0 km/h
1934 17-09-2008 17:14:03 18.5 C 4.75 g/m*3 18.5 C 0 km/h
1935 17-09-2008 17:19:02 18.6 C 4.62 g/m*3 18.6 C 0 km/h
1936 17-09-2008 17:24:02 18.4 C 4.56 g/m*3 18.4 C 0 km/h
1937 17-09-2008 17:29:02 18.2 C 4.51 g/m*3 18.2 C 0 km/h
1938 17-09-2008 17:34:03 18.2 C 4.66 g/m*3 18.2 C 0 km/h
1939 17-09-2008 17:39:03 18.1 C 4.48 g/m*3 18.1 C 0 km/h
1940 17-09-2008 17:44:03 18.1 C 4.48 g/m*3 18.1 C 0 km/h
1941 17-09-2008 17:49:02 17.6 C 4.5 g/m*3 17.6 C 0 km/h
1942 17-09-2008 17:54:02 17.6 C 4.5 g/m*3 17.6 C 0 km/h
1943 17-09-2008 17:59:02 17.5 C 4.47 g/m*3 17.5 C 0 km/h
1944 17-09-2008 18:04:02 17.2 C 4.54 g/m*3 17.2 C 0 km/h
1945 17-09-2008 18:09:02 17.1 C 4.51 g/m*3 17.1 C 0 km/h
1946 17-09-2008 18:14:02 16.8 C 4.43 g/m*3 16.8 C 0 km/h
1947 17-09-2008 18:19:02 16.3 C 4.3 g/m*3 16.3 C 0 km/h
1948 17-09-2008 18:24:02 16.2 C 4.41 g/m*3 16.2 C 0 km/h
1949 17-09-2008 18:29:02 16 C 4.5 g/m*3 16 C 0 km/h
1950 17-09-2008 18:34:02 15.7 C 4.68 g/m*3 15.7 C 0 km/h
Sensor: Nr:Datum:Temp:Abs-Feuchte:Windchill:Wind:
Aussen-T/F 1951 17-09-2008 18:39:02 15.6 C 4.65 g/m*3 15.6 C 0 km/h
1952 17-09-2008 18:44:02 15.4 C 4.6 g/m*3 15.4 C 0 km/h
1953 17-09-2008 18:49:02 15.1 C 4.77 g/m*3 15.1 C 0 km/h
1954 17-09-2008 18:54:02 14.9 C 4.97 g/m*3 14.9 C 0 km/h
1955 17-09-2008 18:59:02 14.8 C 5.07 g/m*3 14.8 C 0 km/h
1956 17-09-2008 19:04:03 14.5 C 4.97 g/m*3 14.5 C 0 km/h
1957 17-09-2008 19:09:03 14 C 5.07 g/m*3 14 C 0 km/h
1958 17-09-2008 19:14:03 13.7 C 5.21 g/m*3 13.7 C 0 km/h
1959 17-09-2008 19:19:02 13.3 C 5.2 g/m*3 13.3 C 0 km/h
1960 17-09-2008 19:24:02 12.8 C 5.04 g/m*3 12.8 C 0 km/h
1961 17-09-2008 19:29:02 12.7 C 5.12 g/m*3 12.7 C 0 km/h
1962 17-09-2008 19:34:02 12.4 C 5.14 g/m*3 12.4 C 0 km/h
1963 17-09-2008 19:39:02 12.1 C 5.04 g/m*3 12.1 C 0 km/h
1964 17-09-2008 19:44:02 11.9 C 5.08 g/m*3 11.9 C 0 km/h
1965 17-09-2008 19:49:01 11.6 C 5.09 g/m*3 11.6 C 0 km/h
1966 17-09-2008 19:54:01 11.3 C 5.1 g/m*3 11.3 C 0 km/h
1967 17-09-2008 19:59:01 11.1 C 5.14 g/m*3 11.1 C 0 km/h
1968 17-09-2008 20:04:02 11 C 5.1 g/m*3 11 C 0 km/h
1969 17-09-2008 20:09:02 10.8 C 5.24 g/m*3 10.8 C 0 km/h
1970 17-09-2008 20:14:02 10.6 C 5.17 g/m*3 10.6 C 0 km/h
1971 17-09-2008 20:19:02 10.5 C 5.14 g/m*3 10.5 C 0 km/h
1972 17-09-2008 20:24:02 10.4 C 5.2 g/m*3 10.4 C 0 km/h
1973 17-09-2008 20:29:03 10.2 C 5.23 g/m*3 10.2 C 0 km/h
1974 17-09-2008 20:34:01 10.1 C 5.2 g/m*3 10.1 C 0 km/h
1975 17-09-2008 20:39:01 9.9 C 5.32 g/m*3 9.9 C 0 km/h
Sensor: Nr:Datum:Temp:Abs-Feuchte:Windchill:Wind:
Aussen-T/F 1976 17-09-2008 20:44:01 9.8 C 5.29 g/m*3 9.8 C 0 km/h
1977 17-09-2008 20:49:02 9.7 C 5.25 g/m*3 9.7 C 0 km/h
1978 17-09-2008 20:54:02 9.7 C 5.25 g/m*3 9.7 C 0 km/h
1979 17-09-2008 20:59:02 9.7 C 5.25 g/m*3 9.7 C 0 km/h
1980 17-09-2008 21:04:01 9.8 C 5.38 g/m*3 9.8 C 0 km/h
1981 17-09-2008 21:09:01 9.8 C 5.38 g/m*3 9.8 C 0 km/h
1982 17-09-2008 21:14:01 9.6 C 5.31 g/m*3 9.6 C 0 km/h
1983 17-09-2008 21:19:01 9.5 C 5.28 g/m*3 9.5 C 0 km/h
1984 17-09-2008 21:24:01 9.5 C 5.28 g/m*3 9.5 C 0 km/h
1985 17-09-2008 21:29:01 9.4 C 5.16 g/m*3 9.4 C 0 km/h
1986 17-09-2008 21:34:02 9.4 C 5.25 g/m*3 9.4 C 0 km/h
1987 17-09-2008 21:39:03 9.4 C 5.25 g/m*3 9.4 C 0 km/h
1988 17-09-2008 21:44:03 9.3 C 5.12 g/m*3 9.3 C 0 km/h
1989 17-09-2008 21:49:02 9.4 C 5.16 g/m*3 9.4 C 0 km/h
1990 17-09-2008 21:54:02 9.3 C 5.12 g/m*3 9.3 C 0 km/h
1991 17-09-2008 21:59:02 9.2 C 5.09 g/m*3 9.2 C 0 km/h
1992 17-09-2008 22:04:02 9.1 C 5.06 g/m*3 9.1 C 0 km/h
1993 17-09-2008 22:09:02 9.1 C 5.06 g/m*3 9.1 C 0 km/h
1994 17-09-2008 22:14:02 9.1 C 5.06 g/m*3 9.1 C 0 km/h
1995 17-09-2008 22:19:02 8.9 C 5.08 g/m*3 8.9 C 0 km/h
1996 17-09-2008 22:24:02 8.7 C 5.1 g/m*3 8.7 C 0 km/h
1997 17-09-2008 22:29:03 8.6 C 5.07 g/m*3 8.6 C 0 km/h
1998 17-09-2008 22:35:03 8.6 C 5.07 g/m*3 8.6 C 0 km/h
1999 17-09-2008 22:40:03 8.5 C 5.12 g/m*3 8.5 C 0 km/h
2000 17-09-2008 22:45:03 8.4 C 5.09 g/m*3 8.4 C 0 km/h
Sensor: Nr:Datum:Temp:Abs-Feuchte:Windchill:Wind:
Aussen-T/F 2001 17-09-2008 22:50:03 8.4 C 5.09 g/m*3 8.4 C 0 km/h
2002 17-09-2008 22:55:04 8.3 C 5.14 g/m*3 8.3 C 0 km/h
2003 17-09-2008 23:00:04 8.1 C 5.08 g/m*3 8.1 C 0 km/h
2004 17-09-2008 23:05:04 8.1 C 5.08 g/m*3 8.1 C 0 km/h
2005 17-09-2008 23:10:04 8 C 5.04 g/m*3 8 C 0 km/h
2006 17-09-2008 23:15:04 8 C 5.13 g/m*3 8 C 0 km/h
2007 17-09-2008 23:20:04 7.9 C 5.09 g/m*3 7.9 C 0 km/h
2008 17-09-2008 23:25:04 7.9 C 5.09 g/m*3 7.9 C 0 km/h
2009 17-09-2008 23:30:04 7.8 C 5.14 g/m*3 7.8 C 0 km/h
2010 17-09-2008 23:35:04 7.8 C 5.14 g/m*3 7.8 C 0 km/h
2011 17-09-2008 23:40:04 7.7 C 5.11 g/m*3 7.7 C 0 km/h
2012 17-09-2008 23:45:04 7.7 C 5.11 g/m*3 7.7 C 0 km/h
2013 17-09-2008 23:50:04 7.5 C 5.04 g/m*3 7.5 C 0 km/h
2014 17-09-2008 23:55:04 7.5 C 5.04 g/m*3 7.5 C 0 km/h
2015 18-09-2008 00:00:04 7.4 C 5.09 g/m*3 7.4 C 0 km/h
2016 18-09-2008 00:05:04 7.4 C 5.09 g/m*3 7.4 C 0 km/h
2017 18-09-2008 00:10:04 7.4 C 5.09 g/m*3 7.4 C 0 km/h
2018 18-09-2008 00:15:04 7.3 C 5.06 g/m*3 7.3 C 0 km/h
2019 18-09-2008 00:20:04 7.2 C 5.1 g/m*3 7.2 C 0 km/h
2020 18-09-2008 00:25:04 7.1 C 5.15 g/m*3 7.1 C 0 km/h
2021 18-09-2008 00:30:05 7 C 5.11 g/m*3 7 C 0 km/h
2022 18-09-2008 00:35:05 7 C 5.11 g/m*3 7 C 0 km/h
2023 18-09-2008 00:40:05 6.9 C 5.16 g/m*3 6.9 C 0 km/h
2024 18-09-2008 00:45:05 6.7 C 5.09 g/m*3 6.7 C 0 km/h
2025 18-09-2008 00:50:05 6.6 C 5.21 g/m*3 6.6 C 0 km/h
Sensor: Nr:Datum:Temp:Abs-Feuchte:Windchill:Wind:
Aussen-T/F 2026 18-09-2008 00:55:05 6.6 C 5.21 g/m*3 6.6 C 0 km/h
2027 18-09-2008 01:00:05 6.6 C 5.28 g/m*3 6.6 C 0 km/h
2028 18-09-2008 01:05:05 6.5 C 5.25 g/m*3 6.5 C 0 km/h
2029 18-09-2008 01:10:05 6.4 C 5.22 g/m*3 6.4 C 0 km/h
2030 18-09-2008 01:15:05 6.3 C 5.18 g/m*3 6.3 C 0 km/h
2031 18-09-2008 01:20:05 6.3 C 5.26 g/m*3 6.3 C 0 km/h
2032 18-09-2008 01:25:05 6.2 C 5.22 g/m*3 6.2 C 0 km/h
2033 18-09-2008 01:30:05 6.2 C 5.22 g/m*3 6.2 C 0 km/h
2034 18-09-2008 01:35:05 6.1 C 5.19 g/m*3 6.1 C 0 km/h
2035 18-09-2008 01:40:05 6 C 5.23 g/m*3 6 C 0 km/h
2036 18-09-2008 01:45:05 5.9 C 5.26 g/m*3 5.9 C 0 km/h
2037 18-09-2008 01:50:05 5.9 C 5.26 g/m*3 5.9 C 0 km/h
2038 18-09-2008 01:55:05 5.9 C 5.26 g/m*3 5.9 C 0 km/h
2039 18-09-2008 02:00:05 5.9 C 5.26 g/m*3 5.9 C 0 km/h
2040 18-09-2008 02:05:06 5.8 C 5.3 g/m*3 5.8 C 0 km/h
2041 18-09-2008 02:10:06 5.8 C 5.3 g/m*3 5.8 C 0 km/h
2042 18-09-2008 02:15:06 5.7 C 5.27 g/m*3 5.7 C 0 km/h
2043 18-09-2008 02:20:06 5.7 C 5.27 g/m*3 5.7 C 0 km/h
2044 18-09-2008 02:25:06 5.7 C 5.34 g/m*3 5.7 C 0 km/h
2045 18-09-2008 02:30:06 5.7 C 5.34 g/m*3 5.7 C 0 km/h
2046 18-09-2008 02:35:06 5.6 C 5.3 g/m*3 5.6 C 0 km/h
2047 18-09-2008 02:40:06 5.6 C 5.3 g/m*3 5.6 C 0 km/h
2048 18-09-2008 02:45:06 5.5 C 5.34 g/m*3 5.5 C 0 km/h
2049 18-09-2008 02:50:06 5.4 C 5.3 g/m*3 5.4 C 0 km/h
2050 18-09-2008 02:55:06 5.4 C 5.3 g/m*3 5.4 C 0 km/h
Sensor: Nr:Datum:Temp:Abs-Feuchte:Windchill:Wind:
Aussen-T/F 2051 18-09-2008 03:00:06 5.3 C 5.27 g/m*3 5.3 C 0 km/h
2052 18-09-2008 03:05:06 5.3 C 5.27 g/m*3 5.3 C 0 km/h
2053 18-09-2008 03:10:06 5.3 C 5.27 g/m*3 5.3 C 0 km/h
2054 18-09-2008 03:15:06 5.3 C 5.27 g/m*3 5.3 C 0 km/h
2055 18-09-2008 03:20:06 5.3 C 5.27 g/m*3 5.3 C 0 km/h
2056 18-09-2008 03:25:06 5.3 C 5.27 g/m*3 5.3 C 0 km/h
2057 18-09-2008 03:30:06 5.3 C 5.27 g/m*3 5.3 C 0 km/h
2058 18-09-2008 03:35:06 5.3 C 5.34 g/m*3 5.3 C 0 km/h
2059 18-09-2008 03:40:07 5.3 C 5.34 g/m*3 5.3 C 0 km/h
2060 18-09-2008 03:45:07 5.2 C 5.37 g/m*3 5.2 C 0 km/h
2061 18-09-2008 03:50:07 5.2 C 5.37 g/m*3 5.2 C 0 km/h
2062 18-09-2008 03:55:07 5.2 C 5.37 g/m*3 5.2 C 0 km/h
2063 18-09-2008 04:00:07 5.2 C 5.37 g/m*3 5.2 C 0 km/h
2064 18-09-2008 04:05:07 5.2 C 5.44 g/m*3 5.2 C 0 km/h
2065 18-09-2008 04:10:07 5.2 C 5.44 g/m*3 5.2 C 0 km/h
2066 18-09-2008 04:15:07 5.2 C 5.44 g/m*3 5.2 C 0 km/h
2067 18-09-2008 04:20:07 5.2 C 5.51 g/m*3 5.2 C 0 km/h
2068 18-09-2008 04:25:07 5.2 C 5.51 g/m*3 5.2 C 0 km/h
2069 18-09-2008 04:30:07 5.2 C 5.44 g/m*3 5.2 C 0 km/h
2070 18-09-2008 04:35:07 5.2 C 5.44 g/m*3 5.2 C 0 km/h
2071 18-09-2008 04:40:07 5.1 C 5.4 g/m*3 5.1 C 0 km/h
2072 18-09-2008 04:45:07 5.1 C 5.4 g/m*3 5.1 C 0 km/h
2073 18-09-2008 04:50:07 5.2 C 5.44 g/m*3 5.2 C 0 km/h
2074 18-09-2008 04:55:07 5.2 C 5.44 g/m*3 5.2 C 0 km/h
2075 18-09-2008 05:00:07 5 C 5.3 g/m*3 5 C 0 km/h
Sensor: Nr:Datum:Temp:Abs-Feuchte:Windchill:Wind:
Aussen-T/F 2076 18-09-2008 05:05:07 5 C 5.3 g/m*3 5 C 0 km/h
2077 18-09-2008 05:10:07 5 C 5.3 g/m*3 5 C 0 km/h
2078 18-09-2008 05:15:07 5.2 C 5.37 g/m*3 5.2 C 0 km/h
2079 18-09-2008 05:20:08 5.1 C 5.34 g/m*3 5.1 C 0 km/h
2080 18-09-2008 05:25:08 5.2 C 5.37 g/m*3 5.2 C 0 km/h
2081 18-09-2008 05:30:08 5.2 C 5.37 g/m*3 5.2 C 0 km/h
2082 18-09-2008 05:35:08 5.2 C 5.3 g/m*3 5.2 C 0 km/h
2083 18-09-2008 05:40:08 5.1 C 5.27 g/m*3 5.1 C 0 km/h
2084 18-09-2008 05:45:08 5.2 C 5.3 g/m*3 5.2 C 0 km/h
2085 18-09-2008 05:50:08 5.2 C 5.3 g/m*3 5.2 C 0 km/h
2086 18-09-2008 05:55:08 5.2 C 5.3 g/m*3 5.2 C 0 km/h
2087 18-09-2008 06:00:08 5.2 C 5.37 g/m*3 5.2 C 0 km/h
2088 18-09-2008 06:05:08 5.3 C 5.41 g/m*3 5.3 C 0 km/h
2089 18-09-2008 06:10:08 5.3 C 5.41 g/m*3 5.3 C 0 km/h
2090 18-09-2008 06:15:08 5.3 C 5.41 g/m*3 5.3 C 0 km/h
2091 18-09-2008 06:20:08 5.3 C 5.41 g/m*3 5.3 C 0 km/h
2092 18-09-2008 06:25:08 5.3 C 5.41 g/m*3 5.3 C 0 km/h
2093 18-09-2008 06:30:08 5.3 C 5.41 g/m*3 5.3 C 0 km/h
2094 18-09-2008 06:35:08 5.3 C 5.41 g/m*3 5.3 C 0 km/h
2095 18-09-2008 06:40:08 5.3 C 5.48 g/m*3 5.3 C 0 km/h
2096 18-09-2008 06:45:08 5.2 C 5.44 g/m*3 5.2 C 0 km/h
2097 18-09-2008 06:50:08 5.2 C 5.44 g/m*3 5.2 C 0 km/h
2098 18-09-2008 06:55:09 5.1 C 5.4 g/m*3 5.1 C 0 km/h
2099 18-09-2008 07:00:09 5.1 C 5.4 g/m*3 5.1 C 0 km/h
2100 18-09-2008 07:05:03 5.1 C 5.4 g/m*3 5.1 C 0 km/h
Sensor: Nr:Datum:Temp:Abs-Feuchte:Windchill:Wind:
Aussen-T/F 2101 18-09-2008 07:10:03 5.2 C 5.44 g/m*3 5.2 C 0 km/h
2102 18-09-2008 07:15:02 5 C 5.3 g/m*3 5 C 0 km/h
2103 18-09-2008 07:20:02 5 C 5.3 g/m*3 5 C 0 km/h
2104 18-09-2008 07:25:02 5.2 C 5.37 g/m*3 5.2 C 0 km/h
2105 18-09-2008 07:30:02 5.2 C 5.37 g/m*3 5.2 C 0 km/h
2106 18-09-2008 07:35:03 5.2 C 5.37 g/m*3 5.2 C 0 km/h
2107 18-09-2008 07:40:03 5.1 C 5.34 g/m*3 5.1 C 0 km/h
2108 18-09-2008 07:45:02 5.2 C 5.37 g/m*3 5.2 C 0 km/h
2109 18-09-2008 07:50:02 5.3 C 5.41 g/m*3 5.3 C 0 km/h
2110 18-09-2008 07:55:02 5.4 C 5.44 g/m*3 5.4 C 0 km/h
2111 18-09-2008 08:00:02 5.6 C 5.51 g/m*3 5.6 C 0 km/h
2112 18-09-2008 08:05:01 5.7 C 5.55 g/m*3 5.7 C 0 km/h
2113 18-09-2008 08:10:01 5.8 C 5.59 g/m*3 5.8 C 0 km/h
2114 18-09-2008 08:15:02 6 C 5.59 g/m*3 6 C 0 km/h
2115 18-09-2008 08:20:02 6.2 C 5.66 g/m*3 6.2 C 0 km/h
2116 18-09-2008 08:25:02 6.2 C 5.66 g/m*3 6.2 C 0 km/h
2117 18-09-2008 08:30:02 6.3 C 5.7 g/m*3 6.3 C 0 km/h
2118 18-09-2008 08:35:01 6.4 C 5.66 g/m*3 6.4 C 0 km/h
2119 18-09-2008 08:40:01 6.6 C 5.74 g/m*3 6.6 C 0 km/h
2120 18-09-2008 08:45:01 6.7 C 5.77 g/m*3 6.7 C 0 km/h
2121 18-09-2008 08:50:01 6.8 C 5.74 g/m*3 6.8 C 0 km/h
2122 18-09-2008 08:55:01 7 C 5.66 g/m*3 7 C 0 km/h
2123 18-09-2008 09:00:01 7.1 C 5.69 g/m*3 7.1 C 0 km/h
2124 18-09-2008 09:05:02 7.2 C 5.49 g/m*3 7.2 C 0 km/h
2125 18-09-2008 09:10:02 7.3 C 5.29 g/m*3 7.3 C 0 km/h
Sensor: Nr:Datum:Temp:Abs-Feuchte:Windchill:Wind:
Aussen-T/F 2126 18-09-2008 09:15:01 7.3 C 5.29 g/m*3 7.3 C 0 km/h
2127 18-09-2008 09:20:01 7.5 C 5.28 g/m*3 7.5 C 0 km/h
2128 18-09-2008 09:25:01 7.5 C 5.2 g/m*3 7.5 C 0 km/h
2129 18-09-2008 09:30:01 7.6 C 5.24 g/m*3 7.6 C 0 km/h
2130 18-09-2008 09:35:02 7.8 C 5.3 g/m*3 7.8 C 0 km/h
2131 18-09-2008 09:40:02 8.1 C 5.33 g/m*3 8.1 C 0 km/h
2132 18-09-2008 09:45:02 8.3 C 5.23 g/m*3 8.3 C 0 km/h
2133 18-09-2008 09:50:02 8.4 C 5.26 g/m*3 8.4 C 0 km/h
2134 18-09-2008 09:55:02 8.7 C 5.28 g/m*3 8.7 C 0 km/h
2135 18-09-2008 10:00:02 8.9 C 5.17 g/m*3 8.9 C 0 km/h
2136 18-09-2008 10:05:02 9 C 5.11 g/m*3 9 C 0 km/h
2137 18-09-2008 10:10:02 9.2 C 4.91 g/m*3 9.2 C 0 km/h
2138 18-09-2008 10:15:03 9.5 C 4.82 g/m*3 9.5 C 0 km/h
2139 18-09-2008 10:20:03 9.6 C 4.67 g/m*3 9.6 C 0 km/h
2140 18-09-2008 10:25:03 10 C 4.7 g/m*3 10 C 0 km/h
2141 18-09-2008 10:30:03 10.3 C 4.5 g/m*3 10.3 C 0 km/h
2142 18-09-2008 10:35:02 10.5 C 4.66 g/m*3 10.5 C 0 km/h
2143 18-09-2008 10:40:02 10.6 C 4.59 g/m*3 10.6 C 0 km/h
2144 18-09-2008 10:45:01 10.8 C 4.45 g/m*3 10.8 C 0 km/h
2145 18-09-2008 10:50:01 10.9 C 4.58 g/m*3 10.9 C 0 km/h
2146 18-09-2008 10:55:01 11 C 4.5 g/m*3 11 C 0 km/h
2147 18-09-2008 11:00:01 11.1 C 4.43 g/m*3 11.1 C 0 km/h
2148 18-09-2008 11:05:02 11.2 C 4.46 g/m*3 11.2 C 0 km/h
2149 18-09-2008 11:10:02 11.2 C 4.46 g/m*3 11.2 C 0 km/h
2150 18-09-2008 11:15:01 11.3 C 4.39 g/m*3 11.3 C 0 km/h
Sensor: Nr:Datum:Temp:Abs-Feuchte:Windchill:Wind:
Aussen-T/F 2151 18-09-2008 11:20:01 11.3 C 4.39 g/m*3 11.3 C 0 km/h
2152 18-09-2008 11:25:01 11.5 C 4.54 g/m*3 11.5 C 0 km/h
2153 18-09-2008 11:30:01 11.7 C 4.5 g/m*3 11.7 C 0 km/h
2154 18-09-2008 11:35:01 11.9 C 4.45 g/m*3 11.9 C 0 km/h
2155 18-09-2008 11:40:01 12.2 C 4.53 g/m*3 12.2 C 0 km/h
2156 18-09-2008 11:45:02 12.3 C 4.56 g/m*3 12.3 C 0 km/h
2157 18-09-2008 11:50:02 12.5 C 4.51 g/m*3 12.5 C 0 km/h
2158 18-09-2008 11:55:02 12.7 C 4.56 g/m*3 12.7 C 0 km/h
2159 18-09-2008 12:00:02 12.9 C 4.62 g/m*3 12.9 C 0 km/h
2160 18-09-2008 12:05:02 13.1 C 4.56 g/m*3 13.1 C 0 km/h
2161 18-09-2008 12:10:02 13.3 C 4.39 g/m*3 13.3 C 0 km/h
2162 18-09-2008 12:15:03 13.4 C 4.53 g/m*3 13.4 C 0 km/h
2163 18-09-2008 12:20:03 13.6 C 4.47 g/m*3 13.6 C 0 km/h
2164 18-09-2008 12:25:03 13.8 C 4.29 g/m*3 13.8 C 0 km/h
2165 18-09-2008 12:30:03 14 C 4.22 g/m*3 14 C 0 km/h
2166 18-09-2008 12:35:02 14 C 4.1 g/m*3 14 C 0 km/h
2167 18-09-2008 12:40:03 14.1 C 3.88 g/m*3 14.1 C 0 km/h
2168 18-09-2008 12:45:01 14.2 C 3.91 g/m*3 14.2 C 0 km/h
2169 18-09-2008 12:50:01 14.2 C 3.79 g/m*3 14.2 C 0 km/h
2170 18-09-2008 12:55:01 14.2 C 3.79 g/m*3 14.2 C 0 km/h
2171 18-09-2008 13:00:01 14.2 C 3.79 g/m*3 14.2 C 0 km/h
2172 18-09-2008 13:05:01 14.2 C 3.79 g/m*3 14.2 C 0 km/h
2173 18-09-2008 13:10:01 14.2 C 3.79 g/m*3 14.2 C 0 km/h
2174 18-09-2008 13:15:02 14.1 C 3.64 g/m*3 14.1 C 0 km/h
2175 18-09-2008 13:20:02 14.1 C 3.64 g/m*3 14.1 C 0 km/h
Sensor: Nr:Datum:Temp:Abs-Feuchte:Windchill:Wind:
Aussen-T/F 2176 18-09-2008 13:25:03 14.4 C 3.71 g/m*3 14.4 C 0 km/h
2177 18-09-2008 13:30:03 14.6 C 3.75 g/m*3 14.6 C 0 km/h
2178 18-09-2008 13:35:01 14.7 C 3.78 g/m*3 14.7 C 0 km/h
2179 18-09-2008 13:40:01 14.8 C 3.8 g/m*3 14.8 C 0 km/h
2180 18-09-2008 13:45:01 14.9 C 3.82 g/m*3 14.9 C 0 km/h
2181 18-09-2008 13:50:01 15.3 C 3.92 g/m*3 15.3 C 0 km/h
2182 18-09-2008 13:55:01 15.4 C 3.68 g/m*3 15.4 C 0 km/h
2183 18-09-2008 14:00:01 15.6 C 3.72 g/m*3 15.6 C 0 km/h
2184 18-09-2008 14:05:02 15.7 C 3.75 g/m*3 15.7 C 0 km/h
2185 18-09-2008 14:10:03 16.1 C 3.7 g/m*3 16.1 C 0 km/h
2186 18-09-2008 14:15:01 16.2 C 3.59 g/m*3 16.2 C 0 km/h
2187 18-09-2008 14:20:01 16.4 C 3.63 g/m*3 16.4 C 0 km/h
2188 18-09-2008 14:25:01 16.6 C 3.81 g/m*3 16.6 C 0 km/h
2189 18-09-2008 14:30:01 16.9 C 3.88 g/m*3 16.9 C 0 km/h
2190 18-09-2008 14:35:02 17.1 C 3.64 g/m*3 17.1 C 0 km/h
2191 18-09-2008 14:40:02 17.4 C 3.85 g/m*3 17.4 C 0 km/h
2192 18-09-2008 14:45:02 17.5 C 3.73 g/m*3 17.5 C 0 km/h
2193 18-09-2008 14:50:03 17.6 C 3.9 g/m*3 17.6 C 0 km/h
2194 18-09-2008 14:55:03 17.7 C 3.77 g/m*3 17.7 C 0 km/h
2195 18-09-2008 15:00:03 17.6 C 3.6 g/m*3 17.6 C 0 km/h
2196 18-09-2008 15:05:02 17.7 C 3.92 g/m*3 17.7 C 0 km/h
2197 18-09-2008 15:10:02 18 C 3.84 g/m*3 18 C 0 km/h
2198 18-09-2008 15:15:02 18.1 C 3.86 g/m*3 18.1 C 0 km/h
2199 18-09-2008 15:20:02 18.2 C 3.73 g/m*3 18.2 C 0 km/h
2200 18-09-2008 15:25:02 18.4 C 3.93 g/m*3 18.4 C 0 km/h
Sensor: Nr:Datum:Temp:Abs-Feuchte:Windchill:Wind:
Aussen-T/F 2201 18-09-2008 15:30:02 18.6 C 3.98 g/m*3 18.6 C 0 km/h
2202 18-09-2008 15:35:02 18.7 C 4 g/m*3 18.7 C 0 km/h
2203 18-09-2008 15:40:02 19.1 C 3.77 g/m*3 19.1 C 0 km/h
2204 18-09-2008 15:45:02 19.4 C 3.5 g/m*3 19.4 C 0 km/h
2205 18-09-2008 15:50:02 19.5 C 3.52 g/m*3 19.5 C 0 km/h
2206 18-09-2008 15:55:02 19.1 C 3.44 g/m*3 19.1 C 0 km/h
2207 18-09-2008 16:00:02 19.1 C 3.61 g/m*3 19.1 C 0 km/h
2208 18-09-2008 16:05:02 19.3 C 3.81 g/m*3 19.3 C 0 km/h
2209 18-09-2008 16:10:02 19.5 C 3.86 g/m*3 19.5 C 0 km/h
2210 18-09-2008 16:15:02 19.7 C 3.57 g/m*3 19.7 C 0 km/h
2211 18-09-2008 16:20:02 19.6 C 3.55 g/m*3 19.6 C 0 km/h
2212 18-09-2008 16:25:02 20 C 3.63 g/m*3 20 C 0 km/h
2213 18-09-2008 16:30:02 20 C 3.46 g/m*3 20 C 0 km/h
2214 18-09-2008 16:35:02 20.1 C 3.48 g/m*3 20.1 C 0 km/h
2215 18-09-2008 16:40:02 20.3 C 3.69 g/m*3 20.3 C 0 km/h
2216 18-09-2008 16:45:02 20.2 C 3.5 g/m*3 20.2 C 0 km/h
2217 18-09-2008 16:50:02 20.4 C 3.54 g/m*3 20.4 C 0 km/h
2218 18-09-2008 16:55:02 20.3 C 3.52 g/m*3 20.3 C 0 km/h
2219 18-09-2008 17:00:02 20.3 C 3.52 g/m*3 20.3 C 0 km/h
2220 18-09-2008 17:05:02 20.5 C 3.74 g/m*3 20.5 C 0 km/h
2221 18-09-2008 17:10:02 20.6 C 3.58 g/m*3 20.6 C 0 km/h
2222 18-09-2008 17:15:02 20.3 C 3.52 g/m*3 20.3 C 0 km/h
2223 18-09-2008 17:20:02 20.2 C 3.5 g/m*3 20.2 C 0 km/h
2224 18-09-2008 17:25:02 20.2 C 3.5 g/m*3 20.2 C 0 km/h
2225 18-09-2008 17:30:02 20.2 C 3.5 g/m*3 20.2 C 0 km/h
Sensor: Nr:Datum:Temp:Abs-Feuchte:Windchill:Wind:
Aussen-T/F 2226 18-09-2008 17:35:02 20.1 C 3.48 g/m*3 20.1 C 0 km/h
2227 18-09-2008 17:40:02 20.1 C 3.48 g/m*3 20.1 C 0 km/h
2228 18-09-2008 17:45:02 19.8 C 3.42 g/m*3 19.8 C 0 km/h
2229 18-09-2008 17:50:02 19.8 C 3.42 g/m*3 19.8 C 0 km/h
2230 18-09-2008 17:55:02 19.8 C 3.42 g/m*3 19.8 C 0 km/h
2231 18-09-2008 18:00:02 19.8 C 3.42 g/m*3 19.8 C 0 km/h
2232 18-09-2008 18:05:02 19.7 C 3.4 g/m*3 19.7 C 0 km/h
2233 18-09-2008 18:10:02 19.8 C 3.76 g/m*3 19.8 C 0 km/h
2234 18-09-2008 18:15:02 19.7 C 3.91 g/m*3 19.7 C 0 km/h
2235 18-09-2008 18:20:02 19.8 C 3.76 g/m*3 19.8 C 0 km/h
2236 18-09-2008 18:25:02 19.4 C 4.17 g/m*3 19.4 C 0 km/h
2237 18-09-2008 18:30:02 19 C 4.24 g/m*3 19 C 0 km/h
2238 18-09-2008 18:35:01 18.9 C 4.37 g/m*3 18.9 C 0 km/h
2239 18-09-2008 18:40:01 18.5 C 4.43 g/m*3 18.5 C 0 km/h
2240 18-09-2008 18:45:02 18.1 C 4.64 g/m*3 18.1 C 0 km/h
2241 18-09-2008 18:50:02 17.8 C 4.55 g/m*3 17.8 C 0 km/h
2242 18-09-2008 18:55:02 17.5 C 4.62 g/m*3 17.5 C 0 km/h
2243 18-09-2008 19:00:02 17.1 C 4.8 g/m*3 17.1 C 0 km/h
2244 18-09-2008 19:05:02 16.7 C 4.69 g/m*3 16.7 C 0 km/h
2245 18-09-2008 19:10:02 16.2 C 4.69 g/m*3 16.2 C 0 km/h
2246 18-09-2008 19:15:02 15.6 C 4.65 g/m*3 15.6 C 0 km/h
2247 18-09-2008 19:20:02 15.3 C 4.57 g/m*3 15.3 C 0 km/h
2248 18-09-2008 19:25:02 14.6 C 4.63 g/m*3 14.6 C 0 km/h
2249 18-09-2008 19:30:02 14.1 C 4.61 g/m*3 14.1 C 0 km/h
2250 18-09-2008 19:35:02 13.5 C 4.56 g/m*3 13.5 C 0 km/h
Sensor: Nr:Datum:Temp:Abs-Feuchte:Windchill:Wind:
Aussen-T/F 2251 18-09-2008 19:40:02 13.2 C 4.59 g/m*3 13.2 C 0 km/h
2252 18-09-2008 19:45:02 12.7 C 4.68 g/m*3 12.7 C 0 km/h
2253 18-09-2008 19:50:02 12.3 C 4.67 g/m*3 12.3 C 0 km/h
2254 18-09-2008 19:55:02 12.2 C 4.86 g/m*3 12.2 C 0 km/h
2255 18-09-2008 20:00:02 11.9 C 4.87 g/m*3 11.9 C 0 km/h
2256 18-09-2008 20:05:02 11.6 C 4.89 g/m*3 11.6 C 0 km/h
2257 18-09-2008 20:10:02 11.5 C 4.96 g/m*3 11.5 C 0 km/h
2258 18-09-2008 20:15:02 11.2 C 5.07 g/m*3 11.2 C 0 km/h
2259 18-09-2008 20:20:02 10.9 C 5.17 g/m*3 10.9 C 0 km/h
2260 18-09-2008 20:25:02 10.8 C 5.24 g/m*3 10.8 C 0 km/h
2261 18-09-2008 20:30:03 10.8 C 5.24 g/m*3 10.8 C 0 km/h
2262 18-09-2008 20:35:02 10.7 C 5.21 g/m*3 10.7 C 0 km/h
2263 18-09-2008 20:40:02 10.6 C 5.17 g/m*3 10.6 C 0 km/h
2264 18-09-2008 20:45:02 10.6 C 5.17 g/m*3 10.6 C 0 km/h
2265 18-09-2008 20:50:02 10.6 C 5.27 g/m*3 10.6 C 0 km/h
2266 18-09-2008 20:55:02 10.5 C 5.33 g/m*3 10.5 C 0 km/h
2267 18-09-2008 21:00:02 10.4 C 5.3 g/m*3 10.4 C 0 km/h
2268 18-09-2008 21:05:02 10.2 C 5.23 g/m*3 10.2 C 0 km/h
2269 18-09-2008 21:10:02 10.2 C 5.33 g/m*3 10.2 C 0 km/h
2270 18-09-2008 21:15:01 10.2 C 5.33 g/m*3 10.2 C 0 km/h
2271 18-09-2008 21:20:01 10 C 5.36 g/m*3 10 C 0 km/h
2272 18-09-2008 21:25:01 9.9 C 5.42 g/m*3 9.9 C 0 km/h
2273 18-09-2008 21:30:01 9.8 C 5.47 g/m*3 9.8 C 0 km/h
2274 18-09-2008 21:35:02 9.8 C 5.47 g/m*3 9.8 C 0 km/h
2275 18-09-2008 21:40:03 9.7 C 5.44 g/m*3 9.7 C 0 km/h
Sensor: Nr:Datum:Temp:Abs-Feuchte:Windchill:Wind:
Aussen-T/F 2276 18-09-2008 21:46:03 9.5 C 5.46 g/m*3 9.5 C 0 km/h
2277 18-09-2008 21:51:03 9.5 C 5.46 g/m*3 9.5 C 0 km/h
2278 18-09-2008 21:56:03 9.3 C 5.39 g/m*3 9.3 C 0 km/h
2279 18-09-2008 22:01:03 9.2 C 5.54 g/m*3 9.2 C 0 km/h
2280 18-09-2008 22:06:03 9.2 C 5.54 g/m*3 9.2 C 0 km/h
2281 18-09-2008 22:11:03 9.1 C 5.59 g/m*3 9.1 C 0 km/h
2282 18-09-2008 22:16:03 8.9 C 5.52 g/m*3 8.9 C 0 km/h
2283 18-09-2008 22:21:03 8.9 C 5.52 g/m*3 8.9 C 0 km/h
2284 18-09-2008 22:26:03 8.8 C 5.57 g/m*3 8.8 C 0 km/h
2285 18-09-2008 22:31:03 8.7 C 5.62 g/m*3 8.7 C 0 km/h
2286 18-09-2008 22:36:03 8.6 C 5.59 g/m*3 8.6 C 0 km/h
2287 18-09-2008 22:41:03 8.6 C 5.59 g/m*3 8.6 C 0 km/h
2288 18-09-2008 22:46:03 8.5 C 5.64 g/m*3 8.5 C 0 km/h
2289 18-09-2008 22:51:03 8.5 C 5.64 g/m*3 8.5 C 0 km/h
2290 18-09-2008 22:56:03 8.3 C 5.65 g/m*3 8.3 C 0 km/h
2291 18-09-2008 23:01:03 8.2 C 5.61 g/m*3 8.2 C 0 km/h
2292 18-09-2008 23:06:03 8.2 C 5.69 g/m*3 8.2 C 0 km/h
2293 18-09-2008 23:11:03 8.1 C 5.57 g/m*3 8.1 C 0 km/h
2294 18-09-2008 23:16:04 8 C 5.54 g/m*3 8 C 0 km/h
2295 18-09-2008 23:21:04 7.9 C 5.67 g/m*3 7.9 C 0 km/h
2296 18-09-2008 23:26:04 7.8 C 5.63 g/m*3 7.8 C 0 km/h
2297 18-09-2008 23:31:04 7.8 C 5.63 g/m*3 7.8 C 0 km/h
2298 18-09-2008 23:36:04 7.7 C 5.68 g/m*3 7.7 C 0 km/h
2299 18-09-2008 23:41:04 7.5 C 5.6 g/m*3 7.5 C 0 km/h
2300 18-09-2008 23:46:04 7.5 C 5.6 g/m*3 7.5 C 0 km/h
Sensor: Nr:Datum:Temp:Abs-Feuchte:Windchill:Wind:
Aussen-T/F 2301 18-09-2008 23:51:04 7.5 C 5.68 g/m*3 7.5 C 0 km/h
2302 18-09-2008 23:56:04 7.5 C 5.76 g/m*3 7.5 C 0 km/h
2303 19-09-2008 00:01:04 7.4 C 5.73 g/m*3 7.4 C 0 km/h
2304 19-09-2008 00:06:04 7.5 C 5.76 g/m*3 7.5 C 0 km/h
2305 19-09-2008 00:11:04 7.3 C 5.77 g/m*3 7.3 C 0 km/h
2306 19-09-2008 00:16:04 7.2 C 5.73 g/m*3 7.2 C 0 km/h
2307 19-09-2008 00:21:04 7.1 C 5.77 g/m*3 7.1 C 0 km/h
2308 19-09-2008 00:26:04 7.1 C 5.85 g/m*3 7.1 C 0 km/h
2309 19-09-2008 00:31:04 7.1 C 5.85 g/m*3 7.1 C 0 km/h
2310 19-09-2008 00:36:04 7 C 5.89 g/m*3 7 C 0 km/h
2311 19-09-2008 00:41:04 7 C 5.89 g/m*3 7 C 0 km/h
2312 19-09-2008 00:46:04 6.9 C 5.93 g/m*3 6.9 C 0 km/h
2313 19-09-2008 00:51:04 6.9 C 5.93 g/m*3 6.9 C 0 km/h
2314 19-09-2008 00:56:05 6.8 C 5.89 g/m*3 6.8 C 0 km/h
2315 19-09-2008 01:01:05 6.7 C 5.85 g/m*3 6.7 C 0 km/h
2316 19-09-2008 01:06:05 6.6 C 5.89 g/m*3 6.6 C 0 km/h
2317 19-09-2008 01:11:05 6.6 C 5.89 g/m*3 6.6 C 0 km/h
2318 19-09-2008 01:16:05 6.5 C 5.85 g/m*3 6.5 C 0 km/h
2319 19-09-2008 01:21:05 6.4 C 5.81 g/m*3 6.4 C 0 km/h
2320 19-09-2008 01:26:05 6.4 C 5.81 g/m*3 6.4 C 0 km/h
2321 19-09-2008 01:31:05 6.4 C 5.81 g/m*3 6.4 C 0 km/h
2322 19-09-2008 01:36:05 6.3 C 5.85 g/m*3 6.3 C 0 km/h
2323 19-09-2008 01:41:05 6.2 C 5.81 g/m*3 6.2 C 0 km/h
2324 19-09-2008 01:46:05 6.1 C 5.84 g/m*3 6.1 C 0 km/h
2325 19-09-2008 01:51:05 6 C 5.81 g/m*3 6 C 0 km/h
Sensor: Nr:Datum:Temp:Abs-Feuchte:Windchill:Wind:
Aussen-T/F 2326 19-09-2008 01:56:05 6 C 5.81 g/m*3 6 C 0 km/h
2327 19-09-2008 02:01:05 6 C 5.81 g/m*3 6 C 0 km/h
2328 19-09-2008 02:06:05 6 C 5.81 g/m*3 6 C 0 km/h
2329 19-09-2008 02:11:05 5.9 C 5.84 g/m*3 5.9 C 0 km/h
2330 19-09-2008 02:16:05 5.8 C 5.8 g/m*3 5.8 C 0 km/h
2331 19-09-2008 02:21:05 5.8 C 5.8 g/m*3 5.8 C 0 km/h
2332 19-09-2008 02:26:05 5.7 C 5.76 g/m*3 5.7 C 0 km/h
2333 19-09-2008 02:31:06 5.7 C 5.76 g/m*3 5.7 C 0 km/h
2334 19-09-2008 02:36:06 5.7 C 5.84 g/m*3 5.7 C 0 km/h
2335 19-09-2008 02:41:06 5.7 C 5.91 g/m*3 5.7 C 0 km/h
2336 19-09-2008 02:46:06 5.6 C 5.87 g/m*3 5.6 C 0 km/h
2337 19-09-2008 02:51:06 5.6 C 5.87 g/m*3 5.6 C 0 km/h
2338 19-09-2008 02:56:06 5.5 C 5.83 g/m*3 5.5 C 0 km/h
2339 19-09-2008 03:01:06 5.5 C 5.83 g/m*3 5.5 C 0 km/h
2340 19-09-2008 03:06:06 5.4 C 5.79 g/m*3 5.4 C 0 km/h
2341 19-09-2008 03:11:06 5.3 C 5.75 g/m*3 5.3 C 0 km/h
2342 19-09-2008 03:16:06 5.3 C 5.75 g/m*3 5.3 C 0 km/h
2343 19-09-2008 03:21:06 5.2 C 5.71 g/m*3 5.2 C 0 km/h
2344 19-09-2008 03:26:06 5.2 C 5.71 g/m*3 5.2 C 0 km/h
2345 19-09-2008 03:31:06 5.2 C 5.71 g/m*3 5.2 C 0 km/h
2346 19-09-2008 03:36:06 5.1 C 5.68 g/m*3 5.1 C 0 km/h
2347 19-09-2008 03:41:06 5.1 C 5.68 g/m*3 5.1 C 0 km/h
2348 19-09-2008 03:46:06 5.1 C 5.68 g/m*3 5.1 C 0 km/h
2349 19-09-2008 03:51:06 5.1 C 5.68 g/m*3 5.1 C 0 km/h
2350 19-09-2008 03:56:06 5.2 C 5.71 g/m*3 5.2 C 0 km/h
Sensor: Nr:Datum:Temp:Abs-Feuchte:Windchill:Wind:
Aussen-T/F 2351 19-09-2008 04:01:06 4.9 C 5.67 g/m*3 4.9 C 0 km/h
2352 19-09-2008 04:06:07 4.9 C 5.67 g/m*3 4.9 C 0 km/h
2353 19-09-2008 04:11:07 4.9 C 5.67 g/m*3 4.9 C 0 km/h
2354 19-09-2008 04:16:07 4.9 C 5.74 g/m*3 4.9 C 0 km/h
2355 19-09-2008 04:21:07 4.8 C 5.7 g/m*3 4.8 C 0 km/h
2356 19-09-2008 04:26:07 4.7 C 5.66 g/m*3 4.7 C 0 km/h
2357 19-09-2008 04:31:07 4.7 C 5.66 g/m*3 4.7 C 0 km/h
2358 19-09-2008 04:36:07 4.7 C 5.66 g/m*3 4.7 C 0 km/h
2359 19-09-2008 04:41:07 4.6 C 5.62 g/m*3 4.6 C 0 km/h
2360 19-09-2008 04:46:07 4.5 C 5.59 g/m*3 4.5 C 0 km/h
2361 19-09-2008 04:51:07 4.5 C 5.59 g/m*3 4.5 C 0 km/h
2362 19-09-2008 04:56:07 4.4 C 5.55 g/m*3 4.4 C 0 km/h
2363 19-09-2008 05:01:07 4.4 C 5.55 g/m*3 4.4 C 0 km/h
2364 19-09-2008 05:06:07 4.4 C 5.55 g/m*3 4.4 C 0 km/h
2365 19-09-2008 05:11:07 4.4 C 5.55 g/m*3 4.4 C 0 km/h
2366 19-09-2008 05:16:07 4.4 C 5.55 g/m*3 4.4 C 0 km/h
2367 19-09-2008 05:21:07 4.3 C 5.58 g/m*3 4.3 C 0 km/h
2368 19-09-2008 05:26:07 4.3 C 5.58 g/m*3 4.3 C 0 km/h
2369 19-09-2008 05:31:07 4.2 C 5.54 g/m*3 4.2 C 0 km/h
2370 19-09-2008 05:36:07 4.2 C 5.54 g/m*3 4.2 C 0 km/h
2371 19-09-2008 05:41:07 4.2 C 5.54 g/m*3 4.2 C 0 km/h
2372 19-09-2008 05:46:08 4.1 C 5.5 g/m*3 4.1 C 0 km/h
2373 19-09-2008 05:51:08 4.1 C 5.5 g/m*3 4.1 C 0 km/h
2374 19-09-2008 05:56:08 4 C 5.47 g/m*3 4 C 0 km/h
2375 19-09-2008 06:01:08 3.9 C 5.49 g/m*3 3.9 C 0 km/h
Sensor: Nr:Datum:Temp:Abs-Feuchte:Windchill:Wind:
Aussen-T/F 2376 19-09-2008 06:06:08 3.9 C 5.49 g/m*3 3.9 C 0 km/h
2377 19-09-2008 06:11:08 3.9 C 5.49 g/m*3 3.9 C 0 km/h
2378 19-09-2008 06:16:08 3.9 C 5.56 g/m*3 3.9 C 0 km/h
2379 19-09-2008 06:21:08 3.8 C 5.52 g/m*3 3.8 C 0 km/h
2380 19-09-2008 06:26:08 3.8 C 5.52 g/m*3 3.8 C 0 km/h
2381 19-09-2008 06:31:08 3.8 C 5.52 g/m*3 3.8 C 0 km/h
2382 19-09-2008 06:36:08 3.8 C 5.52 g/m*3 3.8 C 0 km/h
2383 19-09-2008 06:41:08 3.8 C 5.52 g/m*3 3.8 C 0 km/h
2384 19-09-2008 06:46:08 3.7 C 5.48 g/m*3 3.7 C 0 km/h
2385 19-09-2008 06:51:08 3.7 C 5.48 g/m*3 3.7 C 0 km/h
2386 19-09-2008 06:56:08 3.7 C 5.48 g/m*3 3.7 C 0 km/h
2387 19-09-2008 07:01:03 3.6 C 5.45 g/m*3 3.6 C 0 km/h
2388 19-09-2008 07:06:03 3.5 C 5.41 g/m*3 3.5 C 0 km/h
2389 19-09-2008 07:11:03 3.4 C 5.37 g/m*3 3.4 C 0 km/h
2390 19-09-2008 07:16:03 3.4 C 5.37 g/m*3 3.4 C 0 km/h
2391 19-09-2008 07:21:03 3.4 C 5.37 g/m*3 3.4 C 0 km/h
2392 19-09-2008 07:26:03 3.5 C 5.47 g/m*3 3.5 C 0 km/h
2393 19-09-2008 07:31:03 3.5 C 5.47 g/m*3 3.5 C 0 km/h
2394 19-09-2008 07:36:03 3.5 C 5.53 g/m*3 3.5 C 0 km/h
2395 19-09-2008 07:41:03 3.4 C 5.5 g/m*3 3.4 C 0 km/h
2396 19-09-2008 07:46:02 3.4 C 5.5 g/m*3 3.4 C 0 km/h
2397 19-09-2008 07:51:02 3.4 C 5.5 g/m*3 3.4 C 0 km/h
2398 19-09-2008 07:56:02 3.4 C 5.5 g/m*3 3.4 C 0 km/h
2399 19-09-2008 08:01:01 3.5 C 5.6 g/m*3 3.5 C 0 km/h
2400 19-09-2008 08:06:01 3.4 C 5.56 g/m*3 3.4 C 0 km/h
Sensor: Nr:Datum:Temp:Abs-Feuchte:Windchill:Wind:
Aussen-T/F 2401 19-09-2008 08:11:01 3.5 C 5.6 g/m*3 3.5 C 0 km/h
2402 19-09-2008 08:16:02 3.6 C 5.63 g/m*3 3.6 C 0 km/h
2403 19-09-2008 08:21:02 3.6 C 5.63 g/m*3 3.6 C 0 km/h
2404 19-09-2008 08:26:02 3.6 C 5.63 g/m*3 3.6 C 0 km/h
2405 19-09-2008 08:31:01 3.7 C 5.67 g/m*3 3.7 C 0 km/h
2406 19-09-2008 08:36:01 3.7 C 5.67 g/m*3 3.7 C 0 km/h
2407 19-09-2008 08:41:01 3.7 C 5.67 g/m*3 3.7 C 0 km/h
2408 19-09-2008 08:46:01 3.9 C 5.81 g/m*3 3.9 C 0 km/h
2409 19-09-2008 08:51:01 3.9 C 5.81 g/m*3 3.9 C 0 km/h
2410 19-09-2008 08:56:01 4 C 5.79 g/m*3 4 C 0 km/h
2411 19-09-2008 09:01:02 4 C 5.79 g/m*3 4 C 0 km/h
2412 19-09-2008 09:06:02 4.1 C 5.82 g/m*3 4.1 C 0 km/h
2413 19-09-2008 09:11:02 4.1 C 5.82 g/m*3 4.1 C 0 km/h
2414 19-09-2008 09:16:01 4.2 C 5.86 g/m*3 4.2 C 0 km/h
2415 19-09-2008 09:21:01 4.3 C 5.9 g/m*3 4.3 C 0 km/h
2416 19-09-2008 09:26:01 4.4 C 5.94 g/m*3 4.4 C 0 km/h
2417 19-09-2008 09:31:02 4.5 C 5.98 g/m*3 4.5 C 0 km/h
2418 19-09-2008 09:36:02 4.7 C 6.13 g/m*3 4.7 C 0 km/h
2419 19-09-2008 09:41:02 4.7 C 6.13 g/m*3 4.7 C 0 km/h
2420 19-09-2008 09:46:02 5 C 6.18 g/m*3 5 C 0 km/h
2421 19-09-2008 09:51:02 5.3 C 6.38 g/m*3 5.3 C 0 km/h
2422 19-09-2008 09:56:02 5.4 C 6.42 g/m*3 5.4 C 0 km/h
2423 19-09-2008 10:01:02 5.7 C 6.55 g/m*3 5.7 C 0 km/h
2424 19-09-2008 10:06:02 6.1 C 6.72 g/m*3 6.1 C 0 km/h
2425 19-09-2008 10:11:02 6.3 C 6.81 g/m*3 6.3 C 0 km/h
Sensor: Nr:Datum:Temp:Abs-Feuchte:Windchill:Wind:
Aussen-T/F 2426 19-09-2008 10:16:03 6.7 C 6.99 g/m*3 6.7 C 0 km/h
2427 19-09-2008 10:21:03 6.9 C 7.08 g/m*3 6.9 C 0 km/h
2428 19-09-2008 10:26:03 7.3 C 7.19 g/m*3 7.3 C 0 km/h
2429 19-09-2008 10:31:02 7.4 C 7.24 g/m*3 7.4 C 0 km/h
2430 19-09-2008 10:36:02 7.8 C 7.43 g/m*3 7.8 C 0 km/h
2431 19-09-2008 10:41:02 8.1 C 7.41 g/m*3 8.1 C 0 km/h
2432 19-09-2008 10:46:01 8.2 C 7.45 g/m*3 8.2 C 0 km/h
2433 19-09-2008 10:51:01 8.5 C 7.51 g/m*3 8.5 C 0 km/h
2434 19-09-2008 10:56:01 8.9 C 7.53 g/m*3 8.9 C 0 km/h
2435 19-09-2008 11:01:02 9 C 7.41 g/m*3 9 C 0 km/h
2436 19-09-2008 11:06:02 9.3 C 7.37 g/m*3 9.3 C 0 km/h
2437 19-09-2008 11:11:02 9.7 C 7.19 g/m*3 9.7 C 0 km/h
2438 19-09-2008 11:16:02 10 C 6.86 g/m*3 10 C 0 km/h
2439 19-09-2008 11:21:03 10.3 C 6.9 g/m*3 10.3 C 0 km/h
2440 19-09-2008 11:26:03 10.6 C 6.83 g/m*3 10.6 C 0 km/h
2441 19-09-2008 11:31:01 11 C 6.81 g/m*3 11 C 0 km/h
2442 19-09-2008 11:36:01 11.1 C 6.75 g/m*3 11.1 C 0 km/h
2443 19-09-2008 11:41:01 11.5 C 6.71 g/m*3 11.5 C 0 km/h
2444 19-09-2008 11:46:01 11.8 C 6.74 g/m*3 11.8 C 0 km/h
2445 19-09-2008 11:51:01 12 C 6.71 g/m*3 12 C 0 km/h
2446 19-09-2008 11:56:01 12.4 C 6.77 g/m*3 12.4 C 0 km/h
2447 19-09-2008 12:01:01 12.5 C 6.82 g/m*3 12.5 C 0 km/h
2448 19-09-2008 12:06:02 12.7 C 6.9 g/m*3 12.7 C 0 km/h
2449 19-09-2008 12:11:02 12.8 C 6.72 g/m*3 12.8 C 0 km/h
2450 19-09-2008 12:16:01 13.1 C 6.73 g/m*3 13.1 C 0 km/h
Sensor: Nr:Datum:Temp:Abs-Feuchte:Windchill:Wind:
Aussen-T/F 2451 19-09-2008 12:21:01 13.2 C 6.66 g/m*3 13.2 C 0 km/h
2452 19-09-2008 12:26:01 13.4 C 6.28 g/m*3 13.4 C 0 km/h
2453 19-09-2008 12:31:02 13.7 C 6.16 g/m*3 13.7 C 0 km/h
2454 19-09-2008 12:36:02 14.2 C 6.23 g/m*3 14.2 C 0 km/h
2455 19-09-2008 12:41:02 14.3 C 6.39 g/m*3 14.3 C 0 km/h
2456 19-09-2008 12:46:02 14.4 C 5.93 g/m*3 14.4 C 0 km/h
2457 19-09-2008 12:51:02 15 C 5.77 g/m*3 15 C 0 km/h
2458 19-09-2008 12:56:02 15.1 C 5.93 g/m*3 15.1 C 0 km/h
2459 19-09-2008 13:01:02 15.1 C 5.81 g/m*3 15.1 C 0 km/h
2460 19-09-2008 13:06:02 15.2 C 5.71 g/m*3 15.2 C 0 km/h
2461 19-09-2008 13:11:02 15.8 C 5.25 g/m*3 15.8 C 0 km/h
2462 19-09-2008 13:16:02 16 C 5.18 g/m*3 16 C 0 km/h
2463 19-09-2008 13:21:02 16.2 C 5.1 g/m*3 16.2 C 0 km/h
2464 19-09-2008 13:26:02 16.4 C 5.16 g/m*3 16.4 C 0 km/h
2465 19-09-2008 13:31:02 16.6 C 5.09 g/m*3 16.6 C 0 km/h
2466 19-09-2008 13:36:02 16.8 C 5.15 g/m*3 16.8 C 0 km/h
2467 19-09-2008 13:41:02 16.9 C 5.18 g/m*3 16.9 C 0 km/h
2468 19-09-2008 13:46:02 16.8 C 5 g/m*3 16.8 C 0 km/h
2469 19-09-2008 13:51:02 17 C 5.06 g/m*3 17 C 0 km/h
2470 19-09-2008 13:56:02 17.3 C 5.01 g/m*3 17.3 C 0 km/h
2471 19-09-2008 14:01:02 17.6 C 4.95 g/m*3 17.6 C 0 km/h
2472 19-09-2008 14:06:02 18.1 C 4.94 g/m*3 18.1 C 0 km/h
2473 19-09-2008 14:11:02 18.1 C 4.79 g/m*3 18.1 C 0 km/h
2474 19-09-2008 14:16:02 18.2 C 4.66 g/m*3 18.2 C 0 km/h
2475 19-09-2008 14:21:02 18.4 C 4.88 g/m*3 18.4 C 0 km/h
Sensor: Nr:Datum:Temp:Abs-Feuchte:Windchill:Wind:
Aussen-T/F 2476 19-09-2008 14:26:02 18.6 C 4.77 g/m*3 18.6 C 0 km/h
2477 19-09-2008 14:31:02 19.1 C 4.59 g/m*3 19.1 C 0 km/h
2478 19-09-2008 14:36:02 19.3 C 4.48 g/m*3 19.3 C 0 km/h
2479 19-09-2008 14:41:02 19.3 C 4.31 g/m*3 19.3 C 0 km/h
2480 19-09-2008 14:46:02 19.7 C 4.42 g/m*3 19.7 C 0 km/h
2481 19-09-2008 14:51:02 19.7 C 4.42 g/m*3 19.7 C 0 km/h
2482 19-09-2008 14:56:02 19.7 C 4.25 g/m*3 19.7 C 0 km/h
2483 19-09-2008 15:01:01 19.3 C 4.31 g/m*3 19.3 C 0 km/h
2484 19-09-2008 15:06:01 19.4 C 4.5 g/m*3 19.4 C 0 km/h
2485 19-09-2008 15:11:01 20 C 4.49 g/m*3 20 C 0 km/h
2486 19-09-2008 15:16:02 20.6 C 4.65 g/m*3 20.6 C 0 km/h
2487 19-09-2008 15:21:02 20.3 C 4.05 g/m*3 20.3 C 0 km/h
2488 19-09-2008 15:26:02 20 C 4.32 g/m*3 20 C 0 km/h
2489 19-09-2008 15:31:01 19.8 C 4.44 g/m*3 19.8 C 0 km/h
2490 19-09-2008 15:36:01 19.6 C 4.73 g/m*3 19.6 C 0 km/h
2491 19-09-2008 15:41:01 19.5 C 4.7 g/m*3 19.5 C 0 km/h
2492 19-09-2008 15:46:01 19.8 C 4.61 g/m*3 19.8 C 0 km/h
2493 19-09-2008 15:51:01 20.2 C 4.55 g/m*3 20.2 C 0 km/h
2494 19-09-2008 15:56:01 20.5 C 4.45 g/m*3 20.5 C 0 km/h
2495 19-09-2008 16:01:02 21.1 C 4.61 g/m*3 21.1 C 0 km/h
2496 19-09-2008 16:06:02 20.8 C 3.8 g/m*3 20.8 C 0 km/h
2497 19-09-2008 16:11:02 21 C 3.85 g/m*3 21 C 0 km/h
2498 19-09-2008 16:16:01 21.2 C 3.71 g/m*3 21.2 C 0 km/h
2499 19-09-2008 16:21:01 21 C 3.66 g/m*3 21 C 0 km/h
2500 19-09-2008 16:26:01 20.9 C 3.82 g/m*3 20.9 C 0 km/h
Sensor: Nr:Datum:Temp:Abs-Feuchte:Windchill:Wind:
Aussen-T/F 2501 19-09-2008 16:31:02 21 C 3.85 g/m*3 21 C 0 km/h
2502 19-09-2008 16:36:02 21.4 C 4.12 g/m*3 21.4 C 0 km/h
2503 19-09-2008 16:41:02 21.7 C 4.01 g/m*3 21.7 C 0 km/h
2504 19-09-2008 16:46:02 22 C 3.88 g/m*3 22 C 0 km/h
2505 19-09-2008 16:51:02 22.1 C 3.9 g/m*3 22.1 C 0 km/h
2506 19-09-2008 16:56:02 21.9 C 3.86 g/m*3 21.9 C 0 km/h
2507 19-09-2008 17:01:02 21.7 C 3.82 g/m*3 21.7 C 0 km/h
2508 19-09-2008 17:06:02 21 C 4.03 g/m*3 21 C 0 km/h
2509 19-09-2008 17:11:02 20.4 C 4.42 g/m*3 20.4 C 0 km/h
2510 19-09-2008 17:16:02 19.9 C 4.64 g/m*3 19.9 C 0 km/h
2511 19-09-2008 17:21:02 19.6 C 4.39 g/m*3 19.6 C 0 km/h
2512 19-09-2008 17:26:02 19.2 C 4.62 g/m*3 19.2 C 0 km/h
2513 19-09-2008 17:31:02 18.9 C 4.86 g/m*3 18.9 C 0 km/h
2514 19-09-2008 17:36:02 18.8 C 4.83 g/m*3 18.8 C 0 km/h
2515 19-09-2008 17:41:02 18.5 C 4.9 g/m*3 18.5 C 0 km/h
2516 19-09-2008 17:46:02 18.2 C 5.28 g/m*3 18.2 C 0 km/h
2517 19-09-2008 17:51:02 18.2 C 5.28 g/m*3 18.2 C 0 km/h
2518 19-09-2008 17:56:02 17.9 C 5.34 g/m*3 17.9 C 0 km/h
2519 19-09-2008 18:01:02 17.7 C 5.28 g/m*3 17.7 C 0 km/h
2520 19-09-2008 18:06:02 17.3 C 5.3 g/m*3 17.3 C 0 km/h
2521 19-09-2008 18:11:02 17.2 C 5.56 g/m*3 17.2 C 0 km/h
2522 19-09-2008 18:16:02 16.8 C 5.43 g/m*3 16.8 C 0 km/h
2523 19-09-2008 18:21:02 16.8 C 5.43 g/m*3 16.8 C 0 km/h
2524 19-09-2008 18:26:02 16.8 C 5.43 g/m*3 16.8 C 0 km/h
2525 19-09-2008 18:31:02 16.7 C 5.4 g/m*3 16.7 C 0 km/h
Sensor: Nr:Datum:Temp:Abs-Feuchte:Windchill:Wind:
Aussen-T/F 2526 19-09-2008 18:36:02 16.5 C 5.2 g/m*3 16.5 C 0 km/h
2527 19-09-2008 18:41:02 16.5 C 5.2 g/m*3 16.5 C 0 km/h
2528 19-09-2008 18:46:02 16.3 C 5.27 g/m*3 16.3 C 0 km/h
2529 19-09-2008 18:51:03 16.1 C 5.35 g/m*3 16.1 C 0 km/h
2530 19-09-2008 18:56:03 16 C 5.31 g/m*3 16 C 0 km/h
2531 19-09-2008 19:01:01 15.7 C 5.49 g/m*3 15.7 C 0 km/h
2532 19-09-2008 19:06:01 15.4 C 5.52 g/m*3 15.4 C 0 km/h
2533 19-09-2008 19:11:01 15.2 C 5.58 g/m*3 15.2 C 0 km/h
2534 19-09-2008 19:16:02 15 C 5.51 g/m*3 15 C 0 km/h
2535 19-09-2008 19:21:02 14.8 C 5.7 g/m*3 14.8 C 0 km/h
2536 19-09-2008 19:26:02 14.5 C 5.6 g/m*3 14.5 C 0 km/h
2537 19-09-2008 19:31:01 14.2 C 5.37 g/m*3 14.2 C 0 km/h
2538 19-09-2008 19:36:01 14 C 5.31 g/m*3 14 C 0 km/h
2539 19-09-2008 19:41:01 14 C 5.43 g/m*3 14 C 0 km/h
2540 19-09-2008 19:46:01 14 C 5.67 g/m*3 14 C 0 km/h
2541 19-09-2008 19:51:01 13.8 C 5.72 g/m*3 13.8 C 0 km/h
2542 19-09-2008 19:56:01 13.7 C 5.68 g/m*3 13.7 C 0 km/h
2543 19-09-2008 20:01:02 13.7 C 5.8 g/m*3 13.7 C 0 km/h
2544 19-09-2008 20:06:02 13.5 C 5.5 g/m*3 13.5 C 0 km/h
2545 19-09-2008 20:11:02 13.4 C 5.46 g/m*3 13.4 C 0 km/h
2546 19-09-2008 20:16:02 13.4 C 5.58 g/m*3 13.4 C 0 km/h
2547 19-09-2008 20:21:02 13.3 C 5.55 g/m*3 13.3 C 0 km/h
2548 19-09-2008 20:26:02 13.2 C 5.51 g/m*3 13.2 C 0 km/h
2549 19-09-2008 20:31:02 13.1 C 5.59 g/m*3 13.1 C 0 km/h
2550 19-09-2008 20:36:02 13 C 5.56 g/m*3 13 C 0 km/h
Sensor: Nr:Datum:Temp:Abs-Feuchte:Windchill:Wind:
Aussen-T/F 2551 19-09-2008 20:41:02 12.9 C 5.75 g/m*3 12.9 C 0 km/h
2552 19-09-2008 20:46:02 12.7 C 5.57 g/m*3 12.7 C 0 km/h
2553 19-09-2008 20:51:02 12.5 C 5.5 g/m*3 12.5 C 0 km/h
2554 19-09-2008 20:56:02 12.3 C 5.32 g/m*3 12.3 C 0 km/h
2555 19-09-2008 21:01:01 12.2 C 5.4 g/m*3 12.2 C 0 km/h
2556 19-09-2008 21:06:01 11.9 C 5.4 g/m*3 11.9 C 0 km/h
2557 19-09-2008 21:11:01 11.9 C 5.51 g/m*3 11.9 C 0 km/h
2558 19-09-2008 21:16:02 11.7 C 5.44 g/m*3 11.7 C 0 km/h
2559 19-09-2008 21:21:02 11.5 C 5.47 g/m*3 11.5 C 0 km/h
2560 19-09-2008 21:26:02 11.5 C 5.58 g/m*3 11.5 C 0 km/h
2561 19-09-2008 21:31:01 11.4 C 5.54 g/m*3 11.4 C 0 km/h
2562 19-09-2008 21:36:01 11.3 C 5.71 g/m*3 11.3 C 0 km/h
2563 19-09-2008 21:41:01 11.2 C 5.68 g/m*3 11.2 C 0 km/h
2564 19-09-2008 21:46:01 11.1 C 5.64 g/m*3 11.1 C 0 km/h
2565 19-09-2008 21:51:01 11 C 5.71 g/m*3 11 C 0 km/h
2566 19-09-2008 21:56:01 10.9 C 5.77 g/m*3 10.9 C 0 km/h
2567 19-09-2008 22:01:02 10.8 C 5.93 g/m*3 10.8 C 0 km/h
2568 19-09-2008 22:06:02 10.7 C 5.89 g/m*3 10.7 C 0 km/h
2569 19-09-2008 22:11:02 10.6 C 5.95 g/m*3 10.6 C 0 km/h
2570 19-09-2008 22:16:01 10.5 C 6.01 g/m*3 10.5 C 0 km/h
2571 19-09-2008 22:21:01 10.4 C 6.07 g/m*3 10.4 C 0 km/h
2572 19-09-2008 22:26:01 10.3 C 6.13 g/m*3 10.3 C 0 km/h
2573 19-09-2008 22:31:02 10.2 C 6.09 g/m*3 10.2 C 0 km/h
2574 19-09-2008 22:36:02 10.1 C 6.05 g/m*3 10.1 C 0 km/h
2575 19-09-2008 22:41:02 10 C 6.01 g/m*3 10 C 0 km/h
Sensor: Nr:Datum:Temp:Abs-Feuchte:Windchill:Wind:
Aussen-T/F 2576 19-09-2008 22:46:02 10 C 6.11 g/m*3 10 C 0 km/h
2577 19-09-2008 22:51:02 9.8 C 6.12 g/m*3 9.8 C 0 km/h
2578 19-09-2008 22:56:02 9.6 C 6.05 g/m*3 9.6 C 0 km/h
2579 19-09-2008 23:02:02 9.5 C 6.1 g/m*3 9.5 C 0 km/h
2580 19-09-2008 23:07:02 9.4 C 6.06 g/m*3 9.4 C 0 km/h
2581 19-09-2008 23:12:02 9.3 C 6.11 g/m*3 9.3 C 0 km/h
2582 19-09-2008 23:17:02 9.3 C 6.11 g/m*3 9.3 C 0 km/h
2583 19-09-2008 23:22:02 9.2 C 6.07 g/m*3 9.2 C 0 km/h
2584 19-09-2008 23:27:02 9.1 C 6.12 g/m*3 9.1 C 0 km/h
2585 19-09-2008 23:32:02 9.1 C 6.12 g/m*3 9.1 C 0 km/h
2586 19-09-2008 23:37:02 9.1 C 6.12 g/m*3 9.1 C 0 km/h
2587 19-09-2008 23:42:02 9 C 6.08 g/m*3 9 C 0 km/h
2588 19-09-2008 23:47:02 9 C 6.17 g/m*3 9 C 0 km/h
2589 19-09-2008 23:52:02 8.9 C 6.22 g/m*3 8.9 C 0 km/h
2590 19-09-2008 23:57:02 8.8 C 6.27 g/m*3 8.8 C 0 km/h
2591 20-09-2008 00:02:02 8.7 C 6.31 g/m*3 8.7 C 0 km/h
2592 20-09-2008 00:07:02 8.6 C 6.27 g/m*3 8.6 C 0 km/h
2593 20-09-2008 00:12:02 8.6 C 6.27 g/m*3 8.6 C 0 km/h
2594 20-09-2008 00:17:03 8.5 C 6.32 g/m*3 8.5 C 0 km/h
2595 20-09-2008 00:22:03 8.3 C 6.32 g/m*3 8.3 C 0 km/h
2596 20-09-2008 00:27:03 8.2 C 6.28 g/m*3 8.2 C 0 km/h
2597 20-09-2008 00:32:03 8.2 C 6.28 g/m*3 8.2 C 0 km/h
2598 20-09-2008 00:37:03 8 C 6.28 g/m*3 8 C 0 km/h
2599 20-09-2008 00:42:03 8 C 6.37 g/m*3 8 C 0 km/h
2600 20-09-2008 00:47:03 7.9 C 6.41 g/m*3 7.9 C 0 km/h
Sensor: Nr:Datum:Temp:Abs-Feuchte:Windchill:Wind:
Aussen-T/F 2601 20-09-2008 00:52:03 7.9 C 6.41 g/m*3 7.9 C 0 km/h
2602 20-09-2008 00:57:03 7.9 C 6.49 g/m*3 7.9 C 0 km/h
2603 20-09-2008 01:02:03 7.9 C 6.49 g/m*3 7.9 C 0 km/h
2604 20-09-2008 01:07:03 7.8 C 6.45 g/m*3 7.8 C 0 km/h
2605 20-09-2008 01:12:03 7.7 C 6.41 g/m*3 7.7 C 0 km/h
2606 20-09-2008 01:17:03 7.7 C 6.32 g/m*3 7.7 C 0 km/h
2607 20-09-2008 01:22:03 7.7 C 6.32 g/m*3 7.7 C 0 km/h
2608 20-09-2008 01:27:03 7.6 C 6.28 g/m*3 7.6 C 0 km/h
2609 20-09-2008 01:32:03 7.6 C 6.28 g/m*3 7.6 C 0 km/h
2610 20-09-2008 01:37:03 7.5 C 6.24 g/m*3 7.5 C 0 km/h
2611 20-09-2008 01:42:03 7.4 C 6.28 g/m*3 7.4 C 0 km/h
2612 20-09-2008 01:47:03 7.4 C 6.28 g/m*3 7.4 C 0 km/h
2613 20-09-2008 01:52:03 7.4 C 6.28 g/m*3 7.4 C 0 km/h
2614 20-09-2008 01:57:04 7.4 C 6.28 g/m*3 7.4 C 0 km/h
2615 20-09-2008 02:02:04 7.4 C 6.36 g/m*3 7.4 C 0 km/h
2616 20-09-2008 02:07:04 7.3 C 6.32 g/m*3 7.3 C 0 km/h
2617 20-09-2008 02:12:04 7.2 C 6.36 g/m*3 7.2 C 0 km/h
2618 20-09-2008 02:17:04 7.1 C 6.32 g/m*3 7.1 C 0 km/h
2619 20-09-2008 02:22:04 7.1 C 6.32 g/m*3 7.1 C 0 km/h
2620 20-09-2008 02:27:04 7 C 6.28 g/m*3 7 C 0 km/h
2621 20-09-2008 02:32:04 7 C 6.28 g/m*3 7 C 0 km/h
2622 20-09-2008 02:37:04 6.9 C 6.31 g/m*3 6.9 C 0 km/h
2623 20-09-2008 02:42:04 6.9 C 6.39 g/m*3 6.9 C 0 km/h
2624 20-09-2008 02:47:04 6.8 C 6.35 g/m*3 6.8 C 0 km/h
2625 20-09-2008 02:52:04 6.8 C 6.35 g/m*3 6.8 C 0 km/h
Sensor: Nr:Datum:Temp:Abs-Feuchte:Windchill:Wind:
Aussen-T/F 2626 20-09-2008 02:57:04 6.7 C 6.38 g/m*3 6.7 C 0 km/h
2627 20-09-2008 03:02:04 6.7 C 6.38 g/m*3 6.7 C 0 km/h
2628 20-09-2008 03:07:04 6.5 C 6.3 g/m*3 6.5 C 0 km/h
2629 20-09-2008 03:12:04 6.5 C 6.3 g/m*3 6.5 C 0 km/h
2630 20-09-2008 03:17:04 6.4 C 6.26 g/m*3 6.4 C 0 km/h
2631 20-09-2008 03:22:04 6.4 C 6.26 g/m*3 6.4 C 0 km/h
2632 20-09-2008 03:27:04 6.4 C 6.26 g/m*3 6.4 C 0 km/h
2633 20-09-2008 03:32:04 6.3 C 6.22 g/m*3 6.3 C 0 km/h
2634 20-09-2008 03:37:04 6.3 C 6.22 g/m*3 6.3 C 0 km/h
2635 20-09-2008 03:42:05 6.3 C 6.22 g/m*3 6.3 C 0 km/h
2636 20-09-2008 03:47:05 6.3 C 6.22 g/m*3 6.3 C 0 km/h
2637 20-09-2008 03:52:05 6.3 C 6.29 g/m*3 6.3 C 0 km/h
2638 20-09-2008 03:57:05 6.3 C 6.29 g/m*3 6.3 C 0 km/h
2639 20-09-2008 04:02:05 6.3 C 6.29 g/m*3 6.3 C 0 km/h
2640 20-09-2008 04:07:05 6.3 C 6.29 g/m*3 6.3 C 0 km/h
2641 20-09-2008 04:12:05 6.3 C 6.22 g/m*3 6.3 C 0 km/h
2642 20-09-2008 04:17:05 6.2 C 6.18 g/m*3 6.2 C 0 km/h
2643 20-09-2008 04:22:05 6.2 C 6.18 g/m*3 6.2 C 0 km/h
2644 20-09-2008 04:27:05 6.1 C 6.14 g/m*3 6.1 C 0 km/h
2645 20-09-2008 04:32:05 5.9 C 6.13 g/m*3 5.9 C 0 km/h
2646 20-09-2008 04:37:05 5.9 C 6.13 g/m*3 5.9 C 0 km/h
2647 20-09-2008 04:42:05 5.8 C 6.16 g/m*3 5.8 C 0 km/h
2648 20-09-2008 04:47:05 5.8 C 6.16 g/m*3 5.8 C 0 km/h
2649 20-09-2008 04:52:05 5.8 C 6.16 g/m*3 5.8 C 0 km/h
2650 20-09-2008 04:57:05 5.7 C 6.12 g/m*3 5.7 C 0 km/h
Sensor: Nr:Datum:Temp:Abs-Feuchte:Windchill:Wind:
Aussen-T/F 2651 20-09-2008 05:02:05 5.7 C 6.19 g/m*3 5.7 C 0 km/h
2652 20-09-2008 05:07:05 5.7 C 6.26 g/m*3 5.7 C 0 km/h
2653 20-09-2008 05:12:05 5.6 C 6.22 g/m*3 5.6 C 0 km/h
2654 20-09-2008 05:17:05 5.6 C 6.22 g/m*3 5.6 C 0 km/h
2655 20-09-2008 05:22:06 5.5 C 6.18 g/m*3 5.5 C 0 km/h
2656 20-09-2008 05:27:06 5.5 C 6.18 g/m*3 5.5 C 0 km/h
2657 20-09-2008 05:32:06 5.5 C 6.18 g/m*3 5.5 C 0 km/h
2658 20-09-2008 05:37:06 5.4 C 6.14 g/m*3 5.4 C 0 km/h
2659 20-09-2008 05:42:06 5.4 C 6.14 g/m*3 5.4 C 0 km/h
2660 20-09-2008 05:47:06 5.3 C 6.1 g/m*3 5.3 C 0 km/h
2661 20-09-2008 05:52:06 5.3 C 6.1 g/m*3 5.3 C 0 km/h
2662 20-09-2008 05:57:06 5.2 C 6.06 g/m*3 5.2 C 0 km/h
2663 20-09-2008 06:02:06 5.2 C 6.06 g/m*3 5.2 C 0 km/h
2664 20-09-2008 06:07:06 5.1 C 6.02 g/m*3 5.1 C 0 km/h
2665 20-09-2008 06:12:06 5.1 C 6.02 g/m*3 5.1 C 0 km/h
2666 20-09-2008 06:17:06 5.1 C 6.02 g/m*3 5.1 C 0 km/h
2667 20-09-2008 06:22:06 5 C 5.98 g/m*3 5 C 0 km/h
2668 20-09-2008 06:27:06 5.1 C 6.02 g/m*3 5.1 C 0 km/h
2669 20-09-2008 06:32:06 5.1 C 6.02 g/m*3 5.1 C 0 km/h
2670 20-09-2008 06:37:06 4.9 C 6.01 g/m*3 4.9 C 0 km/h
2671 20-09-2008 06:42:06 4.8 C 5.97 g/m*3 4.8 C 0 km/h
2672 20-09-2008 06:47:06 4.8 C 5.97 g/m*3 4.8 C 0 km/h
2673 20-09-2008 06:52:06 4.8 C 5.97 g/m*3 4.8 C 0 km/h
2674 20-09-2008 06:57:06 4.6 C 5.89 g/m*3 4.6 C 0 km/h
2675 20-09-2008 07:02:06 4.6 C 5.89 g/m*3 4.6 C 0 km/h
Sensor: Nr:Datum:Temp:Abs-Feuchte:Windchill:Wind:
Aussen-T/F 2676 20-09-2008 07:07:07 4.5 C 5.85 g/m*3 4.5 C 0 km/h
2677 20-09-2008 07:12:07 4.6 C 5.89 g/m*3 4.6 C 0 km/h
2678 20-09-2008 07:17:07 4.5 C 5.85 g/m*3 4.5 C 0 km/h
2679 20-09-2008 07:22:07 4.5 C 5.85 g/m*3 4.5 C 0 km/h
2680 20-09-2008 07:27:07 4.5 C 5.85 g/m*3 4.5 C 0 km/h
2681 20-09-2008 07:32:07 4.5 C 5.85 g/m*3 4.5 C 0 km/h
2682 20-09-2008 07:37:07 4.5 C 5.85 g/m*3 4.5 C 0 km/h
2683 20-09-2008 07:42:07 4.6 C 5.89 g/m*3 4.6 C 0 km/h
2684 20-09-2008 07:47:07 4.6 C 5.96 g/m*3 4.6 C 0 km/h
2685 20-09-2008 07:52:07 4.6 C 5.96 g/m*3 4.6 C 0 km/h
2686 20-09-2008 07:57:07 4.6 C 5.96 g/m*3 4.6 C 0 km/h
2687 20-09-2008 08:02:02 4.6 C 5.96 g/m*3 4.6 C 0 km/h
2688 20-09-2008 08:07:02 4.6 C 5.96 g/m*3 4.6 C 0 km/h
2689 20-09-2008 08:12:02 4.7 C 6 g/m*3 4.7 C 0 km/h
2690 20-09-2008 08:17:02 4.7 C 6 g/m*3 4.7 C 0 km/h
2691 20-09-2008 08:22:02 4.7 C 6 g/m*3 4.7 C 0 km/h
2692 20-09-2008 08:27:02 4.7 C 6 g/m*3 4.7 C 0 km/h
2693 20-09-2008 08:32:02 4.8 C 6.04 g/m*3 4.8 C 0 km/h
2694 20-09-2008 08:37:02 4.8 C 6.04 g/m*3 4.8 C 0 km/h
2695 20-09-2008 08:42:02 4.8 C 6.04 g/m*3 4.8 C 0 km/h
2696 20-09-2008 08:47:02 4.9 C 6.08 g/m*3 4.9 C 0 km/h
2697 20-09-2008 08:52:02 4.9 C 6.14 g/m*3 4.9 C 0 km/h
2698 20-09-2008 08:57:02 5 C 6.12 g/m*3 5 C 0 km/h
2699 20-09-2008 09:02:03 5.1 C 6.16 g/m*3 5.1 C 0 km/h
2700 20-09-2008 09:07:03 5.2 C 6.2 g/m*3 5.2 C 0 km/h
Sensor: Nr:Datum:Temp:Abs-Feuchte:Windchill:Wind:
Aussen-T/F 2701 20-09-2008 09:12:03 5.2 C 6.27 g/m*3 5.2 C 0 km/h
2702 20-09-2008 09:17:02 5.3 C 6.31 g/m*3 5.3 C 0 km/h
2703 20-09-2008 09:22:02 5.4 C 6.35 g/m*3 5.4 C 0 km/h
2704 20-09-2008 09:27:03 5.4 C 6.35 g/m*3 5.4 C 0 km/h
2705 20-09-2008 09:32:02 5.5 C 6.46 g/m*3 5.5 C 0 km/h
2706 20-09-2008 09:37:02 5.6 C 6.5 g/m*3 5.6 C 0 km/h
2707 20-09-2008 09:42:02 5.8 C 6.59 g/m*3 5.8 C 0 km/h
2708 20-09-2008 09:47:03 5.9 C 6.63 g/m*3 5.9 C 0 km/h
2709 20-09-2008 09:52:03 6.2 C 6.69 g/m*3 6.2 C 0 km/h
2710 20-09-2008 09:57:03 6.5 C 6.9 g/m*3 6.5 C 0 km/h
2711 20-09-2008 10:02:02 6.8 C 7.04 g/m*3 6.8 C 0 km/h
2712 20-09-2008 10:07:02 6.9 C 7.08 g/m*3 6.9 C 0 km/h
2713 20-09-2008 10:12:02 7.3 C 7.27 g/m*3 7.3 C 0 km/h
2714 20-09-2008 10:17:02 7.6 C 7.41 g/m*3 7.6 C 0 km/h
2715 20-09-2008 10:22:02 7.9 C 7.56 g/m*3 7.9 C 0 km/h
2716 20-09-2008 10:27:02 8.3 C 7.67 g/m*3 8.3 C 0 km/h
2717 20-09-2008 10:32:02 8.7 C 7.7 g/m*3 8.7 C 0 km/h
2718 20-09-2008 10:37:03 8.8 C 7.66 g/m*3 8.8 C 0 km/h
2719 20-09-2008 10:42:03 9 C 7.49 g/m*3 9 C 0 km/h
2720 20-09-2008 10:47:02 9 C 7.23 g/m*3 9 C 0 km/h
2721 20-09-2008 10:52:02 9.2 C 7.23 g/m*3 9.2 C 0 km/h
2722 20-09-2008 10:57:02 9.3 C 7.19 g/m*3 9.3 C 0 km/h
2723 20-09-2008 11:02:02 9.8 C 7.33 g/m*3 9.8 C 0 km/h
2724 20-09-2008 11:07:02 10 C 7.14 g/m*3 10 C 0 km/h
2725 20-09-2008 11:12:02 10 C 7.14 g/m*3 10 C 0 km/h
Sensor: Nr:Datum:Temp:Abs-Feuchte:Windchill:Wind:
Aussen-T/F 2726 20-09-2008 11:17:02 10.5 C 7.18 g/m*3 10.5 C 0 km/h
2727 20-09-2008 11:22:02 11 C 7.21 g/m*3 11 C 0 km/h
2728 20-09-2008 11:27:03 11.2 C 7.3 g/m*3 11.2 C 0 km/h
2729 20-09-2008 11:32:01 11.5 C 7.33 g/m*3 11.5 C 0 km/h
2730 20-09-2008 11:37:01 12.8 C 7.84 g/m*3 12.8 C 0 km/h
2731 20-09-2008 11:42:01 12.5 C 7.59 g/m*3 12.5 C 0 km/h
2732 20-09-2008 11:47:02 13.1 C 7.53 g/m*3 13.1 C 0 km/h
2733 20-09-2008 11:52:02 13.5 C 7.37 g/m*3 13.5 C 0 km/h
2734 20-09-2008 11:57:02 14 C 7.12 g/m*3 14 C 0 km/h
2735 20-09-2008 12:02:02 14.2 C 7.08 g/m*3 14.2 C 0 km/h
2736 20-09-2008 12:07:02 14.6 C 7.01 g/m*3 14.6 C 0 km/h
2737 20-09-2008 12:12:02 14.8 C 6.84 g/m*3 14.8 C 0 km/h
2738 20-09-2008 12:17:01 14.9 C 6.75 g/m*3 14.9 C 0 km/h
2739 20-09-2008 12:22:01 14.8 C 6.59 g/m*3 14.8 C 0 km/h
2740 20-09-2008 12:27:01 15.1 C 6.58 g/m*3 15.1 C 0 km/h
2741 20-09-2008 12:32:02 15.2 C 6.62 g/m*3 15.2 C 0 km/h
2742 20-09-2008 12:37:03 15.4 C 6.7 g/m*3 15.4 C 0 km/h
2743 20-09-2008 12:42:03 15.6 C 6.65 g/m*3 15.6 C 0 km/h
2744 20-09-2008 12:47:02 15.8 C 6.73 g/m*3 15.8 C 0 km/h
2745 20-09-2008 12:52:02 16 C 6.13 g/m*3 16 C 0 km/h
2746 20-09-2008 12:57:02 16.1 C 5.76 g/m*3 16.1 C 0 km/h
2747 20-09-2008 13:02:03 16.5 C 6.04 g/m*3 16.5 C 0 km/h
2748 20-09-2008 13:07:03 16.7 C 5.83 g/m*3 16.7 C 0 km/h
2749 20-09-2008 13:12:03 17 C 5.21 g/m*3 17 C 0 km/h
2750 20-09-2008 13:17:02 17.4 C 4.89 g/m*3 17.4 C 0 km/h
Sensor: Nr:Datum:Temp:Abs-Feuchte:Windchill:Wind:
Aussen-T/F 2751 20-09-2008 13:22:02 17.6 C 4.95 g/m*3 17.6 C 0 km/h
2752 20-09-2008 13:27:03 17.9 C 4.73 g/m*3 17.9 C 0 km/h
2753 20-09-2008 13:32:02 18 C 4.45 g/m*3 18 C 0 km/h
2754 20-09-2008 13:37:02 18 C 4.61 g/m*3 18 C 0 km/h
2755 20-09-2008 13:42:02 17.7 C 4.53 g/m*3 17.7 C 0 km/h
2756 20-09-2008 13:47:02 17.6 C 4.5 g/m*3 17.6 C 0 km/h
2757 20-09-2008 13:52:02 17.6 C 4.2 g/m*3 17.6 C 0 km/h
2758 20-09-2008 13:57:02 17.7 C 4.38 g/m*3 17.7 C 0 km/h
2759 20-09-2008 14:02:02 17.9 C 4.43 g/m*3 17.9 C 0 km/h
2760 20-09-2008 14:07:02 18.3 C 4.38 g/m*3 18.3 C 0 km/h
2761 20-09-2008 14:12:02 18.1 C 4.17 g/m*3 18.1 C 0 km/h
2762 20-09-2008 14:17:02 17.9 C 4.28 g/m*3 17.9 C 0 km/h
2763 20-09-2008 14:22:02 17.5 C 4.47 g/m*3 17.5 C 0 km/h
2764 20-09-2008 14:27:03 17.2 C 4.39 g/m*3 17.2 C 0 km/h
2765 20-09-2008 14:32:02 17 C 4.49 g/m*3 17 C 0 km/h
2766 20-09-2008 14:37:02 17 C 4.49 g/m*3 17 C 0 km/h
2767 20-09-2008 14:42:02 17 C 4.49 g/m*3 17 C 0 km/h
2768 20-09-2008 14:47:02 17.5 C 4.62 g/m*3 17.5 C 0 km/h
2769 20-09-2008 14:52:02 17.4 C 4.59 g/m*3 17.4 C 0 km/h
2770 20-09-2008 14:57:02 17.3 C 4.57 g/m*3 17.3 C 0 km/h
2771 20-09-2008 15:02:03 17.3 C 4.57 g/m*3 17.3 C 0 km/h
2772 20-09-2008 15:07:03 17.5 C 4.32 g/m*3 17.5 C 0 km/h
2773 20-09-2008 15:12:03 17.7 C 4.53 g/m*3 17.7 C 0 km/h
2774 20-09-2008 15:17:03 17.8 C 4.55 g/m*3 17.8 C 0 km/h
2775 20-09-2008 15:22:03 18.1 C 4.33 g/m*3 18.1 C 0 km/h
Sensor: Nr:Datum:Temp:Abs-Feuchte:Windchill:Wind:
Aussen-T/F 2776 20-09-2008 15:27:03 18.8 C 4.35 g/m*3 18.8 C 0 km/h
2777 20-09-2008 15:32:02 18.7 C 4.32 g/m*3 18.7 C 0 km/h
2778 20-09-2008 15:37:02 18.1 C 4.02 g/m*3 18.1 C 0 km/h
2779 20-09-2008 15:42:02 18 C 3.99 g/m*3 18 C 0 km/h
2780 20-09-2008 15:47:02 18.2 C 4.04 g/m*3 18.2 C 0 km/h
2781 20-09-2008 15:52:03 18.1 C 4.17 g/m*3 18.1 C 0 km/h
2782 20-09-2008 15:57:03 17.9 C 4.43 g/m*3 17.9 C 0 km/h
2783 20-09-2008 16:02:01 17.7 C 4.22 g/m*3 17.7 C 0 km/h
2784 20-09-2008 16:07:01 17.6 C 4.2 g/m*3 17.6 C 0 km/h
2785 20-09-2008 16:12:01 17 C 4.34 g/m*3 17 C 0 km/h
2786 20-09-2008 16:17:02 17.3 C 4.57 g/m*3 17.3 C 0 km/h
2787 20-09-2008 16:22:02 17.8 C 4.71 g/m*3 17.8 C 0 km/h
2788 20-09-2008 16:27:02 18.8 C 4.67 g/m*3 18.8 C 0 km/h
2789 20-09-2008 16:32:01 19.3 C 4.31 g/m*3 19.3 C 0 km/h
2790 20-09-2008 16:37:01 19.2 C 4.45 g/m*3 19.2 C 0 km/h
2791 20-09-2008 16:42:01 19 C 4.56 g/m*3 19 C 0 km/h
2792 20-09-2008 16:47:02 18.5 C 4.59 g/m*3 18.5 C 0 km/h
2793 20-09-2008 16:52:02 17.9 C 4.58 g/m*3 17.9 C 0 km/h
2794 20-09-2008 16:57:02 17.6 C 4.5 g/m*3 17.6 C 0 km/h
2795 20-09-2008 17:02:02 17.2 C 4.69 g/m*3 17.2 C 0 km/h
2796 20-09-2008 17:07:02 17.1 C 4.66 g/m*3 17.1 C 0 km/h
2797 20-09-2008 17:12:02 17.3 C 4.71 g/m*3 17.3 C 0 km/h
2798 20-09-2008 17:17:02 18.1 C 4.79 g/m*3 18.1 C 0 km/h
2799 20-09-2008 17:22:02 18.7 C 4.96 g/m*3 18.7 C 0 km/h
2800 20-09-2008 17:27:03 19.1 C 4.75 g/m*3 19.1 C 0 km/h
Sensor: Nr:Datum:Temp:Abs-Feuchte:Windchill:Wind:
Aussen-T/F 2801 20-09-2008 17:32:01 19.6 C 4.39 g/m*3 19.6 C 0 km/h
2802 20-09-2008 17:37:01 19.8 C 4.61 g/m*3 19.8 C 0 km/h
2803 20-09-2008 17:42:01 19.8 C 4.44 g/m*3 19.8 C 0 km/h
2804 20-09-2008 17:47:01 19.2 C 4.45 g/m*3 19.2 C 0 km/h
2805 20-09-2008 17:52:01 18.9 C 4.37 g/m*3 18.9 C 0 km/h
2806 20-09-2008 17:57:01 19.1 C 4.43 g/m*3 19.1 C 0 km/h
2807 20-09-2008 18:02:02 19 C 4.4 g/m*3 19 C 0 km/h
2808 20-09-2008 18:07:02 19 C 4.56 g/m*3 19 C 0 km/h
2809 20-09-2008 18:12:02 18.9 C 4.54 g/m*3 18.9 C 0 km/h
2810 20-09-2008 18:17:02 18.9 C 4.37 g/m*3 18.9 C 0 km/h
2811 20-09-2008 18:22:02 18.8 C 4.99 g/m*3 18.8 C 0 km/h
2812 20-09-2008 18:27:02 18.7 C 4.8 g/m*3 18.7 C 0 km/h
2813 20-09-2008 18:32:02 18.6 C 4.62 g/m*3 18.6 C 0 km/h
2814 20-09-2008 18:37:02 18.4 C 4.56 g/m*3 18.4 C 0 km/h
2815 20-09-2008 18:42:02 18.3 C 5 g/m*3 18.3 C 0 km/h
2816 20-09-2008 18:47:02 18.1 C 4.79 g/m*3 18.1 C 0 km/h
2817 20-09-2008 18:52:02 17.9 C 4.89 g/m*3 17.9 C 0 km/h
2818 20-09-2008 18:57:02 17.4 C 5.04 g/m*3 17.4 C 0 km/h
2819 20-09-2008 19:02:01 17 C 5.06 g/m*3 17 C 0 km/h
2820 20-09-2008 19:07:01 16.6 C 4.94 g/m*3 16.6 C 0 km/h
2821 20-09-2008 19:12:01 16.1 C 4.8 g/m*3 16.1 C 0 km/h
2822 20-09-2008 19:17:02 15.4 C 4.86 g/m*3 15.4 C 0 km/h
2823 20-09-2008 19:22:02 15 C 5 g/m*3 15 C 0 km/h
2824 20-09-2008 19:27:02 14.7 C 5.04 g/m*3 14.7 C 0 km/h
2825 20-09-2008 19:32:01 14 C 4.95 g/m*3 14 C 0 km/h
Sensor: Nr:Datum:Temp:Abs-Feuchte:Windchill:Wind:
Aussen-T/F 2826 20-09-2008 19:37:01 13.7 C 4.97 g/m*3 13.7 C 0 km/h
2827 20-09-2008 19:42:01 13.5 C 5.03 g/m*3 13.5 C 0 km/h
2828 20-09-2008 19:47:01 13.2 C 5.05 g/m*3 13.2 C 0 km/h
2829 20-09-2008 19:52:01 13.1 C 5.14 g/m*3 13.1 C 0 km/h
2830 20-09-2008 19:57:01 13.1 C 5.25 g/m*3 13.1 C 0 km/h
2831 20-09-2008 20:02:02 13.1 C 5.25 g/m*3 13.1 C 0 km/h
2832 20-09-2008 20:07:02 13 C 4.99 g/m*3 13 C 0 km/h
2833 20-09-2008 20:12:02 13 C 4.99 g/m*3 13 C 0 km/h
2834 20-09-2008 20:17:01 13 C 5.22 g/m*3 13 C 0 km/h
2835 20-09-2008 20:22:01 12.7 C 5.34 g/m*3 12.7 C 0 km/h
2836 20-09-2008 20:27:01 12.6 C 5.42 g/m*3 12.6 C 0 km/h
2837 20-09-2008 20:32:02 12.5 C 5.39 g/m*3 12.5 C 0 km/h
2838 20-09-2008 20:37:02 12.5 C 5.5 g/m*3 12.5 C 0 km/h
2839 20-09-2008 20:42:02 12.2 C 5.29 g/m*3 12.2 C 0 km/h
2840 20-09-2008 20:47:03 12.1 C 5.25 g/m*3 12.1 C 0 km/h
2841 20-09-2008 20:52:03 11.9 C 5.4 g/m*3 11.9 C 0 km/h
2842 20-09-2008 20:57:03 11.7 C 5.33 g/m*3 11.7 C 0 km/h
2843 20-09-2008 21:02:02 11.7 C 5.33 g/m*3 11.7 C 0 km/h
2844 20-09-2008 21:07:02 11.6 C 5.4 g/m*3 11.6 C 0 km/h
2845 20-09-2008 21:12:02 11.5 C 5.37 g/m*3 11.5 C 0 km/h
2846 20-09-2008 21:17:03 11.3 C 5.3 g/m*3 11.3 C 0 km/h
2847 20-09-2008 21:22:03 11.2 C 5.27 g/m*3 11.2 C 0 km/h
2848 20-09-2008 21:27:03 11.1 C 5.34 g/m*3 11.1 C 0 km/h
2849 20-09-2008 21:32:02 11 C 5.31 g/m*3 11 C 0 km/h
2850 20-09-2008 21:37:02 11 C 5.41 g/m*3 11 C 0 km/h
Sensor: Nr:Datum:Temp:Abs-Feuchte:Windchill:Wind:
Aussen-T/F 2851 20-09-2008 21:42:02 10.8 C 5.44 g/m*3 10.8 C 0 km/h
2852 20-09-2008 21:47:01 10.8 C 5.44 g/m*3 10.8 C 0 km/h
2853 20-09-2008 21:52:01 10.8 C 5.54 g/m*3 10.8 C 0 km/h
2854 20-09-2008 21:57:01 10.7 C 5.5 g/m*3 10.7 C 0 km/h
2855 20-09-2008 22:03:02 10.8 C 5.73 g/m*3 10.8 C 0 km/h
2856 20-09-2008 22:08:02 10.8 C 5.73 g/m*3 10.8 C 0 km/h
2857 20-09-2008 22:13:02 10.7 C 5.7 g/m*3 10.7 C 0 km/h
2858 20-09-2008 22:18:02 10.8 C 5.73 g/m*3 10.8 C 0 km/h
2859 20-09-2008 22:23:02 10.9 C 5.67 g/m*3 10.9 C 0 km/h
2860 20-09-2008 22:28:02 11 C 5.61 g/m*3 11 C 0 km/h
2861 20-09-2008 22:33:02 11 C 5.61 g/m*3 11 C 0 km/h
2862 20-09-2008 22:38:02 11 C 5.71 g/m*3 11 C 0 km/h
2863 20-09-2008 22:43:02 11 C 5.71 g/m*3 11 C 0 km/h
2864 20-09-2008 22:48:02 11 C 5.81 g/m*3 11 C 0 km/h
2865 20-09-2008 22:53:02 11 C 5.81 g/m*3 11 C 0 km/h
2866 20-09-2008 22:58:03 11.1 C 5.94 g/m*3 11.1 C 0 km/h
2867 20-09-2008 23:03:03 11.1 C 5.84 g/m*3 11.1 C 0 km/h
2868 20-09-2008 23:08:03 11 C 5.91 g/m*3 11 C 0 km/h
2869 20-09-2008 23:13:03 11 C 5.91 g/m*3 11 C 0 km/h
2870 20-09-2008 23:18:03 11 C 6.01 g/m*3 11 C 0 km/h
2871 20-09-2008 23:23:03 11 C 6.01 g/m*3 11 C 0 km/h
2872 20-09-2008 23:28:03 11 C 6.01 g/m*3 11 C 0 km/h
2873 20-09-2008 23:33:03 10.9 C 6.07 g/m*3 10.9 C 0 km/h
2874 20-09-2008 23:38:03 10.9 C 6.07 g/m*3 10.9 C 0 km/h
2875 20-09-2008 23:43:03 10.9 C 6.17 g/m*3 10.9 C 0 km/h
Sensor: Nr:Datum:Temp:Abs-Feuchte:Windchill:Wind:
Aussen-T/F 2876 20-09-2008 23:48:03 10.9 C 6.17 g/m*3 10.9 C 0 km/h
2877 20-09-2008 23:53:03 10.8 C 6.13 g/m*3 10.8 C 0 km/h
2878 20-09-2008 23:58:03 10.7 C 6.09 g/m*3 10.7 C 0 km/h
2879 21-09-2008 00:03:03 10.7 C 6.09 g/m*3 10.7 C 0 km/h
2880 21-09-2008 00:08:03 10.6 C 6.05 g/m*3 10.6 C 0 km/h
2881 21-09-2008 00:13:03 10.5 C 6.11 g/m*3 10.5 C 0 km/h
2882 21-09-2008 00:18:03 10.5 C 6.21 g/m*3 10.5 C 0 km/h
2883 21-09-2008 00:23:03 10.3 C 6.13 g/m*3 10.3 C 0 km/h
2884 21-09-2008 00:28:03 10.2 C 6.19 g/m*3 10.2 C 0 km/h
2885 21-09-2008 00:33:04 10.1 C 6.15 g/m*3 10.1 C 0 km/h
2886 21-09-2008 00:38:04 9.9 C 6.16 g/m*3 9.9 C 0 km/h
2887 21-09-2008 00:43:04 9.8 C 6.12 g/m*3 9.8 C 0 km/h
2888 21-09-2008 00:48:04 9.8 C 6.22 g/m*3 9.8 C 0 km/h
2889 21-09-2008 00:53:04 9.8 C 6.22 g/m*3 9.8 C 0 km/h
2890 21-09-2008 00:58:04 9.6 C 6.14 g/m*3 9.6 C 0 km/h
2891 21-09-2008 01:03:04 9.8 C 6.22 g/m*3 9.8 C 0 km/h
2892 21-09-2008 01:08:04 9.8 C 6.22 g/m*3 9.8 C 0 km/h
2893 21-09-2008 01:13:04 9.7 C 6.18 g/m*3 9.7 C 0 km/h
2894 21-09-2008 01:18:04 9.7 C 6.18 g/m*3 9.7 C 0 km/h
2895 21-09-2008 01:23:04 9.7 C 6.18 g/m*3 9.7 C 0 km/h
2896 21-09-2008 01:28:04 9.8 C 6.22 g/m*3 9.8 C 0 km/h
2897 21-09-2008 01:33:04 9.7 C 6.27 g/m*3 9.7 C 0 km/h
2898 21-09-2008 01:38:04 9.8 C 6.31 g/m*3 9.8 C 0 km/h
2899 21-09-2008 01:43:04 9.8 C 6.31 g/m*3 9.8 C 0 km/h
2900 21-09-2008 01:48:04 9.6 C 6.32 g/m*3 9.6 C 0 km/h
Sensor: Nr:Datum:Temp:Abs-Feuchte:Windchill:Wind:
Aussen-T/F 2901 21-09-2008 01:53:04 9.5 C 6.37 g/m*3 9.5 C 0 km/h
2902 21-09-2008 01:58:04 9.4 C 6.33 g/m*3 9.4 C 0 km/h
2903 21-09-2008 02:03:04 9.2 C 6.34 g/m*3 9.2 C 0 km/h
2904 21-09-2008 02:08:04 9.1 C 6.3 g/m*3 9.1 C 0 km/h
2905 21-09-2008 02:13:04 8.9 C 6.39 g/m*3 8.9 C 0 km/h
2906 21-09-2008 02:18:05 8.7 C 6.31 g/m*3 8.7 C 0 km/h
2907 21-09-2008 02:23:05 8.6 C 6.27 g/m*3 8.6 C 0 km/h
2908 21-09-2008 02:28:05 8.6 C 6.27 g/m*3 8.6 C 0 km/h
2909 21-09-2008 02:33:05 8.5 C 6.32 g/m*3 8.5 C 0 km/h
2910 21-09-2008 02:38:05 8.4 C 6.28 g/m*3 8.4 C 0 km/h
2911 21-09-2008 02:43:05 8.4 C 6.28 g/m*3 8.4 C 0 km/h
2912 21-09-2008 02:48:05 8.4 C 6.36 g/m*3 8.4 C 0 km/h
2913 21-09-2008 02:53:05 8.2 C 6.28 g/m*3 8.2 C 0 km/h
2914 21-09-2008 02:58:05 8.1 C 6.24 g/m*3 8.1 C 0 km/h
2915 21-09-2008 03:03:05 8.1 C 6.24 g/m*3 8.1 C 0 km/h
2916 21-09-2008 03:08:05 8 C 6.2 g/m*3 8 C 0 km/h
2917 21-09-2008 03:13:05 7.9 C 6.24 g/m*3 7.9 C 0 km/h
2918 21-09-2008 03:18:05 7.9 C 6.24 g/m*3 7.9 C 0 km/h
2919 21-09-2008 03:23:05 7.9 C 6.24 g/m*3 7.9 C 0 km/h
2920 21-09-2008 03:28:05 7.9 C 6.32 g/m*3 7.9 C 0 km/h
2921 21-09-2008 03:33:05 7.9 C 6.41 g/m*3 7.9 C 0 km/h
2922 21-09-2008 03:38:05 7.9 C 6.41 g/m*3 7.9 C 0 km/h
2923 21-09-2008 03:43:05 7.8 C 6.37 g/m*3 7.8 C 0 km/h
2924 21-09-2008 03:48:05 7.8 C 6.37 g/m*3 7.8 C 0 km/h
2925 21-09-2008 03:53:05 7.9 C 6.49 g/m*3 7.9 C 0 km/h
Sensor: Nr:Datum:Temp:Abs-Feuchte:Windchill:Wind:
Aussen-T/F 2926 21-09-2008 03:58:05 7.9 C 6.49 g/m*3 7.9 C 0 km/h
2927 21-09-2008 04:03:06 7.9 C 6.49 g/m*3 7.9 C 0 km/h
2928 21-09-2008 04:08:06 7.9 C 6.49 g/m*3 7.9 C 0 km/h
2929 21-09-2008 04:13:06 8 C 6.45 g/m*3 8 C 0 km/h
2930 21-09-2008 04:18:06 8 C 6.45 g/m*3 8 C 0 km/h
2931 21-09-2008 04:23:06 8 C 6.45 g/m*3 8 C 0 km/h
2932 21-09-2008 04:28:06 8 C 6.45 g/m*3 8 C 0 km/h
2933 21-09-2008 04:33:06 8 C 6.45 g/m*3 8 C 0 km/h
2934 21-09-2008 04:38:06 8 C 6.45 g/m*3 8 C 0 km/h
2935 21-09-2008 04:43:06 8 C 6.45 g/m*3 8 C 0 km/h
2936 21-09-2008 04:48:06 7.9 C 6.57 g/m*3 7.9 C 0 km/h
2937 21-09-2008 04:53:06 7.9 C 6.65 g/m*3 7.9 C 0 km/h
2938 21-09-2008 04:58:06 7.8 C 6.61 g/m*3 7.8 C 0 km/h
2939 21-09-2008 05:03:06 7.9 C 6.65 g/m*3 7.9 C 0 km/h
2940 21-09-2008 05:08:06 7.8 C 6.61 g/m*3 7.8 C 0 km/h
2941 21-09-2008 05:13:06 7.8 C 6.69 g/m*3 7.8 C 0 km/h
2942 21-09-2008 05:18:06 7.8 C 6.69 g/m*3 7.8 C 0 km/h
2943 21-09-2008 05:23:06 7.8 C 6.61 g/m*3 7.8 C 0 km/h
2944 21-09-2008 05:28:06 7.8 C 6.61 g/m*3 7.8 C 0 km/h
2945 21-09-2008 05:33:06 7.8 C 6.61 g/m*3 7.8 C 0 km/h
2946 21-09-2008 05:38:07 7.7 C 6.57 g/m*3 7.7 C 0 km/h
2947 21-09-2008 05:43:07 7.7 C 6.57 g/m*3 7.7 C 0 km/h
2948 21-09-2008 05:48:07 7.6 C 6.53 g/m*3 7.6 C 0 km/h
2949 21-09-2008 05:53:07 7.6 C 6.53 g/m*3 7.6 C 0 km/h
2950 21-09-2008 05:58:07 7.4 C 6.44 g/m*3 7.4 C 0 km/h
Sensor: Nr:Datum:Temp:Abs-Feuchte:Windchill:Wind:
Aussen-T/F 2951 21-09-2008 06:03:07 7.4 C 6.44 g/m*3 7.4 C 0 km/h
2952 21-09-2008 06:08:07 7.4 C 6.52 g/m*3 7.4 C 0 km/h
2953 21-09-2008 06:13:07 7.4 C 6.52 g/m*3 7.4 C 0 km/h
2954 21-09-2008 06:18:07 7.4 C 6.52 g/m*3 7.4 C 0 km/h
2955 21-09-2008 06:23:07 7.4 C 6.52 g/m*3 7.4 C 0 km/h
2956 21-09-2008 06:28:07 7.2 C 6.52 g/m*3 7.2 C 0 km/h
2957 21-09-2008 06:33:07 7.1 C 6.47 g/m*3 7.1 C 0 km/h
2958 21-09-2008 06:38:07 7.1 C 6.47 g/m*3 7.1 C 0 km/h
2959 21-09-2008 06:43:07 7.1 C 6.55 g/m*3 7.1 C 0 km/h
2960 21-09-2008 06:48:07 7 C 6.51 g/m*3 7 C 0 km/h
2961 21-09-2008 06:53:07 7 C 6.51 g/m*3 7 C 0 km/h
2962 21-09-2008 06:58:07 7 C 6.51 g/m*3 7 C 0 km/h
2963 21-09-2008 07:03:07 7 C 6.51 g/m*3 7 C 0 km/h
2964 21-09-2008 07:08:07 7.1 C 6.55 g/m*3 7.1 C 0 km/h
2965 21-09-2008 07:13:08 7 C 6.51 g/m*3 7 C 0 km/h
2966 21-09-2008 07:18:08 7 C 6.51 g/m*3 7 C 0 km/h
2967 21-09-2008 07:23:08 7 C 6.51 g/m*3 7 C 0 km/h
2968 21-09-2008 07:28:08 7.1 C 6.55 g/m*3 7.1 C 0 km/h
2969 21-09-2008 07:33:08 7.1 C 6.55 g/m*3 7.1 C 0 km/h
2970 21-09-2008 07:38:08 7.1 C 6.55 g/m*3 7.1 C 0 km/h
2971 21-09-2008 07:43:08 7.2 C 6.59 g/m*3 7.2 C 0 km/h
2972 21-09-2008 07:48:08 7.3 C 6.64 g/m*3 7.3 C 0 km/h
2973 21-09-2008 07:53:08 7.5 C 6.72 g/m*3 7.5 C 0 km/h
2974 21-09-2008 07:58:08 7.5 C 6.72 g/m*3 7.5 C 0 km/h
2975 21-09-2008 08:03:08 7.5 C 6.72 g/m*3 7.5 C 0 km/h
Sensor: Nr:Datum:Temp:Abs-Feuchte:Windchill:Wind:
Aussen-T/F 2976 21-09-2008 08:08:08 7.6 C 6.77 g/m*3 7.6 C 0 km/h
2977 21-09-2008 08:13:08 7.6 C 6.77 g/m*3 7.6 C 0 km/h
2978 21-09-2008 08:18:08 7.6 C 6.77 g/m*3 7.6 C 0 km/h
2979 21-09-2008 08:23:08 7.6 C 6.69 g/m*3 7.6 C 0 km/h
2980 21-09-2008 08:28:08 7.7 C 6.81 g/m*3 7.7 C 0 km/h
2981 21-09-2008 08:33:08 7.8 C 6.77 g/m*3 7.8 C 0 km/h
2982 21-09-2008 08:38:08 7.8 C 6.86 g/m*3 7.8 C 0 km/h
2983 21-09-2008 08:43:08 7.9 C 6.82 g/m*3 7.9 C 0 km/h
2984 21-09-2008 08:48:08 8 C 6.78 g/m*3 8 C 0 km/h
2985 21-09-2008 08:53:09 8.1 C 6.82 g/m*3 8.1 C 0 km/h
2986 21-09-2008 08:58:09 8.2 C 6.87 g/m*3 8.2 C 0 km/h
2987 21-09-2008 09:03:09 8.2 C 6.87 g/m*3 8.2 C 0 km/h
2988 21-09-2008 09:08:09 8.2 C 6.87 g/m*3 8.2 C 0 km/h
2989 21-09-2008 09:13:09 8.3 C 6.91 g/m*3 8.3 C 0 km/h
2990 21-09-2008 09:18:02 8.6 C 6.96 g/m*3 8.6 C 0 km/h
2991 21-09-2008 09:23:02 8.6 C 6.96 g/m*3 8.6 C 0 km/h
2992 21-09-2008 09:28:02 8.6 C 6.96 g/m*3 8.6 C 0 km/h
2993 21-09-2008 09:33:02 8.7 C 6.92 g/m*3 8.7 C 0 km/h
2994 21-09-2008 09:38:02 9 C 6.96 g/m*3 9 C 0 km/h
2995 21-09-2008 09:43:02 9.1 C 7.01 g/m*3 9.1 C 0 km/h
2996 21-09-2008 09:48:02 9.2 C 7.05 g/m*3 9.2 C 0 km/h
2997 21-09-2008 09:53:02 9.4 C 7.15 g/m*3 9.4 C 0 km/h
2998 21-09-2008 09:58:02 9.5 C 7.1 g/m*3 9.5 C 0 km/h
2999 21-09-2008 10:03:02 9.6 C 7.05 g/m*3 9.6 C 0 km/h
3000 21-09-2008 10:08:02 10 C 7.05 g/m*3 10 C 0 km/h
Sensor: Nr:Datum:Temp:Abs-Feuchte:Windchill:Wind:
Aussen-T/F 3001 21-09-2008 10:13:02 10.1 C 7 g/m*3 10.1 C 0 km/h
3002 21-09-2008 10:18:02 10.4 C 6.84 g/m*3 10.4 C 0 km/h
3003 21-09-2008 10:23:02 10.7 C 6.88 g/m*3 10.7 C 0 km/h
3004 21-09-2008 10:28:02 10.7 C 6.78 g/m*3 10.7 C 0 km/h
3005 21-09-2008 10:33:02 10.8 C 6.72 g/m*3 10.8 C 0 km/h
3006 21-09-2008 10:38:02 11 C 6.71 g/m*3 11 C 0 km/h
3007 21-09-2008 10:43:02 11.2 C 6.69 g/m*3 11.2 C 0 km/h
3008 21-09-2008 10:48:02 11.2 C 6.59 g/m*3 11.2 C 0 km/h
3009 21-09-2008 10:53:02 11.3 C 6.43 g/m*3 11.3 C 0 km/h
3010 21-09-2008 10:58:02 11.5 C 6.4 g/m*3 11.5 C 0 km/h
3011 21-09-2008 11:03:02 11.6 C 6.34 g/m*3 11.6 C 0 km/h
3012 21-09-2008 11:08:02 11.7 C 6.38 g/m*3 11.7 C 0 km/h
3013 21-09-2008 11:13:02 11.9 C 6.46 g/m*3 11.9 C 0 km/h
3014 21-09-2008 11:18:02 12 C 6.39 g/m*3 12 C 0 km/h
3015 21-09-2008 11:23:03 12.4 C 6.45 g/m*3 12.4 C 0 km/h
3016 21-09-2008 11:28:03 12.6 C 6.31 g/m*3 12.6 C 0 km/h
3017 21-09-2008 11:33:02 12.7 C 6.35 g/m*3 12.7 C 0 km/h
3018 21-09-2008 11:38:02 12.8 C 6.27 g/m*3 12.8 C 0 km/h
3019 21-09-2008 11:43:02 13 C 6.24 g/m*3 13 C 0 km/h
3020 21-09-2008 11:48:02 13.2 C 6.2 g/m*3 13.2 C 0 km/h
3021 21-09-2008 11:53:02 13.2 C 6.2 g/m*3 13.2 C 0 km/h
3022 21-09-2008 11:58:02 13.4 C 6.16 g/m*3 13.4 C 0 km/h
3023 21-09-2008 12:03:02 13.5 C 6.08 g/m*3 13.5 C 0 km/h
3024 21-09-2008 12:08:02 13.7 C 6.16 g/m*3 13.7 C 0 km/h
3025 21-09-2008 12:13:02 13.9 C 6.23 g/m*3 13.9 C 0 km/h
Sensor: Nr:Datum:Temp:Abs-Feuchte:Windchill:Wind:
Aussen-T/F 3026 21-09-2008 12:18:02 14 C 6.03 g/m*3 14 C 0 km/h
3027 21-09-2008 12:23:02 14.1 C 6.07 g/m*3 14.1 C 0 km/h
3028 21-09-2008 12:28:02 14 C 5.79 g/m*3 14 C 0 km/h
3029 21-09-2008 12:33:03 14 C 5.79 g/m*3 14 C 0 km/h
3030 21-09-2008 12:38:03 14.2 C 5.98 g/m*3 14.2 C 0 km/h
3031 21-09-2008 12:43:03 14.4 C 6.06 g/m*3 14.4 C 0 km/h
3032 21-09-2008 12:48:02 14.5 C 5.97 g/m*3 14.5 C 0 km/h
3033 21-09-2008 12:53:02 14.7 C 6.04 g/m*3 14.7 C 0 km/h
3034 21-09-2008 12:58:02 14.8 C 6.08 g/m*3 14.8 C 0 km/h
3035 21-09-2008 13:03:02 14.9 C 6.12 g/m*3 14.9 C 0 km/h
3036 21-09-2008 13:08:02 15.1 C 6.06 g/m*3 15.1 C 0 km/h
3037 21-09-2008 13:13:02 15.2 C 6.23 g/m*3 15.2 C 0 km/h
3038 21-09-2008 13:18:02 15.4 C 6.18 g/m*3 15.4 C 0 km/h
3039 21-09-2008 13:23:02 15.5 C 6.08 g/m*3 15.5 C 0 km/h
3040 21-09-2008 13:28:02 15.6 C 5.98 g/m*3 15.6 C 0 km/h
3041 21-09-2008 13:33:02 15.7 C 5.89 g/m*3 15.7 C 0 km/h
3042 21-09-2008 13:38:02 15.8 C 5.92 g/m*3 15.8 C 0 km/h
3043 21-09-2008 13:43:02 15.8 C 5.79 g/m*3 15.8 C 0 km/h
3044 21-09-2008 13:48:02 16 C 5.86 g/m*3 16 C 0 km/h
3045 21-09-2008 13:53:02 16.2 C 6.21 g/m*3 16.2 C 0 km/h
3046 21-09-2008 13:58:02 16.2 C 5.93 g/m*3 16.2 C 0 km/h
3047 21-09-2008 14:03:03 16.2 C 5.93 g/m*3 16.2 C 0 km/h
3048 21-09-2008 14:08:03 16.3 C 5.83 g/m*3 16.3 C 0 km/h
3049 21-09-2008 14:13:03 16.3 C 5.83 g/m*3 16.3 C 0 km/h
3050 21-09-2008 14:18:02 16.4 C 6 g/m*3 16.4 C 0 km/h
Sensor: Nr:Datum:Temp:Abs-Feuchte:Windchill:Wind:
Aussen-T/F 3051 21-09-2008 14:23:02 16.4 C 5.86 g/m*3 16.4 C 0 km/h
3052 21-09-2008 14:28:02 16.1 C 5.89 g/m*3 16.1 C 0 km/h
3053 21-09-2008 14:33:03 15.8 C 6.06 g/m*3 15.8 C 0 km/h
3054 21-09-2008 14:38:03 15.6 C 5.98 g/m*3 15.6 C 0 km/h
3055 21-09-2008 14:43:03 15.6 C 6.12 g/m*3 15.6 C 0 km/h
3056 21-09-2008 14:48:02 15.7 C 6.15 g/m*3 15.7 C 0 km/h
3057 21-09-2008 14:53:02 16 C 6.13 g/m*3 16 C 0 km/h
3058 21-09-2008 14:58:02 16.3 C 6.24 g/m*3 16.3 C 0 km/h
3059 21-09-2008 15:03:02 16.6 C 6.22 g/m*3 16.6 C 0 km/h
3060 21-09-2008 15:08:02 16.7 C 6.11 g/m*3 16.7 C 0 km/h
3061 21-09-2008 15:13:02 16.7 C 5.97 g/m*3 16.7 C 0 km/h
3062 21-09-2008 15:18:03 16.7 C 6.11 g/m*3 16.7 C 0 km/h
3063 21-09-2008 15:23:03 16.6 C 6.22 g/m*3 16.6 C 0 km/h
3064 21-09-2008 15:28:03 16.5 C 6.32 g/m*3 16.5 C 0 km/h
3065 21-09-2008 15:33:02 16.7 C 6.54 g/m*3 16.7 C 0 km/h
3066 21-09-2008 15:38:02 17.5 C 6.71 g/m*3 17.5 C 0 km/h
3067 21-09-2008 15:43:02 17.7 C 6.49 g/m*3 17.7 C 0 km/h
3068 21-09-2008 15:48:01 17.9 C 6.41 g/m*3 17.9 C 0 km/h
3069 21-09-2008 15:53:01 18.1 C 6.18 g/m*3 18.1 C 0 km/h
3070 21-09-2008 15:58:01 18.3 C 6.41 g/m*3 18.3 C 0 km/h
3071 21-09-2008 16:03:02 18.6 C 6.21 g/m*3 18.6 C 0 km/h
3072 21-09-2008 16:08:02 18.7 C 6.08 g/m*3 18.7 C 0 km/h
3073 21-09-2008 16:13:02 18.9 C 6.16 g/m*3 18.9 C 0 km/h
3074 21-09-2008 16:18:01 18.5 C 5.85 g/m*3 18.5 C 0 km/h
3075 21-09-2008 16:23:01 18.2 C 5.91 g/m*3 18.2 C 0 km/h
Sensor: Nr:Datum:Temp:Abs-Feuchte:Windchill:Wind:
Aussen-T/F 3076 21-09-2008 16:28:01 17.9 C 6.11 g/m*3 17.9 C 0 km/h
3077 21-09-2008 16:33:01 17.9 C 6.11 g/m*3 17.9 C 0 km/h
3078 21-09-2008 16:38:01 17.6 C 6.15 g/m*3 17.6 C 0 km/h
3079 21-09-2008 16:43:01 17.2 C 6.15 g/m*3 17.2 C 0 km/h
3080 21-09-2008 16:48:03 17.1 C 6.26 g/m*3 17.1 C 0 km/h
3081 21-09-2008 16:53:03 17 C 6.37 g/m*3 17 C 0 km/h
3082 21-09-2008 16:58:03 16.8 C 6.43 g/m*3 16.8 C 0 km/h
3083 21-09-2008 17:03:02 16.6 C 6.5 g/m*3 16.6 C 0 km/h
3084 21-09-2008 17:08:02 16.6 C 6.5 g/m*3 16.6 C 0 km/h
3085 21-09-2008 17:13:02 16 C 6.4 g/m*3 16 C 0 km/h
3086 21-09-2008 17:18:02 16.1 C 6.44 g/m*3 16.1 C 0 km/h
3087 21-09-2008 17:23:02 16.2 C 6.34 g/m*3 16.2 C 0 km/h
3088 21-09-2008 17:28:02 16.1 C 6.31 g/m*3 16.1 C 0 km/h
3089 21-09-2008 17:33:03 15.8 C 6.46 g/m*3 15.8 C 0 km/h
3090 21-09-2008 17:38:03 15.9 C 6.64 g/m*3 15.9 C 0 km/h
3091 21-09-2008 17:43:03 16.3 C 6.52 g/m*3 16.3 C 0 km/h
3092 21-09-2008 17:48:02 16.6 C 6.64 g/m*3 16.6 C 0 km/h
3093 21-09-2008 17:53:02 16.8 C 6.58 g/m*3 16.8 C 0 km/h
3094 21-09-2008 17:58:03 17.2 C 6.59 g/m*3 17.2 C 0 km/h
3095 21-09-2008 18:03:01 17.2 C 6.44 g/m*3 17.2 C 0 km/h
3096 21-09-2008 18:08:01 16.9 C 6.47 g/m*3 16.9 C 0 km/h
3097 21-09-2008 18:13:01 16.5 C 6.46 g/m*3 16.5 C 0 km/h
3098 21-09-2008 18:18:02 16.5 C 6.6 g/m*3 16.5 C 0 km/h
3099 21-09-2008 18:23:02 16.5 C 6.6 g/m*3 16.5 C 0 km/h
3100 21-09-2008 18:28:02 16.5 C 6.6 g/m*3 16.5 C 0 km/h
Sensor: Nr:Datum:Temp:Abs-Feuchte:Windchill:Wind:
Aussen-T/F 3101 21-09-2008 18:33:02 16.4 C 6.56 g/m*3 16.4 C 0 km/h
3102 21-09-2008 18:38:02 16.5 C 6.74 g/m*3 16.5 C 0 km/h
3103 21-09-2008 18:43:02 16.4 C 6.7 g/m*3 16.4 C 0 km/h
3104 21-09-2008 18:48:02 16.3 C 6.8 g/m*3 16.3 C 0 km/h
3105 21-09-2008 18:53:02 16.2 C 6.76 g/m*3 16.2 C 0 km/h
3106 21-09-2008 18:58:02 16.2 C 6.76 g/m*3 16.2 C 0 km/h
3107 21-09-2008 19:03:02 15.7 C 6.82 g/m*3 15.7 C 0 km/h
3108 21-09-2008 19:08:02 15.4 C 6.96 g/m*3 15.4 C 0 km/h
3109 21-09-2008 19:13:02 15.1 C 6.84 g/m*3 15.1 C 0 km/h
3110 21-09-2008 19:18:02 14.7 C 7.05 g/m*3 14.7 C 0 km/h
3111 21-09-2008 19:23:02 14.2 C 7.08 g/m*3 14.2 C 0 km/h
3112 21-09-2008 19:28:02 13.9 C 7.19 g/m*3 13.9 C 0 km/h
3113 21-09-2008 19:33:02 13.8 C 7.27 g/m*3 13.8 C 0 km/h
3114 21-09-2008 19:38:02 13.7 C 7.34 g/m*3 13.7 C 0 km/h
3115 21-09-2008 19:43:02 13.5 C 7.37 g/m*3 13.5 C 0 km/h
3116 21-09-2008 19:48:02 13.4 C 7.44 g/m*3 13.4 C 0 km/h
3117 21-09-2008 19:53:02 13.1 C 7.42 g/m*3 13.1 C 0 km/h
3118 21-09-2008 19:58:02 12.9 C 7.55 g/m*3 12.9 C 0 km/h
3119 21-09-2008 20:03:01 12.8 C 7.62 g/m*3 12.8 C 0 km/h
3120 21-09-2008 20:08:01 12.7 C 7.68 g/m*3 12.7 C 0 km/h
3121 21-09-2008 20:13:01 12.6 C 7.74 g/m*3 12.6 C 0 km/h
3122 21-09-2008 20:18:02 12.5 C 7.7 g/m*3 12.5 C 0 km/h
3123 21-09-2008 20:23:02 12.3 C 7.6 g/m*3 12.3 C 0 km/h
3124 21-09-2008 20:28:02 12.2 C 7.77 g/m*3 12.2 C 0 km/h
3125 21-09-2008 20:33:02 12.1 C 7.72 g/m*3 12.1 C 0 km/h
Sensor: Nr:Datum:Temp:Abs-Feuchte:Windchill:Wind:
Aussen-T/F 3126 21-09-2008 20:38:02 12.1 C 7.83 g/m*3 12.1 C 0 km/h
3127 21-09-2008 20:43:02 12.1 C 7.83 g/m*3 12.1 C 0 km/h
3128 21-09-2008 20:48:02 12.1 C 7.83 g/m*3 12.1 C 0 km/h
3129 21-09-2008 20:53:02 12.1 C 7.83 g/m*3 12.1 C 0 km/h
3130 21-09-2008 20:58:02 12.2 C 7.88 g/m*3 12.2 C 0 km/h
3131 21-09-2008 21:03:02 11.9 C 7.84 g/m*3 11.9 C 0 km/h
3132 21-09-2008 21:08:02 11.8 C 7.89 g/m*3 11.8 C 0 km/h
3133 21-09-2008 21:13:02 11.9 C 7.94 g/m*3 11.9 C 0 km/h
3134 21-09-2008 21:18:02 11.8 C 8 g/m*3 11.8 C 0 km/h
3135 21-09-2008 21:23:02 11.7 C 7.95 g/m*3 11.7 C 0 km/h
3136 21-09-2008 21:28:02 11.6 C 7.9 g/m*3 11.6 C 0 km/h
3137 21-09-2008 21:33:02 11.5 C 7.95 g/m*3 11.5 C 0 km/h
3138 21-09-2008 21:38:02 11.5 C 7.95 g/m*3 11.5 C 0 km/h
3139 21-09-2008 21:43:02 11.5 C 7.95 g/m*3 11.5 C 0 km/h
3140 21-09-2008 21:48:02 11.5 C 7.95 g/m*3 11.5 C 0 km/h
3141 21-09-2008 21:53:02 11.3 C 7.85 g/m*3 11.3 C 0 km/h
3142 21-09-2008 21:58:02 11.2 C 7.91 g/m*3 11.2 C 0 km/h
3143 21-09-2008 22:03:01 11.2 C 7.91 g/m*3 11.2 C 0 km/h
3144 21-09-2008 22:08:01 11.1 C 7.96 g/m*3 11.1 C 0 km/h
3145 21-09-2008 22:13:01 11.1 C 7.96 g/m*3 11.1 C 0 km/h
3146 21-09-2008 22:19:02 11.1 C 8.06 g/m*3 11.1 C 0 km/h
3147 21-09-2008 22:24:02 11.1 C 8.06 g/m*3 11.1 C 0 km/h
3148 21-09-2008 22:29:02 11.1 C 8.06 g/m*3 11.1 C 0 km/h
3149 21-09-2008 22:34:02 11.2 C 8.11 g/m*3 11.2 C 0 km/h
3150 21-09-2008 22:39:02 11.2 C 8.11 g/m*3 11.2 C 0 km/h
Sensor: Nr:Datum:Temp:Abs-Feuchte:Windchill:Wind:
Aussen-T/F 3151 21-09-2008 22:44:02 11.1 C 8.06 g/m*3 11.1 C 0 km/h
3152 21-09-2008 22:49:02 11.1 C 8.06 g/m*3 11.1 C 0 km/h
3153 21-09-2008 22:54:02 11 C 8.01 g/m*3 11 C 0 km/h
3154 21-09-2008 22:59:02 11 C 8.11 g/m*3 11 C 0 km/h
3155 21-09-2008 23:04:02 10.9 C 8.06 g/m*3 10.9 C 0 km/h
3156 21-09-2008 23:09:02 10.8 C 8.01 g/m*3 10.8 C 0 km/h
3157 21-09-2008 23:14:02 10.7 C 8.05 g/m*3 10.7 C 0 km/h
3158 21-09-2008 23:19:02 10.8 C 8.11 g/m*3 10.8 C 0 km/h
3159 21-09-2008 23:24:02 10.8 C 8.2 g/m*3 10.8 C 0 km/h
3160 21-09-2008 23:29:03 11 C 8.31 g/m*3 11 C 0 km/h
3161 21-09-2008 23:34:03 11.1 C 8.36 g/m*3 11.1 C 0 km/h
3162 21-09-2008 23:39:03 11.2 C 8.41 g/m*3 11.2 C 0 km/h
3163 21-09-2008 23:44:03 11.3 C 8.36 g/m*3 11.3 C 0 km/h
3164 21-09-2008 23:49:03 11.4 C 8.42 g/m*3 11.4 C 0 km/h
3165 21-09-2008 23:54:03 11.5 C 8.47 g/m*3 11.5 C 0 km/h
3166 21-09-2008 23:59:03 11.4 C 8.31 g/m*3 11.4 C 0 km/h
3167 22-09-2008 00:04:03 11.3 C 8.16 g/m*3 11.3 C 0 km/h
3168 22-09-2008 00:09:03 11.2 C 8.11 g/m*3 11.2 C 0 km/h
3169 22-09-2008 00:14:03 11.2 C 8.11 g/m*3 11.2 C 0 km/h
3170 22-09-2008 00:19:03 11 C 8.01 g/m*3 11 C 0 km/h
3171 22-09-2008 00:24:03 10.8 C 8.01 g/m*3 10.8 C 0 km/h
3172 22-09-2008 00:29:03 10.7 C 7.96 g/m*3 10.7 C 0 km/h
3173 22-09-2008 00:34:03 10.5 C 7.86 g/m*3 10.5 C 0 km/h
3174 22-09-2008 00:39:03 10.4 C 7.9 g/m*3 10.4 C 0 km/h
3175 22-09-2008 00:44:03 10.4 C 7.9 g/m*3 10.4 C 0 km/h
Sensor: Nr:Datum:Temp:Abs-Feuchte:Windchill:Wind:
Aussen-T/F 3176 22-09-2008 00:49:03 10.2 C 7.8 g/m*3 10.2 C 0 km/h
3177 22-09-2008 00:54:03 10.1 C 7.75 g/m*3 10.1 C 0 km/h
3178 22-09-2008 00:59:03 10 C 7.71 g/m*3 10 C 0 km/h
3179 22-09-2008 01:04:04 10 C 7.8 g/m*3 10 C 0 km/h
3180 22-09-2008 01:09:04 10 C 7.8 g/m*3 10 C 0 km/h
3181 22-09-2008 01:14:04 9.8 C 7.89 g/m*3 9.8 C 0 km/h
3182 22-09-2008 01:19:04 9.7 C 7.84 g/m*3 9.7 C 0 km/h
3183 22-09-2008 01:24:04 9.7 C 7.93 g/m*3 9.7 C 0 km/h
3184 22-09-2008 01:29:04 9.7 C 7.93 g/m*3 9.7 C 0 km/h
3185 22-09-2008 01:34:04 9.7 C 7.93 g/m*3 9.7 C 0 km/h
3186 22-09-2008 01:39:04 9.8 C 8.07 g/m*3 9.8 C 0 km/h
3187 22-09-2008 01:44:04 10 C 8.08 g/m*3 10 C 0 km/h
3188 22-09-2008 01:49:04 10 C 8.08 g/m*3 10 C 0 km/h
3189 22-09-2008 01:54:04 10.2 C 8.18 g/m*3 10.2 C 0 km/h
3190 22-09-2008 01:59:04 10.3 C 8.33 g/m*3 10.3 C 0 km/h
3191 22-09-2008 02:04:04 10.4 C 8.38 g/m*3 10.4 C 0 km/h
3192 22-09-2008 02:09:04 10.5 C 8.44 g/m*3 10.5 C 0 km/h
3193 22-09-2008 02:14:04 10.5 C 8.34 g/m*3 10.5 C 0 km/h
3194 22-09-2008 02:19:04 10.6 C 8.39 g/m*3 10.6 C 0 km/h
3195 22-09-2008 02:24:04 10.6 C 8.39 g/m*3 10.6 C 0 km/h
3196 22-09-2008 02:29:04 10.7 C 8.45 g/m*3 10.7 C 0 km/h
3197 22-09-2008 02:34:04 10.7 C 8.45 g/m*3 10.7 C 0 km/h
3198 22-09-2008 02:39:04 10.7 C 8.45 g/m*3 10.7 C 0 km/h
3199 22-09-2008 02:44:05 10.6 C 8.39 g/m*3 10.6 C 0 km/h
3200 22-09-2008 02:49:05 10.6 C 8.39 g/m*3 10.6 C 0 km/h
Sensor: Nr:Datum:Temp:Abs-Feuchte:Windchill:Wind:
Aussen-T/F 3201 22-09-2008 02:54:05 10.7 C 8.45 g/m*3 10.7 C 0 km/h
3202 22-09-2008 02:59:05 10.7 C 8.45 g/m*3 10.7 C 0 km/h
3203 22-09-2008 03:04:05 10.7 C 8.45 g/m*3 10.7 C 0 km/h
3204 22-09-2008 03:09:05 10.7 C 8.45 g/m*3 10.7 C 0 km/h
3205 22-09-2008 03:14:05 10.8 C 8.5 g/m*3 10.8 C 0 km/h
3206 22-09-2008 03:19:05 10.8 C 8.5 g/m*3 10.8 C 0 km/h
3207 22-09-2008 03:24:05 10.9 C 8.55 g/m*3 10.9 C 0 km/h
3208 22-09-2008 03:29:05 10.9 C 8.55 g/m*3 10.9 C 0 km/h
3209 22-09-2008 03:34:05 10.9 C 8.45 g/m*3 10.9 C 0 km/h
3210 22-09-2008 03:39:05 10.9 C 8.45 g/m*3 10.9 C 0 km/h
3211 22-09-2008 03:44:05 10.9 C 8.45 g/m*3 10.9 C 0 km/h
3212 22-09-2008 03:49:05 10.9 C 8.45 g/m*3 10.9 C 0 km/h
3213 22-09-2008 03:54:05 10.8 C 8.4 g/m*3 10.8 C 0 km/h
3214 22-09-2008 03:59:05 10.8 C 8.4 g/m*3 10.8 C 0 km/h
3215 22-09-2008 04:04:05 10.9 C 8.45 g/m*3 10.9 C 0 km/h
3216 22-09-2008 04:09:05 10.8 C 8.4 g/m*3 10.8 C 0 km/h
3217 22-09-2008 04:14:05 10.9 C 8.36 g/m*3 10.9 C 0 km/h
3218 22-09-2008 04:19:06 10.9 C 8.36 g/m*3 10.9 C 0 km/h
3219 22-09-2008 04:24:06 10.9 C 8.36 g/m*3 10.9 C 0 km/h
3220 22-09-2008 04:29:06 10.9 C 8.36 g/m*3 10.9 C 0 km/h
3221 22-09-2008 04:34:06 10.8 C 8.3 g/m*3 10.8 C 0 km/h
3222 22-09-2008 04:39:06 10.8 C 8.3 g/m*3 10.8 C 0 km/h
3223 22-09-2008 04:44:06 10.8 C 8.3 g/m*3 10.8 C 0 km/h
3224 22-09-2008 04:49:06 10.7 C 8.25 g/m*3 10.7 C 0 km/h
3225 22-09-2008 04:54:06 10.7 C 8.25 g/m*3 10.7 C 0 km/h
Sensor: Nr:Datum:Temp:Abs-Feuchte:Windchill:Wind:
Aussen-T/F 3226 22-09-2008 04:59:06 10.7 C 8.25 g/m*3 10.7 C 0 km/h
3227 22-09-2008 05:04:06 10.6 C 8.1 g/m*3 10.6 C 0 km/h
3228 22-09-2008 05:09:06 10.6 C 8.1 g/m*3 10.6 C 0 km/h
3229 22-09-2008 05:14:06 10.6 C 8.1 g/m*3 10.6 C 0 km/h
3230 22-09-2008 05:19:06 10.6 C 8.1 g/m*3 10.6 C